<?xml version="1.0" encoding="UTF-8" standalone="no" ?>
<gpx xmlns="http://www.topografix.com/GPX/1/1" xmlns:xsi="http://www.w3.org/2001/XMLSchema-instance" xsi:schemaLocation="http://www.topografix.com/GPX/1/1 http://www.topografix.com/GPX/1/1/gpx.xsd" version="1.1" creator="VisuGPX - https://www.visugpx.com">
  <metadata>
    <name>Touatere</name>
  </metadata>
  <trk>
    <name><![CDATA[Touatere]]></name>
    <trkseg>
      <trkpt lat="42.90401" lon="0.10337">
        <ele>1469</ele>
        <time>2022-02-20T06:50:54Z</time>
      </trkpt>
      <trkpt lat="42.904" lon="0.10339">
        <ele>1469</ele>
        <time>2022-02-20T06:51:20Z</time>
      </trkpt>
      <trkpt lat="42.90398" lon="0.10338">
        <ele>1470</ele>
        <time>2022-02-20T06:51:45Z</time>
      </trkpt>
      <trkpt lat="42.90397" lon="0.10341">
        <ele>1471</ele>
        <time>2022-02-20T06:51:57Z</time>
      </trkpt>
      <trkpt lat="42.90397" lon="0.10338">
        <ele>1471</ele>
        <time>2022-02-20T06:52:16Z</time>
      </trkpt>
      <trkpt lat="42.90399" lon="0.1034">
        <ele>1470</ele>
        <time>2022-02-20T06:52:31Z</time>
      </trkpt>
      <trkpt lat="42.90398" lon="0.10344">
        <ele>1471</ele>
        <time>2022-02-20T06:52:53Z</time>
      </trkpt>
      <trkpt lat="42.90402" lon="0.10343">
        <ele>1470</ele>
        <time>2022-02-20T06:53:14Z</time>
      </trkpt>
      <trkpt lat="42.904" lon="0.10344">
        <ele>1471</ele>
        <time>2022-02-20T06:53:36Z</time>
      </trkpt>
      <trkpt lat="42.90395" lon="0.10347">
        <ele>1471</ele>
        <time>2022-02-20T06:54:25Z</time>
      </trkpt>
      <trkpt lat="42.90397" lon="0.10351">
        <ele>1471</ele>
        <time>2022-02-20T06:54:39Z</time>
      </trkpt>
      <trkpt lat="42.90392" lon="0.10365">
        <ele>1472</ele>
        <time>2022-02-20T06:54:51Z</time>
      </trkpt>
      <trkpt lat="42.90386" lon="0.10369">
        <ele>1474</ele>
        <time>2022-02-20T06:55:03Z</time>
      </trkpt>
      <trkpt lat="42.90381" lon="0.10372">
        <ele>1473</ele>
        <time>2022-02-20T06:55:19Z</time>
      </trkpt>
      <trkpt lat="42.90383" lon="0.10374">
        <ele>1474</ele>
        <time>2022-02-20T06:55:35Z</time>
      </trkpt>
      <trkpt lat="42.9038" lon="0.10364">
        <ele>1473</ele>
        <time>2022-02-20T06:55:54Z</time>
      </trkpt>
      <trkpt lat="42.90363" lon="0.1034">
        <ele>1471</ele>
        <time>2022-02-20T06:56:32Z</time>
      </trkpt>
      <trkpt lat="42.90354" lon="0.10332">
        <ele>1471</ele>
        <time>2022-02-20T06:56:43Z</time>
      </trkpt>
      <trkpt lat="42.90338" lon="0.10327">
        <ele>1471</ele>
        <time>2022-02-20T06:56:56Z</time>
      </trkpt>
      <trkpt lat="42.90333" lon="0.1033">
        <ele>1471</ele>
        <time>2022-02-20T06:57:00Z</time>
      </trkpt>
      <trkpt lat="42.90314" lon="0.10335">
        <ele>1471</ele>
        <time>2022-02-20T06:57:15Z</time>
      </trkpt>
      <trkpt lat="42.90301" lon="0.10328">
        <ele>1472</ele>
        <time>2022-02-20T06:57:27Z</time>
      </trkpt>
      <trkpt lat="42.90295" lon="0.10329">
        <ele>1472</ele>
        <time>2022-02-20T06:57:33Z</time>
      </trkpt>
      <trkpt lat="42.90279" lon="0.10342">
        <ele>1474</ele>
        <time>2022-02-20T06:57:48Z</time>
      </trkpt>
      <trkpt lat="42.90264" lon="0.10354">
        <ele>1475</ele>
        <time>2022-02-20T06:58:01Z</time>
      </trkpt>
      <trkpt lat="42.90248" lon="0.10361">
        <ele>1475</ele>
        <time>2022-02-20T06:58:14Z</time>
      </trkpt>
      <trkpt lat="42.90232" lon="0.10364">
        <ele>1476</ele>
        <time>2022-02-20T06:58:28Z</time>
      </trkpt>
      <trkpt lat="42.90219" lon="0.10367">
        <ele>1477</ele>
        <time>2022-02-20T06:58:41Z</time>
      </trkpt>
      <trkpt lat="42.90212" lon="0.10368">
        <ele>1478</ele>
        <time>2022-02-20T06:58:48Z</time>
      </trkpt>
      <trkpt lat="42.90198" lon="0.10372">
        <ele>1480</ele>
        <time>2022-02-20T06:59:04Z</time>
      </trkpt>
      <trkpt lat="42.90185" lon="0.10371">
        <ele>1481</ele>
        <time>2022-02-20T06:59:17Z</time>
      </trkpt>
      <trkpt lat="42.90173" lon="0.1037">
        <ele>1482</ele>
        <time>2022-02-20T06:59:29Z</time>
      </trkpt>
      <trkpt lat="42.90159" lon="0.10375">
        <ele>1482</ele>
        <time>2022-02-20T06:59:44Z</time>
      </trkpt>
      <trkpt lat="42.90144" lon="0.10379">
        <ele>1484</ele>
        <time>2022-02-20T07:00:00Z</time>
      </trkpt>
      <trkpt lat="42.90128" lon="0.10383">
        <ele>1485</ele>
        <time>2022-02-20T07:00:15Z</time>
      </trkpt>
      <trkpt lat="42.90113" lon="0.10387">
        <ele>1487</ele>
        <time>2022-02-20T07:00:30Z</time>
      </trkpt>
      <trkpt lat="42.90097" lon="0.10392">
        <ele>1489</ele>
        <time>2022-02-20T07:00:45Z</time>
      </trkpt>
      <trkpt lat="42.90092" lon="0.10391">
        <ele>1489</ele>
        <time>2022-02-20T07:00:52Z</time>
      </trkpt>
      <trkpt lat="42.90078" lon="0.10396">
        <ele>1490</ele>
        <time>2022-02-20T07:01:05Z</time>
      </trkpt>
      <trkpt lat="42.90065" lon="0.10399">
        <ele>1491</ele>
        <time>2022-02-20T07:01:18Z</time>
      </trkpt>
      <trkpt lat="42.90052" lon="0.104">
        <ele>1493</ele>
        <time>2022-02-20T07:01:32Z</time>
      </trkpt>
      <trkpt lat="42.90042" lon="0.10404">
        <ele>1495</ele>
        <time>2022-02-20T07:01:44Z</time>
      </trkpt>
      <trkpt lat="42.90027" lon="0.10412">
        <ele>1496</ele>
        <time>2022-02-20T07:01:58Z</time>
      </trkpt>
      <trkpt lat="42.90013" lon="0.10416">
        <ele>1498</ele>
        <time>2022-02-20T07:02:11Z</time>
      </trkpt>
      <trkpt lat="42.9" lon="0.1042">
        <ele>1498</ele>
        <time>2022-02-20T07:02:24Z</time>
      </trkpt>
      <trkpt lat="42.89983" lon="0.10425">
        <ele>1498</ele>
        <time>2022-02-20T07:02:38Z</time>
      </trkpt>
      <trkpt lat="42.89969" lon="0.10428">
        <ele>1499</ele>
        <time>2022-02-20T07:02:51Z</time>
      </trkpt>
      <trkpt lat="42.89956" lon="0.10431">
        <ele>1499</ele>
        <time>2022-02-20T07:03:05Z</time>
      </trkpt>
      <trkpt lat="42.89943" lon="0.10432">
        <ele>1499</ele>
        <time>2022-02-20T07:03:17Z</time>
      </trkpt>
      <trkpt lat="42.89929" lon="0.10436">
        <ele>1500</ele>
        <time>2022-02-20T07:03:31Z</time>
      </trkpt>
      <trkpt lat="42.89912" lon="0.1044">
        <ele>1501</ele>
        <time>2022-02-20T07:03:46Z</time>
      </trkpt>
      <trkpt lat="42.899" lon="0.10443">
        <ele>1502</ele>
        <time>2022-02-20T07:03:57Z</time>
      </trkpt>
      <trkpt lat="42.89893" lon="0.10445">
        <ele>1503</ele>
        <time>2022-02-20T07:04:05Z</time>
      </trkpt>
      <trkpt lat="42.89879" lon="0.1045">
        <ele>1505</ele>
        <time>2022-02-20T07:04:18Z</time>
      </trkpt>
      <trkpt lat="42.89875" lon="0.10451">
        <ele>1507</ele>
        <time>2022-02-20T07:04:24Z</time>
      </trkpt>
      <trkpt lat="42.89869" lon="0.10453">
        <ele>1507</ele>
        <time>2022-02-20T07:04:30Z</time>
      </trkpt>
      <trkpt lat="42.89859" lon="0.10455">
        <ele>1509</ele>
        <time>2022-02-20T07:04:44Z</time>
      </trkpt>
      <trkpt lat="42.89847" lon="0.10456">
        <ele>1512</ele>
        <time>2022-02-20T07:04:58Z</time>
      </trkpt>
      <trkpt lat="42.89837" lon="0.10458">
        <ele>1513</ele>
        <time>2022-02-20T07:05:09Z</time>
      </trkpt>
      <trkpt lat="42.89824" lon="0.10466">
        <ele>1513</ele>
        <time>2022-02-20T07:05:23Z</time>
      </trkpt>
      <trkpt lat="42.89812" lon="0.10474">
        <ele>1514</ele>
        <time>2022-02-20T07:05:37Z</time>
      </trkpt>
      <trkpt lat="42.89803" lon="0.1048">
        <ele>1515</ele>
        <time>2022-02-20T07:05:50Z</time>
      </trkpt>
      <trkpt lat="42.89789" lon="0.10493">
        <ele>1517</ele>
        <time>2022-02-20T07:06:04Z</time>
      </trkpt>
      <trkpt lat="42.89776" lon="0.105">
        <ele>1518</ele>
        <time>2022-02-20T07:06:19Z</time>
      </trkpt>
      <trkpt lat="42.89765" lon="0.10497">
        <ele>1519</ele>
        <time>2022-02-20T07:06:31Z</time>
      </trkpt>
      <trkpt lat="42.89755" lon="0.10502">
        <ele>1520</ele>
        <time>2022-02-20T07:06:41Z</time>
      </trkpt>
      <trkpt lat="42.89743" lon="0.10501">
        <ele>1522</ele>
        <time>2022-02-20T07:06:55Z</time>
      </trkpt>
      <trkpt lat="42.89732" lon="0.10503">
        <ele>1524</ele>
        <time>2022-02-20T07:07:07Z</time>
      </trkpt>
      <trkpt lat="42.89731" lon="0.10504">
        <ele>1524</ele>
        <time>2022-02-20T07:07:09Z</time>
      </trkpt>
      <trkpt lat="42.89716" lon="0.10512">
        <ele>1524</ele>
        <time>2022-02-20T07:07:24Z</time>
      </trkpt>
      <trkpt lat="42.89713" lon="0.10512">
        <ele>1525</ele>
        <time>2022-02-20T07:07:27Z</time>
      </trkpt>
      <trkpt lat="42.897" lon="0.1051">
        <ele>1527</ele>
        <time>2022-02-20T07:07:41Z</time>
      </trkpt>
      <trkpt lat="42.89693" lon="0.10506">
        <ele>1529</ele>
        <time>2022-02-20T07:07:51Z</time>
      </trkpt>
      <trkpt lat="42.89686" lon="0.10504">
        <ele>1530</ele>
        <time>2022-02-20T07:07:58Z</time>
      </trkpt>
      <trkpt lat="42.89673" lon="0.10496">
        <ele>1530</ele>
        <time>2022-02-20T07:08:12Z</time>
      </trkpt>
      <trkpt lat="42.89662" lon="0.10488">
        <ele>1533</ele>
        <time>2022-02-20T07:08:26Z</time>
      </trkpt>
      <trkpt lat="42.89649" lon="0.10485">
        <ele>1536</ele>
        <time>2022-02-20T07:08:42Z</time>
      </trkpt>
      <trkpt lat="42.89637" lon="0.10489">
        <ele>1536</ele>
        <time>2022-02-20T07:08:54Z</time>
      </trkpt>
      <trkpt lat="42.89624" lon="0.10488">
        <ele>1538</ele>
        <time>2022-02-20T07:09:07Z</time>
      </trkpt>
      <trkpt lat="42.89612" lon="0.10484">
        <ele>1538</ele>
        <time>2022-02-20T07:09:20Z</time>
      </trkpt>
      <trkpt lat="42.89599" lon="0.10482">
        <ele>1539</ele>
        <time>2022-02-20T07:09:32Z</time>
      </trkpt>
      <trkpt lat="42.89588" lon="0.10479">
        <ele>1541</ele>
        <time>2022-02-20T07:09:44Z</time>
      </trkpt>
      <trkpt lat="42.89576" lon="0.10468">
        <ele>1543</ele>
        <time>2022-02-20T07:09:59Z</time>
      </trkpt>
      <trkpt lat="42.89561" lon="0.10461">
        <ele>1544</ele>
        <time>2022-02-20T07:10:14Z</time>
      </trkpt>
      <trkpt lat="42.8955" lon="0.10466">
        <ele>1544</ele>
        <time>2022-02-20T07:10:26Z</time>
      </trkpt>
      <trkpt lat="42.89547" lon="0.10477">
        <ele>1545</ele>
        <time>2022-02-20T07:10:34Z</time>
      </trkpt>
      <trkpt lat="42.89546" lon="0.10495">
        <ele>1545</ele>
        <time>2022-02-20T07:10:48Z</time>
      </trkpt>
      <trkpt lat="42.89539" lon="0.10505">
        <ele>1545</ele>
        <time>2022-02-20T07:11:01Z</time>
      </trkpt>
      <trkpt lat="42.89538" lon="0.10509">
        <ele>1546</ele>
        <time>2022-02-20T07:11:05Z</time>
      </trkpt>
      <trkpt lat="42.89527" lon="0.10517">
        <ele>1547</ele>
        <time>2022-02-20T07:11:18Z</time>
      </trkpt>
      <trkpt lat="42.89519" lon="0.10524">
        <ele>1549</ele>
        <time>2022-02-20T07:11:28Z</time>
      </trkpt>
      <trkpt lat="42.89512" lon="0.10531">
        <ele>1549</ele>
        <time>2022-02-20T07:11:44Z</time>
      </trkpt>
      <trkpt lat="42.89501" lon="0.10536">
        <ele>1553</ele>
        <time>2022-02-20T07:12:00Z</time>
      </trkpt>
      <trkpt lat="42.89497" lon="0.10537">
        <ele>1554</ele>
        <time>2022-02-20T07:12:05Z</time>
      </trkpt>
      <trkpt lat="42.89495" lon="0.10539">
        <ele>1554</ele>
        <time>2022-02-20T07:12:08Z</time>
      </trkpt>
      <trkpt lat="42.89482" lon="0.10543">
        <ele>1556</ele>
        <time>2022-02-20T07:12:22Z</time>
      </trkpt>
      <trkpt lat="42.89477" lon="0.10557">
        <ele>1558</ele>
        <time>2022-02-20T07:12:36Z</time>
      </trkpt>
      <trkpt lat="42.89477" lon="0.10562">
        <ele>1558</ele>
        <time>2022-02-20T07:12:41Z</time>
      </trkpt>
      <trkpt lat="42.89474" lon="0.10575">
        <ele>1559</ele>
        <time>2022-02-20T07:12:51Z</time>
      </trkpt>
      <trkpt lat="42.89474" lon="0.10594">
        <ele>1559</ele>
        <time>2022-02-20T07:13:04Z</time>
      </trkpt>
      <trkpt lat="42.89474" lon="0.10612">
        <ele>1561</ele>
        <time>2022-02-20T07:13:18Z</time>
      </trkpt>
      <trkpt lat="42.89474" lon="0.10617">
        <ele>1562</ele>
        <time>2022-02-20T07:13:24Z</time>
      </trkpt>
      <trkpt lat="42.89488" lon="0.10616">
        <ele>1559</ele>
        <time>2022-02-20T07:13:30Z</time>
      </trkpt>
      <trkpt lat="42.89489" lon="0.1063">
        <ele>1557</ele>
        <time>2022-02-20T07:13:39Z</time>
      </trkpt>
      <trkpt lat="42.89487" lon="0.10632">
        <ele>1558</ele>
        <time>2022-02-20T07:13:42Z</time>
      </trkpt>
      <trkpt lat="42.89484" lon="0.10635">
        <ele>1560</ele>
        <time>2022-02-20T07:13:45Z</time>
      </trkpt>
      <trkpt lat="42.89474" lon="0.10643">
        <ele>1562</ele>
        <time>2022-02-20T07:14:00Z</time>
      </trkpt>
      <trkpt lat="42.89467" lon="0.10652">
        <ele>1565</ele>
        <time>2022-02-20T07:14:11Z</time>
      </trkpt>
      <trkpt lat="42.89466" lon="0.10665">
        <ele>1567</ele>
        <time>2022-02-20T07:14:24Z</time>
      </trkpt>
      <trkpt lat="42.89466" lon="0.10678">
        <ele>1570</ele>
        <time>2022-02-20T07:14:39Z</time>
      </trkpt>
      <trkpt lat="42.89461" lon="0.10679">
        <ele>1572</ele>
        <time>2022-02-20T07:14:54Z</time>
      </trkpt>
      <trkpt lat="42.89451" lon="0.10679">
        <ele>1574</ele>
        <time>2022-02-20T07:15:11Z</time>
      </trkpt>
      <trkpt lat="42.89446" lon="0.10684">
        <ele>1578</ele>
        <time>2022-02-20T07:15:25Z</time>
      </trkpt>
      <trkpt lat="42.89435" lon="0.10685">
        <ele>1581</ele>
        <time>2022-02-20T07:15:42Z</time>
      </trkpt>
      <trkpt lat="42.89428" lon="0.1069">
        <ele>1584</ele>
        <time>2022-02-20T07:15:58Z</time>
      </trkpt>
      <trkpt lat="42.89422" lon="0.10695">
        <ele>1586</ele>
        <time>2022-02-20T07:16:13Z</time>
      </trkpt>
      <trkpt lat="42.89414" lon="0.107">
        <ele>1589</ele>
        <time>2022-02-20T07:16:28Z</time>
      </trkpt>
      <trkpt lat="42.89407" lon="0.10709">
        <ele>1592</ele>
        <time>2022-02-20T07:16:42Z</time>
      </trkpt>
      <trkpt lat="42.89399" lon="0.10715">
        <ele>1594</ele>
        <time>2022-02-20T07:16:58Z</time>
      </trkpt>
      <trkpt lat="42.89401" lon="0.10721">
        <ele>1596</ele>
        <time>2022-02-20T07:17:12Z</time>
      </trkpt>
      <trkpt lat="42.89399" lon="0.10731">
        <ele>1599</ele>
        <time>2022-02-20T07:17:28Z</time>
      </trkpt>
      <trkpt lat="42.89389" lon="0.10729">
        <ele>1601</ele>
        <time>2022-02-20T07:17:39Z</time>
      </trkpt>
      <trkpt lat="42.89379" lon="0.10731">
        <ele>1602</ele>
        <time>2022-02-20T07:17:53Z</time>
      </trkpt>
      <trkpt lat="42.89372" lon="0.10738">
        <ele>1605</ele>
        <time>2022-02-20T07:18:09Z</time>
      </trkpt>
      <trkpt lat="42.89364" lon="0.10744">
        <ele>1607</ele>
        <time>2022-02-20T07:18:26Z</time>
      </trkpt>
      <trkpt lat="42.89354" lon="0.1074">
        <ele>1609</ele>
        <time>2022-02-20T07:18:41Z</time>
      </trkpt>
      <trkpt lat="42.89343" lon="0.1074">
        <ele>1612</ele>
        <time>2022-02-20T07:18:58Z</time>
      </trkpt>
      <trkpt lat="42.89334" lon="0.10738">
        <ele>1614</ele>
        <time>2022-02-20T07:19:13Z</time>
      </trkpt>
      <trkpt lat="42.8933" lon="0.10743">
        <ele>1617</ele>
        <time>2022-02-20T07:19:28Z</time>
      </trkpt>
      <trkpt lat="42.89317" lon="0.10739">
        <ele>1619</ele>
        <time>2022-02-20T07:19:42Z</time>
      </trkpt>
      <trkpt lat="42.89307" lon="0.10738">
        <ele>1621</ele>
        <time>2022-02-20T07:19:57Z</time>
      </trkpt>
      <trkpt lat="42.893" lon="0.10733">
        <ele>1622</ele>
        <time>2022-02-20T07:20:09Z</time>
      </trkpt>
      <trkpt lat="42.89288" lon="0.10734">
        <ele>1624</ele>
        <time>2022-02-20T07:20:25Z</time>
      </trkpt>
      <trkpt lat="42.89277" lon="0.10732">
        <ele>1626</ele>
        <time>2022-02-20T07:20:38Z</time>
      </trkpt>
      <trkpt lat="42.89266" lon="0.10731">
        <ele>1626</ele>
        <time>2022-02-20T07:20:51Z</time>
      </trkpt>
      <trkpt lat="42.89256" lon="0.1073">
        <ele>1628</ele>
        <time>2022-02-20T07:21:05Z</time>
      </trkpt>
      <trkpt lat="42.89249" lon="0.10724">
        <ele>1630</ele>
        <time>2022-02-20T07:21:17Z</time>
      </trkpt>
      <trkpt lat="42.8924" lon="0.10723">
        <ele>1631</ele>
        <time>2022-02-20T07:21:30Z</time>
      </trkpt>
      <trkpt lat="42.89228" lon="0.10722">
        <ele>1631</ele>
        <time>2022-02-20T07:21:42Z</time>
      </trkpt>
      <trkpt lat="42.89217" lon="0.10718">
        <ele>1632</ele>
        <time>2022-02-20T07:21:55Z</time>
      </trkpt>
      <trkpt lat="42.89204" lon="0.10717">
        <ele>1634</ele>
        <time>2022-02-20T07:22:09Z</time>
      </trkpt>
      <trkpt lat="42.89195" lon="0.10716">
        <ele>1635</ele>
        <time>2022-02-20T07:22:20Z</time>
      </trkpt>
      <trkpt lat="42.89184" lon="0.10713">
        <ele>1638</ele>
        <time>2022-02-20T07:22:36Z</time>
      </trkpt>
      <trkpt lat="42.89173" lon="0.1071">
        <ele>1640</ele>
        <time>2022-02-20T07:22:49Z</time>
      </trkpt>
      <trkpt lat="42.89158" lon="0.10708">
        <ele>1642</ele>
        <time>2022-02-20T07:23:05Z</time>
      </trkpt>
      <trkpt lat="42.89148" lon="0.10708">
        <ele>1642</ele>
        <time>2022-02-20T07:23:19Z</time>
      </trkpt>
      <trkpt lat="42.89136" lon="0.10711">
        <ele>1644</ele>
        <time>2022-02-20T07:23:35Z</time>
      </trkpt>
      <trkpt lat="42.89118" lon="0.10719">
        <ele>1645</ele>
        <time>2022-02-20T07:23:51Z</time>
      </trkpt>
      <trkpt lat="42.89111" lon="0.10718">
        <ele>1646</ele>
        <time>2022-02-20T07:24:00Z</time>
      </trkpt>
      <trkpt lat="42.89106" lon="0.10717">
        <ele>1647</ele>
        <time>2022-02-20T07:24:05Z</time>
      </trkpt>
      <trkpt lat="42.89093" lon="0.10712">
        <ele>1648</ele>
        <time>2022-02-20T07:24:19Z</time>
      </trkpt>
      <trkpt lat="42.89082" lon="0.10718">
        <ele>1650</ele>
        <time>2022-02-20T07:24:34Z</time>
      </trkpt>
      <trkpt lat="42.89073" lon="0.10729">
        <ele>1652</ele>
        <time>2022-02-20T07:24:47Z</time>
      </trkpt>
      <trkpt lat="42.8906" lon="0.10739">
        <ele>1653</ele>
        <time>2022-02-20T07:25:02Z</time>
      </trkpt>
      <trkpt lat="42.89044" lon="0.1074">
        <ele>1655</ele>
        <time>2022-02-20T07:25:19Z</time>
      </trkpt>
      <trkpt lat="42.89029" lon="0.10741">
        <ele>1656</ele>
        <time>2022-02-20T07:25:36Z</time>
      </trkpt>
      <trkpt lat="42.89013" lon="0.10742">
        <ele>1658</ele>
        <time>2022-02-20T07:25:52Z</time>
      </trkpt>
      <trkpt lat="42.88998" lon="0.10741">
        <ele>1659</ele>
        <time>2022-02-20T07:26:06Z</time>
      </trkpt>
      <trkpt lat="42.88983" lon="0.10743">
        <ele>1660</ele>
        <time>2022-02-20T07:26:22Z</time>
      </trkpt>
      <trkpt lat="42.88969" lon="0.10743">
        <ele>1661</ele>
        <time>2022-02-20T07:26:36Z</time>
      </trkpt>
      <trkpt lat="42.88955" lon="0.10745">
        <ele>1664</ele>
        <time>2022-02-20T07:26:52Z</time>
      </trkpt>
      <trkpt lat="42.88947" lon="0.10749">
        <ele>1666</ele>
        <time>2022-02-20T07:27:06Z</time>
      </trkpt>
      <trkpt lat="42.88937" lon="0.10756">
        <ele>1666</ele>
        <time>2022-02-20T07:27:19Z</time>
      </trkpt>
      <trkpt lat="42.88925" lon="0.10763">
        <ele>1666</ele>
        <time>2022-02-20T07:27:35Z</time>
      </trkpt>
      <trkpt lat="42.88913" lon="0.10774">
        <ele>1668</ele>
        <time>2022-02-20T07:27:51Z</time>
      </trkpt>
      <trkpt lat="42.88899" lon="0.10783">
        <ele>1669</ele>
        <time>2022-02-20T07:28:08Z</time>
      </trkpt>
      <trkpt lat="42.88887" lon="0.10785">
        <ele>1669</ele>
        <time>2022-02-20T07:28:21Z</time>
      </trkpt>
      <trkpt lat="42.88875" lon="0.10788">
        <ele>1671</ele>
        <time>2022-02-20T07:28:35Z</time>
      </trkpt>
      <trkpt lat="42.88865" lon="0.10792">
        <ele>1671</ele>
        <time>2022-02-20T07:28:49Z</time>
      </trkpt>
      <trkpt lat="42.88854" lon="0.10799">
        <ele>1673</ele>
        <time>2022-02-20T07:29:03Z</time>
      </trkpt>
      <trkpt lat="42.88842" lon="0.10803">
        <ele>1674</ele>
        <time>2022-02-20T07:29:18Z</time>
      </trkpt>
      <trkpt lat="42.88836" lon="0.10805">
        <ele>1675</ele>
        <time>2022-02-20T07:29:25Z</time>
      </trkpt>
      <trkpt lat="42.88827" lon="0.10809">
        <ele>1676</ele>
        <time>2022-02-20T07:29:39Z</time>
      </trkpt>
      <trkpt lat="42.88817" lon="0.10815">
        <ele>1677</ele>
        <time>2022-02-20T07:29:54Z</time>
      </trkpt>
      <trkpt lat="42.88802" lon="0.1082">
        <ele>1678</ele>
        <time>2022-02-20T07:30:08Z</time>
      </trkpt>
      <trkpt lat="42.88787" lon="0.10824">
        <ele>1680</ele>
        <time>2022-02-20T07:30:24Z</time>
      </trkpt>
      <trkpt lat="42.88778" lon="0.10825">
        <ele>1681</ele>
        <time>2022-02-20T07:30:33Z</time>
      </trkpt>
      <trkpt lat="42.88765" lon="0.10829">
        <ele>1682</ele>
        <time>2022-02-20T07:30:48Z</time>
      </trkpt>
      <trkpt lat="42.88751" lon="0.10827">
        <ele>1684</ele>
        <time>2022-02-20T07:31:03Z</time>
      </trkpt>
      <trkpt lat="42.88741" lon="0.1083">
        <ele>1685</ele>
        <time>2022-02-20T07:31:18Z</time>
      </trkpt>
      <trkpt lat="42.88733" lon="0.10837">
        <ele>1686</ele>
        <time>2022-02-20T07:31:34Z</time>
      </trkpt>
      <trkpt lat="42.8873" lon="0.10837">
        <ele>1686</ele>
        <time>2022-02-20T07:31:38Z</time>
      </trkpt>
      <trkpt lat="42.88731" lon="0.10842">
        <ele>1688</ele>
        <time>2022-02-20T07:31:51Z</time>
      </trkpt>
      <trkpt lat="42.88742" lon="0.10846">
        <ele>1689</ele>
        <time>2022-02-20T07:32:06Z</time>
      </trkpt>
      <trkpt lat="42.8873" lon="0.10845">
        <ele>1690</ele>
        <time>2022-02-20T07:32:20Z</time>
      </trkpt>
      <trkpt lat="42.8872" lon="0.10843">
        <ele>1691</ele>
        <time>2022-02-20T07:32:34Z</time>
      </trkpt>
      <trkpt lat="42.88711" lon="0.10847">
        <ele>1693</ele>
        <time>2022-02-20T07:32:50Z</time>
      </trkpt>
      <trkpt lat="42.88702" lon="0.10849">
        <ele>1694</ele>
        <time>2022-02-20T07:33:02Z</time>
      </trkpt>
      <trkpt lat="42.88691" lon="0.10854">
        <ele>1696</ele>
        <time>2022-02-20T07:33:16Z</time>
      </trkpt>
      <trkpt lat="42.88689" lon="0.10855">
        <ele>1696</ele>
        <time>2022-02-20T07:33:18Z</time>
      </trkpt>
      <trkpt lat="42.88674" lon="0.10855">
        <ele>1699</ele>
        <time>2022-02-20T07:33:33Z</time>
      </trkpt>
      <trkpt lat="42.88665" lon="0.10861">
        <ele>1702</ele>
        <time>2022-02-20T07:33:48Z</time>
      </trkpt>
      <trkpt lat="42.88652" lon="0.10862">
        <ele>1704</ele>
        <time>2022-02-20T07:34:03Z</time>
      </trkpt>
      <trkpt lat="42.88639" lon="0.10866">
        <ele>1706</ele>
        <time>2022-02-20T07:34:18Z</time>
      </trkpt>
      <trkpt lat="42.88626" lon="0.10872">
        <ele>1708</ele>
        <time>2022-02-20T07:34:34Z</time>
      </trkpt>
      <trkpt lat="42.88614" lon="0.10881">
        <ele>1710</ele>
        <time>2022-02-20T07:34:48Z</time>
      </trkpt>
      <trkpt lat="42.88599" lon="0.1089">
        <ele>1712</ele>
        <time>2022-02-20T07:35:05Z</time>
      </trkpt>
      <trkpt lat="42.88588" lon="0.10899">
        <ele>1715</ele>
        <time>2022-02-20T07:35:22Z</time>
      </trkpt>
      <trkpt lat="42.88578" lon="0.10907">
        <ele>1718</ele>
        <time>2022-02-20T07:35:39Z</time>
      </trkpt>
      <trkpt lat="42.88564" lon="0.10914">
        <ele>1720</ele>
        <time>2022-02-20T07:35:55Z</time>
      </trkpt>
      <trkpt lat="42.8855" lon="0.1093">
        <ele>1721</ele>
        <time>2022-02-20T07:36:10Z</time>
      </trkpt>
      <trkpt lat="42.88539" lon="0.10943">
        <ele>1723</ele>
        <time>2022-02-20T07:36:24Z</time>
      </trkpt>
      <trkpt lat="42.88525" lon="0.10956">
        <ele>1724</ele>
        <time>2022-02-20T07:36:40Z</time>
      </trkpt>
      <trkpt lat="42.88511" lon="0.10968">
        <ele>1726</ele>
        <time>2022-02-20T07:36:56Z</time>
      </trkpt>
      <trkpt lat="42.88496" lon="0.10983">
        <ele>1728</ele>
        <time>2022-02-20T07:37:14Z</time>
      </trkpt>
      <trkpt lat="42.88479" lon="0.10995">
        <ele>1729</ele>
        <time>2022-02-20T07:37:32Z</time>
      </trkpt>
      <trkpt lat="42.88469" lon="0.11002">
        <ele>1731</ele>
        <time>2022-02-20T07:37:43Z</time>
      </trkpt>
      <trkpt lat="42.88466" lon="0.11009">
        <ele>1732</ele>
        <time>2022-02-20T07:37:50Z</time>
      </trkpt>
      <trkpt lat="42.88463" lon="0.11012">
        <ele>1732</ele>
        <time>2022-02-20T07:37:53Z</time>
      </trkpt>
      <trkpt lat="42.88457" lon="0.1103">
        <ele>1733</ele>
        <time>2022-02-20T07:38:05Z</time>
      </trkpt>
      <trkpt lat="42.8845" lon="0.11047">
        <ele>1734</ele>
        <time>2022-02-20T07:38:17Z</time>
      </trkpt>
      <trkpt lat="42.8844" lon="0.11063">
        <ele>1735</ele>
        <time>2022-02-20T07:38:32Z</time>
      </trkpt>
      <trkpt lat="42.88431" lon="0.11086">
        <ele>1736</ele>
        <time>2022-02-20T07:38:48Z</time>
      </trkpt>
      <trkpt lat="42.88416" lon="0.11103">
        <ele>1737</ele>
        <time>2022-02-20T07:39:04Z</time>
      </trkpt>
      <trkpt lat="42.88403" lon="0.11121">
        <ele>1739</ele>
        <time>2022-02-20T07:39:23Z</time>
      </trkpt>
      <trkpt lat="42.88393" lon="0.11136">
        <ele>1740</ele>
        <time>2022-02-20T07:39:40Z</time>
      </trkpt>
      <trkpt lat="42.88384" lon="0.11145">
        <ele>1740</ele>
        <time>2022-02-20T07:39:54Z</time>
      </trkpt>
      <trkpt lat="42.88381" lon="0.11159">
        <ele>1742</ele>
        <time>2022-02-20T07:40:10Z</time>
      </trkpt>
      <trkpt lat="42.88368" lon="0.11165">
        <ele>1741</ele>
        <time>2022-02-20T07:40:26Z</time>
      </trkpt>
      <trkpt lat="42.88359" lon="0.1117">
        <ele>1743</ele>
        <time>2022-02-20T07:40:38Z</time>
      </trkpt>
      <trkpt lat="42.88348" lon="0.11177">
        <ele>1745</ele>
        <time>2022-02-20T07:40:54Z</time>
      </trkpt>
      <trkpt lat="42.88334" lon="0.11191">
        <ele>1747</ele>
        <time>2022-02-20T07:41:11Z</time>
      </trkpt>
      <trkpt lat="42.88333" lon="0.11192">
        <ele>1747</ele>
        <time>2022-02-20T07:41:12Z</time>
      </trkpt>
      <trkpt lat="42.88322" lon="0.11208">
        <ele>1749</ele>
        <time>2022-02-20T07:41:28Z</time>
      </trkpt>
      <trkpt lat="42.8831" lon="0.11225">
        <ele>1752</ele>
        <time>2022-02-20T07:41:46Z</time>
      </trkpt>
      <trkpt lat="42.88297" lon="0.11238">
        <ele>1754</ele>
        <time>2022-02-20T07:42:04Z</time>
      </trkpt>
      <trkpt lat="42.88296" lon="0.11233">
        <ele>1755</ele>
        <time>2022-02-20T07:42:25Z</time>
      </trkpt>
      <trkpt lat="42.88296" lon="0.11232">
        <ele>1755</ele>
        <time>2022-02-20T07:42:44Z</time>
      </trkpt>
      <trkpt lat="42.88293" lon="0.11237">
        <ele>1755</ele>
        <time>2022-02-20T07:43:05Z</time>
      </trkpt>
      <trkpt lat="42.88296" lon="0.11233">
        <ele>1755</ele>
        <time>2022-02-20T07:43:27Z</time>
      </trkpt>
      <trkpt lat="42.883" lon="0.11231">
        <ele>1755</ele>
        <time>2022-02-20T07:43:46Z</time>
      </trkpt>
      <trkpt lat="42.88303" lon="0.11233">
        <ele>1756</ele>
        <time>2022-02-20T07:44:08Z</time>
      </trkpt>
      <trkpt lat="42.88302" lon="0.11235">
        <ele>1756</ele>
        <time>2022-02-20T07:44:33Z</time>
      </trkpt>
      <trkpt lat="42.88302" lon="0.11232">
        <ele>1756</ele>
        <time>2022-02-20T07:44:58Z</time>
      </trkpt>
      <trkpt lat="42.88306" lon="0.11232">
        <ele>1756</ele>
        <time>2022-02-20T07:45:24Z</time>
      </trkpt>
      <trkpt lat="42.883" lon="0.11235">
        <ele>1756</ele>
        <time>2022-02-20T07:45:50Z</time>
      </trkpt>
      <trkpt lat="42.883" lon="0.11234">
        <ele>1756</ele>
        <time>2022-02-20T07:46:13Z</time>
      </trkpt>
      <trkpt lat="42.883" lon="0.11236">
        <ele>1755</ele>
        <time>2022-02-20T07:46:35Z</time>
      </trkpt>
      <trkpt lat="42.883" lon="0.11231">
        <ele>1755</ele>
        <time>2022-02-20T07:46:49Z</time>
      </trkpt>
      <trkpt lat="42.88294" lon="0.11233">
        <ele>1755</ele>
        <time>2022-02-20T07:47:08Z</time>
      </trkpt>
      <trkpt lat="42.88296" lon="0.11234">
        <ele>1755</ele>
        <time>2022-02-20T07:47:27Z</time>
      </trkpt>
      <trkpt lat="42.88295" lon="0.11239">
        <ele>1756</ele>
        <time>2022-02-20T07:47:43Z</time>
      </trkpt>
      <trkpt lat="42.883" lon="0.11237">
        <ele>1756</ele>
        <time>2022-02-20T07:48:00Z</time>
      </trkpt>
      <trkpt lat="42.88291" lon="0.11253">
        <ele>1757</ele>
        <time>2022-02-20T07:48:11Z</time>
      </trkpt>
      <trkpt lat="42.88284" lon="0.11271">
        <ele>1759</ele>
        <time>2022-02-20T07:48:23Z</time>
      </trkpt>
      <trkpt lat="42.88279" lon="0.11292">
        <ele>1761</ele>
        <time>2022-02-20T07:48:39Z</time>
      </trkpt>
      <trkpt lat="42.8828" lon="0.11295">
        <ele>1761</ele>
        <time>2022-02-20T07:48:45Z</time>
      </trkpt>
      <trkpt lat="42.88285" lon="0.11311">
        <ele>1761</ele>
        <time>2022-02-20T07:48:58Z</time>
      </trkpt>
      <trkpt lat="42.8828" lon="0.11332">
        <ele>1763</ele>
        <time>2022-02-20T07:49:15Z</time>
      </trkpt>
      <trkpt lat="42.88279" lon="0.11337">
        <ele>1765</ele>
        <time>2022-02-20T07:49:19Z</time>
      </trkpt>
      <trkpt lat="42.88277" lon="0.1135">
        <ele>1766</ele>
        <time>2022-02-20T07:49:34Z</time>
      </trkpt>
      <trkpt lat="42.88281" lon="0.11363">
        <ele>1767</ele>
        <time>2022-02-20T07:49:44Z</time>
      </trkpt>
      <trkpt lat="42.88283" lon="0.1138">
        <ele>1768</ele>
        <time>2022-02-20T07:49:57Z</time>
      </trkpt>
      <trkpt lat="42.88283" lon="0.1139">
        <ele>1770</ele>
        <time>2022-02-20T07:50:06Z</time>
      </trkpt>
      <trkpt lat="42.88286" lon="0.11395">
        <ele>1771</ele>
        <time>2022-02-20T07:50:10Z</time>
      </trkpt>
      <trkpt lat="42.8828" lon="0.11413">
        <ele>1773</ele>
        <time>2022-02-20T07:50:25Z</time>
      </trkpt>
      <trkpt lat="42.88279" lon="0.11426">
        <ele>1775</ele>
        <time>2022-02-20T07:50:39Z</time>
      </trkpt>
      <trkpt lat="42.88275" lon="0.11431">
        <ele>1776</ele>
        <time>2022-02-20T07:50:53Z</time>
      </trkpt>
      <trkpt lat="42.88274" lon="0.11441">
        <ele>1779</ele>
        <time>2022-02-20T07:51:06Z</time>
      </trkpt>
      <trkpt lat="42.88272" lon="0.11456">
        <ele>1781</ele>
        <time>2022-02-20T07:51:23Z</time>
      </trkpt>
      <trkpt lat="42.88266" lon="0.1147">
        <ele>1783</ele>
        <time>2022-02-20T07:51:39Z</time>
      </trkpt>
      <trkpt lat="42.88265" lon="0.11475">
        <ele>1785</ele>
        <time>2022-02-20T07:51:45Z</time>
      </trkpt>
      <trkpt lat="42.88264" lon="0.11493">
        <ele>1788</ele>
        <time>2022-02-20T07:52:02Z</time>
      </trkpt>
      <trkpt lat="42.88264" lon="0.11507">
        <ele>1790</ele>
        <time>2022-02-20T07:52:17Z</time>
      </trkpt>
      <trkpt lat="42.88269" lon="0.11518">
        <ele>1793</ele>
        <time>2022-02-20T07:52:32Z</time>
      </trkpt>
      <trkpt lat="42.88265" lon="0.11531">
        <ele>1794</ele>
        <time>2022-02-20T07:52:43Z</time>
      </trkpt>
      <trkpt lat="42.88261" lon="0.11549">
        <ele>1796</ele>
        <time>2022-02-20T07:52:57Z</time>
      </trkpt>
      <trkpt lat="42.88258" lon="0.11565">
        <ele>1797</ele>
        <time>2022-02-20T07:53:12Z</time>
      </trkpt>
      <trkpt lat="42.88252" lon="0.11581">
        <ele>1798</ele>
        <time>2022-02-20T07:53:26Z</time>
      </trkpt>
      <trkpt lat="42.88249" lon="0.11592">
        <ele>1800</ele>
        <time>2022-02-20T07:53:39Z</time>
      </trkpt>
      <trkpt lat="42.8825" lon="0.11604">
        <ele>1802</ele>
        <time>2022-02-20T07:53:53Z</time>
      </trkpt>
      <trkpt lat="42.88254" lon="0.11618">
        <ele>1803</ele>
        <time>2022-02-20T07:54:09Z</time>
      </trkpt>
      <trkpt lat="42.88257" lon="0.11632">
        <ele>1804</ele>
        <time>2022-02-20T07:54:25Z</time>
      </trkpt>
      <trkpt lat="42.88254" lon="0.11638">
        <ele>1803</ele>
        <time>2022-02-20T07:54:41Z</time>
      </trkpt>
      <trkpt lat="42.88254" lon="0.11638">
        <ele>1805</ele>
        <time>2022-02-20T07:54:49Z</time>
      </trkpt>
      <trkpt lat="42.88254" lon="0.11638">
        <ele>1804</ele>
        <time>2022-02-20T07:54:51Z</time>
      </trkpt>
      <trkpt lat="42.88253" lon="0.11642">
        <ele>1808</ele>
        <time>2022-02-20T07:55:15Z</time>
      </trkpt>
      <trkpt lat="42.88253" lon="0.11642">
        <ele>1805</ele>
        <time>2022-02-20T07:55:16Z</time>
      </trkpt>
      <trkpt lat="42.88253" lon="0.11636">
        <ele>1804</ele>
        <time>2022-02-20T07:55:36Z</time>
      </trkpt>
      <trkpt lat="42.88255" lon="0.11635">
        <ele>1804</ele>
        <time>2022-02-20T07:55:54Z</time>
      </trkpt>
      <trkpt lat="42.88256" lon="0.11638">
        <ele>1804</ele>
        <time>2022-02-20T07:56:16Z</time>
      </trkpt>
      <trkpt lat="42.88255" lon="0.1164">
        <ele>1805</ele>
        <time>2022-02-20T07:56:38Z</time>
      </trkpt>
      <trkpt lat="42.88257" lon="0.11636">
        <ele>1805</ele>
        <time>2022-02-20T07:57:01Z</time>
      </trkpt>
      <trkpt lat="42.8826" lon="0.11635">
        <ele>1804</ele>
        <time>2022-02-20T07:57:11Z</time>
      </trkpt>
      <trkpt lat="42.8826" lon="0.11638">
        <ele>1804</ele>
        <time>2022-02-20T07:57:24Z</time>
      </trkpt>
      <trkpt lat="42.88257" lon="0.11641">
        <ele>1804</ele>
        <time>2022-02-20T07:57:50Z</time>
      </trkpt>
      <trkpt lat="42.8826" lon="0.11638">
        <ele>1805</ele>
        <time>2022-02-20T07:58:10Z</time>
      </trkpt>
      <trkpt lat="42.8826" lon="0.11638">
        <ele>1805</ele>
        <time>2022-02-20T07:58:26Z</time>
      </trkpt>
      <trkpt lat="42.88258" lon="0.11641">
        <ele>1804</ele>
        <time>2022-02-20T07:58:48Z</time>
      </trkpt>
      <trkpt lat="42.88258" lon="0.1164">
        <ele>1805</ele>
        <time>2022-02-20T07:59:09Z</time>
      </trkpt>
      <trkpt lat="42.8826" lon="0.1164">
        <ele>1804</ele>
        <time>2022-02-20T07:59:34Z</time>
      </trkpt>
      <trkpt lat="42.88257" lon="0.11641">
        <ele>1805</ele>
        <time>2022-02-20T07:59:56Z</time>
      </trkpt>
      <trkpt lat="42.88249" lon="0.11638">
        <ele>1807</ele>
        <time>2022-02-20T08:00:08Z</time>
      </trkpt>
      <trkpt lat="42.8824" lon="0.11633">
        <ele>1810</ele>
        <time>2022-02-20T08:00:22Z</time>
      </trkpt>
      <trkpt lat="42.88229" lon="0.11637">
        <ele>1813</ele>
        <time>2022-02-20T08:00:39Z</time>
      </trkpt>
      <trkpt lat="42.88233" lon="0.11645">
        <ele>1815</ele>
        <time>2022-02-20T08:00:53Z</time>
      </trkpt>
      <trkpt lat="42.88233" lon="0.11657">
        <ele>1818</ele>
        <time>2022-02-20T08:01:04Z</time>
      </trkpt>
      <trkpt lat="42.88226" lon="0.11667">
        <ele>1819</ele>
        <time>2022-02-20T08:01:18Z</time>
      </trkpt>
      <trkpt lat="42.88224" lon="0.11666">
        <ele>1820</ele>
        <time>2022-02-20T08:01:20Z</time>
      </trkpt>
      <trkpt lat="42.88216" lon="0.11667">
        <ele>1822</ele>
        <time>2022-02-20T08:01:30Z</time>
      </trkpt>
      <trkpt lat="42.88212" lon="0.11669">
        <ele>1823</ele>
        <time>2022-02-20T08:01:44Z</time>
      </trkpt>
      <trkpt lat="42.88218" lon="0.11676">
        <ele>1827</ele>
        <time>2022-02-20T08:01:59Z</time>
      </trkpt>
      <trkpt lat="42.88218" lon="0.11694">
        <ele>1829</ele>
        <time>2022-02-20T08:02:14Z</time>
      </trkpt>
      <trkpt lat="42.88212" lon="0.11709">
        <ele>1832</ele>
        <time>2022-02-20T08:02:29Z</time>
      </trkpt>
      <trkpt lat="42.88208" lon="0.1171">
        <ele>1833</ele>
        <time>2022-02-20T08:02:45Z</time>
      </trkpt>
      <trkpt lat="42.88202" lon="0.11699">
        <ele>1835</ele>
        <time>2022-02-20T08:02:57Z</time>
      </trkpt>
      <trkpt lat="42.88196" lon="0.11697">
        <ele>1836</ele>
        <time>2022-02-20T08:03:14Z</time>
      </trkpt>
      <trkpt lat="42.88205" lon="0.11712">
        <ele>1839</ele>
        <time>2022-02-20T08:03:29Z</time>
      </trkpt>
      <trkpt lat="42.88198" lon="0.11704">
        <ele>1840</ele>
        <time>2022-02-20T08:03:47Z</time>
      </trkpt>
      <trkpt lat="42.88197" lon="0.11692">
        <ele>1841</ele>
        <time>2022-02-20T08:04:00Z</time>
      </trkpt>
      <trkpt lat="42.88184" lon="0.11684">
        <ele>1843</ele>
        <time>2022-02-20T08:04:17Z</time>
      </trkpt>
      <trkpt lat="42.88178" lon="0.11681">
        <ele>1845</ele>
        <time>2022-02-20T08:04:38Z</time>
      </trkpt>
      <trkpt lat="42.8817" lon="0.11678">
        <ele>1849</ele>
        <time>2022-02-20T08:04:56Z</time>
      </trkpt>
      <trkpt lat="42.88172" lon="0.11683">
        <ele>1849</ele>
        <time>2022-02-20T08:05:15Z</time>
      </trkpt>
      <trkpt lat="42.88174" lon="0.11696">
        <ele>1851</ele>
        <time>2022-02-20T08:05:31Z</time>
      </trkpt>
      <trkpt lat="42.88174" lon="0.11703">
        <ele>1855</ele>
        <time>2022-02-20T08:05:45Z</time>
      </trkpt>
      <trkpt lat="42.88172" lon="0.11715">
        <ele>1857</ele>
        <time>2022-02-20T08:05:58Z</time>
      </trkpt>
      <trkpt lat="42.88169" lon="0.11723">
        <ele>1860</ele>
        <time>2022-02-20T08:06:15Z</time>
      </trkpt>
      <trkpt lat="42.8817" lon="0.11732">
        <ele>1862</ele>
        <time>2022-02-20T08:06:32Z</time>
      </trkpt>
      <trkpt lat="42.8817" lon="0.11747">
        <ele>1865</ele>
        <time>2022-02-20T08:06:49Z</time>
      </trkpt>
      <trkpt lat="42.88176" lon="0.11745">
        <ele>1866</ele>
        <time>2022-02-20T08:07:05Z</time>
      </trkpt>
      <trkpt lat="42.88168" lon="0.11742">
        <ele>1867</ele>
        <time>2022-02-20T08:07:19Z</time>
      </trkpt>
      <trkpt lat="42.88161" lon="0.11731">
        <ele>1868</ele>
        <time>2022-02-20T08:07:34Z</time>
      </trkpt>
      <trkpt lat="42.8815" lon="0.11721">
        <ele>1872</ele>
        <time>2022-02-20T08:07:50Z</time>
      </trkpt>
      <trkpt lat="42.88148" lon="0.11711">
        <ele>1874</ele>
        <time>2022-02-20T08:08:07Z</time>
      </trkpt>
      <trkpt lat="42.88144" lon="0.117">
        <ele>1877</ele>
        <time>2022-02-20T08:08:24Z</time>
      </trkpt>
      <trkpt lat="42.88136" lon="0.11699">
        <ele>1879</ele>
        <time>2022-02-20T08:08:38Z</time>
      </trkpt>
      <trkpt lat="42.88133" lon="0.11709">
        <ele>1881</ele>
        <time>2022-02-20T08:08:51Z</time>
      </trkpt>
      <trkpt lat="42.88122" lon="0.11707">
        <ele>1884</ele>
        <time>2022-02-20T08:09:08Z</time>
      </trkpt>
      <trkpt lat="42.88127" lon="0.11716">
        <ele>1887</ele>
        <time>2022-02-20T08:09:21Z</time>
      </trkpt>
      <trkpt lat="42.88125" lon="0.11724">
        <ele>1889</ele>
        <time>2022-02-20T08:09:37Z</time>
      </trkpt>
      <trkpt lat="42.88113" lon="0.11725">
        <ele>1891</ele>
        <time>2022-02-20T08:09:53Z</time>
      </trkpt>
      <trkpt lat="42.88108" lon="0.11723">
        <ele>1893</ele>
        <time>2022-02-20T08:10:11Z</time>
      </trkpt>
      <trkpt lat="42.88112" lon="0.11732">
        <ele>1895</ele>
        <time>2022-02-20T08:10:21Z</time>
      </trkpt>
      <trkpt lat="42.88115" lon="0.11739">
        <ele>1896</ele>
        <time>2022-02-20T08:10:35Z</time>
      </trkpt>
      <trkpt lat="42.88109" lon="0.11742">
        <ele>1897</ele>
        <time>2022-02-20T08:10:47Z</time>
      </trkpt>
      <trkpt lat="42.88101" lon="0.11734">
        <ele>1899</ele>
        <time>2022-02-20T08:11:04Z</time>
      </trkpt>
      <trkpt lat="42.88095" lon="0.11733">
        <ele>1900</ele>
        <time>2022-02-20T08:11:22Z</time>
      </trkpt>
      <trkpt lat="42.88097" lon="0.11738">
        <ele>1901</ele>
        <time>2022-02-20T08:11:37Z</time>
      </trkpt>
      <trkpt lat="42.88098" lon="0.11751">
        <ele>1904</ele>
        <time>2022-02-20T08:11:52Z</time>
      </trkpt>
      <trkpt lat="42.88095" lon="0.11754">
        <ele>1904</ele>
        <time>2022-02-20T08:12:06Z</time>
      </trkpt>
      <trkpt lat="42.88088" lon="0.11749">
        <ele>1906</ele>
        <time>2022-02-20T08:12:19Z</time>
      </trkpt>
      <trkpt lat="42.88081" lon="0.11739">
        <ele>1908</ele>
        <time>2022-02-20T08:12:35Z</time>
      </trkpt>
      <trkpt lat="42.88074" lon="0.11733">
        <ele>1910</ele>
        <time>2022-02-20T08:12:51Z</time>
      </trkpt>
      <trkpt lat="42.88075" lon="0.11739">
        <ele>1912</ele>
        <time>2022-02-20T08:13:07Z</time>
      </trkpt>
      <trkpt lat="42.88074" lon="0.1175">
        <ele>1914</ele>
        <time>2022-02-20T08:13:23Z</time>
      </trkpt>
      <trkpt lat="42.88072" lon="0.11757">
        <ele>1916</ele>
        <time>2022-02-20T08:13:38Z</time>
      </trkpt>
      <trkpt lat="42.88071" lon="0.11767">
        <ele>1917</ele>
        <time>2022-02-20T08:13:54Z</time>
      </trkpt>
      <trkpt lat="42.88069" lon="0.1177">
        <ele>1919</ele>
        <time>2022-02-20T08:14:10Z</time>
      </trkpt>
      <trkpt lat="42.88062" lon="0.11754">
        <ele>1920</ele>
        <time>2022-02-20T08:14:25Z</time>
      </trkpt>
      <trkpt lat="42.88061" lon="0.1175">
        <ele>1922</ele>
        <time>2022-02-20T08:14:41Z</time>
      </trkpt>
      <trkpt lat="42.88051" lon="0.11742">
        <ele>1925</ele>
        <time>2022-02-20T08:15:01Z</time>
      </trkpt>
      <trkpt lat="42.88044" lon="0.11734">
        <ele>1928</ele>
        <time>2022-02-20T08:15:18Z</time>
      </trkpt>
      <trkpt lat="42.88041" lon="0.11728">
        <ele>1929</ele>
        <time>2022-02-20T08:15:36Z</time>
      </trkpt>
      <trkpt lat="42.88036" lon="0.11723">
        <ele>1930</ele>
        <time>2022-02-20T08:16:00Z</time>
      </trkpt>
      <trkpt lat="42.88035" lon="0.11721">
        <ele>1931</ele>
        <time>2022-02-20T08:16:18Z</time>
      </trkpt>
      <trkpt lat="42.88034" lon="0.11733">
        <ele>1932</ele>
        <time>2022-02-20T08:16:33Z</time>
      </trkpt>
      <trkpt lat="42.88032" lon="0.11745">
        <ele>1935</ele>
        <time>2022-02-20T08:16:48Z</time>
      </trkpt>
      <trkpt lat="42.88034" lon="0.11755">
        <ele>1936</ele>
        <time>2022-02-20T08:17:05Z</time>
      </trkpt>
      <trkpt lat="42.88036" lon="0.11757">
        <ele>1938</ele>
        <time>2022-02-20T08:17:22Z</time>
      </trkpt>
      <trkpt lat="42.88037" lon="0.11759">
        <ele>1937</ele>
        <time>2022-02-20T08:17:47Z</time>
      </trkpt>
      <trkpt lat="42.88041" lon="0.11762">
        <ele>1938</ele>
        <time>2022-02-20T08:18:07Z</time>
      </trkpt>
      <trkpt lat="42.88043" lon="0.11758">
        <ele>1938</ele>
        <time>2022-02-20T08:18:22Z</time>
      </trkpt>
      <trkpt lat="42.88042" lon="0.1175">
        <ele>1940</ele>
        <time>2022-02-20T08:18:37Z</time>
      </trkpt>
      <trkpt lat="42.8804" lon="0.11746">
        <ele>1942</ele>
        <time>2022-02-20T08:18:56Z</time>
      </trkpt>
      <trkpt lat="42.88037" lon="0.11744">
        <ele>1942</ele>
        <time>2022-02-20T08:19:20Z</time>
      </trkpt>
      <trkpt lat="42.88038" lon="0.11739">
        <ele>1943</ele>
        <time>2022-02-20T08:19:45Z</time>
      </trkpt>
      <trkpt lat="42.88035" lon="0.11736">
        <ele>1945</ele>
        <time>2022-02-20T08:20:03Z</time>
      </trkpt>
      <trkpt lat="42.88035" lon="0.11732">
        <ele>1946</ele>
        <time>2022-02-20T08:20:19Z</time>
      </trkpt>
      <trkpt lat="42.88038" lon="0.11723">
        <ele>1948</ele>
        <time>2022-02-20T08:20:32Z</time>
      </trkpt>
      <trkpt lat="42.8804" lon="0.11719">
        <ele>1949</ele>
        <time>2022-02-20T08:20:48Z</time>
      </trkpt>
      <trkpt lat="42.8804" lon="0.11711">
        <ele>1951</ele>
        <time>2022-02-20T08:21:02Z</time>
      </trkpt>
      <trkpt lat="42.88038" lon="0.11699">
        <ele>1952</ele>
        <time>2022-02-20T08:21:18Z</time>
      </trkpt>
      <trkpt lat="42.88033" lon="0.11687">
        <ele>1955</ele>
        <time>2022-02-20T08:21:35Z</time>
      </trkpt>
      <trkpt lat="42.88028" lon="0.11674">
        <ele>1957</ele>
        <time>2022-02-20T08:21:50Z</time>
      </trkpt>
      <trkpt lat="42.88021" lon="0.11665">
        <ele>1959</ele>
        <time>2022-02-20T08:22:07Z</time>
      </trkpt>
      <trkpt lat="42.88014" lon="0.11658">
        <ele>1962</ele>
        <time>2022-02-20T08:22:19Z</time>
      </trkpt>
      <trkpt lat="42.88014" lon="0.11659">
        <ele>1964</ele>
        <time>2022-02-20T08:22:34Z</time>
      </trkpt>
      <trkpt lat="42.88013" lon="0.11662">
        <ele>1965</ele>
        <time>2022-02-20T08:22:48Z</time>
      </trkpt>
      <trkpt lat="42.88011" lon="0.11666">
        <ele>1966</ele>
        <time>2022-02-20T08:23:03Z</time>
      </trkpt>
      <trkpt lat="42.88004" lon="0.11655">
        <ele>1968</ele>
        <time>2022-02-20T08:23:18Z</time>
      </trkpt>
      <trkpt lat="42.88002" lon="0.11662">
        <ele>1970</ele>
        <time>2022-02-20T08:23:32Z</time>
      </trkpt>
      <trkpt lat="42.88003" lon="0.11673">
        <ele>1973</ele>
        <time>2022-02-20T08:23:47Z</time>
      </trkpt>
      <trkpt lat="42.88001" lon="0.11683">
        <ele>1975</ele>
        <time>2022-02-20T08:24:03Z</time>
      </trkpt>
      <trkpt lat="42.88" lon="0.11689">
        <ele>1976</ele>
        <time>2022-02-20T08:24:19Z</time>
      </trkpt>
      <trkpt lat="42.87993" lon="0.11678">
        <ele>1978</ele>
        <time>2022-02-20T08:24:34Z</time>
      </trkpt>
      <trkpt lat="42.87988" lon="0.11669">
        <ele>1980</ele>
        <time>2022-02-20T08:24:49Z</time>
      </trkpt>
      <trkpt lat="42.87988" lon="0.11672">
        <ele>1981</ele>
        <time>2022-02-20T08:25:07Z</time>
      </trkpt>
      <trkpt lat="42.87989" lon="0.11688">
        <ele>1984</ele>
        <time>2022-02-20T08:25:22Z</time>
      </trkpt>
      <trkpt lat="42.87988" lon="0.11693">
        <ele>1985</ele>
        <time>2022-02-20T08:25:39Z</time>
      </trkpt>
      <trkpt lat="42.87983" lon="0.11687">
        <ele>1986</ele>
        <time>2022-02-20T08:25:57Z</time>
      </trkpt>
      <trkpt lat="42.87979" lon="0.11675">
        <ele>1989</ele>
        <time>2022-02-20T08:26:13Z</time>
      </trkpt>
      <trkpt lat="42.87976" lon="0.1167">
        <ele>1990</ele>
        <time>2022-02-20T08:26:32Z</time>
      </trkpt>
      <trkpt lat="42.87976" lon="0.11676">
        <ele>1991</ele>
        <time>2022-02-20T08:26:49Z</time>
      </trkpt>
      <trkpt lat="42.87976" lon="0.11677">
        <ele>1992</ele>
        <time>2022-02-20T08:26:51Z</time>
      </trkpt>
      <trkpt lat="42.87974" lon="0.11683">
        <ele>1993</ele>
        <time>2022-02-20T08:27:04Z</time>
      </trkpt>
      <trkpt lat="42.87973" lon="0.11686">
        <ele>1993</ele>
        <time>2022-02-20T08:27:26Z</time>
      </trkpt>
      <trkpt lat="42.87973" lon="0.11689">
        <ele>1994</ele>
        <time>2022-02-20T08:27:44Z</time>
      </trkpt>
      <trkpt lat="42.87972" lon="0.11694">
        <ele>1996</ele>
        <time>2022-02-20T08:28:01Z</time>
      </trkpt>
      <trkpt lat="42.8797" lon="0.11699">
        <ele>1997</ele>
        <time>2022-02-20T08:28:18Z</time>
      </trkpt>
      <trkpt lat="42.87968" lon="0.11706">
        <ele>2000</ele>
        <time>2022-02-20T08:28:32Z</time>
      </trkpt>
      <trkpt lat="42.87962" lon="0.11718">
        <ele>2004</ele>
        <time>2022-02-20T08:28:49Z</time>
      </trkpt>
      <trkpt lat="42.87956" lon="0.11724">
        <ele>2006</ele>
        <time>2022-02-20T08:29:06Z</time>
      </trkpt>
      <trkpt lat="42.87958" lon="0.11722">
        <ele>2005</ele>
        <time>2022-02-20T08:29:26Z</time>
      </trkpt>
      <trkpt lat="42.87958" lon="0.11721">
        <ele>2005</ele>
        <time>2022-02-20T08:29:47Z</time>
      </trkpt>
      <trkpt lat="42.87957" lon="0.11724">
        <ele>2006</ele>
        <time>2022-02-20T08:30:09Z</time>
      </trkpt>
      <trkpt lat="42.87954" lon="0.11728">
        <ele>2009</ele>
        <time>2022-02-20T08:30:23Z</time>
      </trkpt>
      <trkpt lat="42.8794" lon="0.11715">
        <ele>2012</ele>
        <time>2022-02-20T08:30:38Z</time>
      </trkpt>
      <trkpt lat="42.87933" lon="0.11719">
        <ele>2015</ele>
        <time>2022-02-20T08:30:52Z</time>
      </trkpt>
      <trkpt lat="42.87931" lon="0.11717">
        <ele>2014</ele>
        <time>2022-02-20T08:31:17Z</time>
      </trkpt>
      <trkpt lat="42.87932" lon="0.11718">
        <ele>2014</ele>
        <time>2022-02-20T08:31:39Z</time>
      </trkpt>
      <trkpt lat="42.87935" lon="0.11719">
        <ele>2014</ele>
        <time>2022-02-20T08:31:43Z</time>
      </trkpt>
      <trkpt lat="42.87935" lon="0.1172">
        <ele>2013</ele>
        <time>2022-02-20T08:31:55Z</time>
      </trkpt>
      <trkpt lat="42.87936" lon="0.11721">
        <ele>2014</ele>
        <time>2022-02-20T08:32:20Z</time>
      </trkpt>
      <trkpt lat="42.87936" lon="0.1172">
        <ele>2014</ele>
        <time>2022-02-20T08:32:44Z</time>
      </trkpt>
      <trkpt lat="42.87933" lon="0.11722">
        <ele>2015</ele>
        <time>2022-02-20T08:33:02Z</time>
      </trkpt>
      <trkpt lat="42.87934" lon="0.11723">
        <ele>2015</ele>
        <time>2022-02-20T08:33:22Z</time>
      </trkpt>
      <trkpt lat="42.87935" lon="0.11727">
        <ele>2014</ele>
        <time>2022-02-20T08:33:45Z</time>
      </trkpt>
      <trkpt lat="42.8793" lon="0.11728">
        <ele>2014</ele>
        <time>2022-02-20T08:34:11Z</time>
      </trkpt>
      <trkpt lat="42.8793" lon="0.11727">
        <ele>2015</ele>
        <time>2022-02-20T08:34:27Z</time>
      </trkpt>
      <trkpt lat="42.87929" lon="0.11724">
        <ele>2014</ele>
        <time>2022-02-20T08:34:50Z</time>
      </trkpt>
      <trkpt lat="42.87931" lon="0.11724">
        <ele>2015</ele>
        <time>2022-02-20T08:35:09Z</time>
      </trkpt>
      <trkpt lat="42.87931" lon="0.11729">
        <ele>2015</ele>
        <time>2022-02-20T08:35:28Z</time>
      </trkpt>
      <trkpt lat="42.87934" lon="0.11736">
        <ele>2017</ele>
        <time>2022-02-20T08:35:41Z</time>
      </trkpt>
      <trkpt lat="42.87927" lon="0.1174">
        <ele>2020</ele>
        <time>2022-02-20T08:35:53Z</time>
      </trkpt>
      <trkpt lat="42.87919" lon="0.11746">
        <ele>2024</ele>
        <time>2022-02-20T08:36:09Z</time>
      </trkpt>
      <trkpt lat="42.87915" lon="0.11751">
        <ele>2025</ele>
        <time>2022-02-20T08:36:23Z</time>
      </trkpt>
      <trkpt lat="42.87911" lon="0.11762">
        <ele>2029</ele>
        <time>2022-02-20T08:36:37Z</time>
      </trkpt>
      <trkpt lat="42.87908" lon="0.11775">
        <ele>2030</ele>
        <time>2022-02-20T08:36:51Z</time>
      </trkpt>
      <trkpt lat="42.87906" lon="0.11786">
        <ele>2033</ele>
        <time>2022-02-20T08:37:06Z</time>
      </trkpt>
      <trkpt lat="42.87905" lon="0.11794">
        <ele>2036</ele>
        <time>2022-02-20T08:37:22Z</time>
      </trkpt>
      <trkpt lat="42.87904" lon="0.11801">
        <ele>2038</ele>
        <time>2022-02-20T08:37:38Z</time>
      </trkpt>
      <trkpt lat="42.879" lon="0.11813">
        <ele>2041</ele>
        <time>2022-02-20T08:37:54Z</time>
      </trkpt>
      <trkpt lat="42.87892" lon="0.11821">
        <ele>2042</ele>
        <time>2022-02-20T08:38:08Z</time>
      </trkpt>
      <trkpt lat="42.87884" lon="0.11829">
        <ele>2044</ele>
        <time>2022-02-20T08:38:23Z</time>
      </trkpt>
      <trkpt lat="42.87871" lon="0.11827">
        <ele>2046</ele>
        <time>2022-02-20T08:38:38Z</time>
      </trkpt>
      <trkpt lat="42.87863" lon="0.11828">
        <ele>2048</ele>
        <time>2022-02-20T08:38:54Z</time>
      </trkpt>
      <trkpt lat="42.8785" lon="0.11817">
        <ele>2049</ele>
        <time>2022-02-20T08:39:12Z</time>
      </trkpt>
      <trkpt lat="42.87856" lon="0.11829">
        <ele>2051</ele>
        <time>2022-02-20T08:39:25Z</time>
      </trkpt>
      <trkpt lat="42.87856" lon="0.11839">
        <ele>2053</ele>
        <time>2022-02-20T08:39:39Z</time>
      </trkpt>
      <trkpt lat="42.87852" lon="0.1185">
        <ele>2057</ele>
        <time>2022-02-20T08:39:55Z</time>
      </trkpt>
      <trkpt lat="42.87844" lon="0.11847">
        <ele>2059</ele>
        <time>2022-02-20T08:40:10Z</time>
      </trkpt>
      <trkpt lat="42.87835" lon="0.11835">
        <ele>2061</ele>
        <time>2022-02-20T08:40:26Z</time>
      </trkpt>
      <trkpt lat="42.87837" lon="0.11844">
        <ele>2063</ele>
        <time>2022-02-20T08:40:39Z</time>
      </trkpt>
      <trkpt lat="42.87836" lon="0.11853">
        <ele>2064</ele>
        <time>2022-02-20T08:40:53Z</time>
      </trkpt>
      <trkpt lat="42.87836" lon="0.11859">
        <ele>2067</ele>
        <time>2022-02-20T08:41:11Z</time>
      </trkpt>
      <trkpt lat="42.87837" lon="0.11865">
        <ele>2068</ele>
        <time>2022-02-20T08:41:25Z</time>
      </trkpt>
      <trkpt lat="42.8784" lon="0.11867">
        <ele>2068</ele>
        <time>2022-02-20T08:41:50Z</time>
      </trkpt>
      <trkpt lat="42.87839" lon="0.1187">
        <ele>2068</ele>
        <time>2022-02-20T08:42:08Z</time>
      </trkpt>
      <trkpt lat="42.87835" lon="0.11876">
        <ele>2071</ele>
        <time>2022-02-20T08:42:23Z</time>
      </trkpt>
      <trkpt lat="42.87826" lon="0.11867">
        <ele>2073</ele>
        <time>2022-02-20T08:42:38Z</time>
      </trkpt>
      <trkpt lat="42.87818" lon="0.11862">
        <ele>2075</ele>
        <time>2022-02-20T08:42:52Z</time>
      </trkpt>
      <trkpt lat="42.87813" lon="0.11858">
        <ele>2076</ele>
        <time>2022-02-20T08:43:01Z</time>
      </trkpt>
      <trkpt lat="42.87808" lon="0.11841">
        <ele>2079</ele>
        <time>2022-02-20T08:43:17Z</time>
      </trkpt>
      <trkpt lat="42.87803" lon="0.11841">
        <ele>2082</ele>
        <time>2022-02-20T08:43:31Z</time>
      </trkpt>
      <trkpt lat="42.87796" lon="0.11834">
        <ele>2085</ele>
        <time>2022-02-20T08:43:44Z</time>
      </trkpt>
      <trkpt lat="42.8779" lon="0.11835">
        <ele>2087</ele>
        <time>2022-02-20T08:43:56Z</time>
      </trkpt>
      <trkpt lat="42.87791" lon="0.11844">
        <ele>2090</ele>
        <time>2022-02-20T08:44:13Z</time>
      </trkpt>
      <trkpt lat="42.87781" lon="0.11842">
        <ele>2093</ele>
        <time>2022-02-20T08:44:29Z</time>
      </trkpt>
      <trkpt lat="42.87771" lon="0.11841">
        <ele>2096</ele>
        <time>2022-02-20T08:44:45Z</time>
      </trkpt>
      <trkpt lat="42.87772" lon="0.11849">
        <ele>2098</ele>
        <time>2022-02-20T08:45:01Z</time>
      </trkpt>
      <trkpt lat="42.87768" lon="0.11858">
        <ele>2101</ele>
        <time>2022-02-20T08:45:13Z</time>
      </trkpt>
      <trkpt lat="42.87761" lon="0.1187">
        <ele>2103</ele>
        <time>2022-02-20T08:45:30Z</time>
      </trkpt>
      <trkpt lat="42.87761" lon="0.11871">
        <ele>2103</ele>
        <time>2022-02-20T08:45:31Z</time>
      </trkpt>
      <trkpt lat="42.87762" lon="0.11882">
        <ele>2105</ele>
        <time>2022-02-20T08:45:45Z</time>
      </trkpt>
      <trkpt lat="42.87762" lon="0.11892">
        <ele>2108</ele>
        <time>2022-02-20T08:45:59Z</time>
      </trkpt>
      <trkpt lat="42.87759" lon="0.11901">
        <ele>2110</ele>
        <time>2022-02-20T08:46:12Z</time>
      </trkpt>
      <trkpt lat="42.87756" lon="0.11909">
        <ele>2113</ele>
        <time>2022-02-20T08:46:30Z</time>
      </trkpt>
      <trkpt lat="42.87755" lon="0.11911">
        <ele>2107</ele>
        <time>2022-02-20T08:46:33Z</time>
      </trkpt>
      <trkpt lat="42.87755" lon="0.11912">
        <ele>2116</ele>
        <time>2022-02-20T08:46:34Z</time>
      </trkpt>
      <trkpt lat="42.87755" lon="0.11912">
        <ele>2115</ele>
        <time>2022-02-20T08:46:35Z</time>
      </trkpt>
      <trkpt lat="42.87755" lon="0.11914">
        <ele>2113</ele>
        <time>2022-02-20T08:46:37Z</time>
      </trkpt>
      <trkpt lat="42.87752" lon="0.1192">
        <ele>2115</ele>
        <time>2022-02-20T08:46:49Z</time>
      </trkpt>
      <trkpt lat="42.87748" lon="0.11925">
        <ele>2117</ele>
        <time>2022-02-20T08:47:03Z</time>
      </trkpt>
      <trkpt lat="42.87747" lon="0.11941">
        <ele>2119</ele>
        <time>2022-02-20T08:47:19Z</time>
      </trkpt>
      <trkpt lat="42.87744" lon="0.11947">
        <ele>2122</ele>
        <time>2022-02-20T08:47:32Z</time>
      </trkpt>
      <trkpt lat="42.87747" lon="0.11953">
        <ele>2124</ele>
        <time>2022-02-20T08:47:48Z</time>
      </trkpt>
      <trkpt lat="42.87741" lon="0.11962">
        <ele>2127</ele>
        <time>2022-02-20T08:48:02Z</time>
      </trkpt>
      <trkpt lat="42.87739" lon="0.1197">
        <ele>2128</ele>
        <time>2022-02-20T08:48:13Z</time>
      </trkpt>
      <trkpt lat="42.8773" lon="0.11978">
        <ele>2129</ele>
        <time>2022-02-20T08:48:29Z</time>
      </trkpt>
      <trkpt lat="42.87719" lon="0.11988">
        <ele>2132</ele>
        <time>2022-02-20T08:48:47Z</time>
      </trkpt>
      <trkpt lat="42.87706" lon="0.11991">
        <ele>2135</ele>
        <time>2022-02-20T08:49:03Z</time>
      </trkpt>
      <trkpt lat="42.87695" lon="0.11992">
        <ele>2137</ele>
        <time>2022-02-20T08:49:22Z</time>
      </trkpt>
      <trkpt lat="42.87687" lon="0.11996">
        <ele>2140</ele>
        <time>2022-02-20T08:49:42Z</time>
      </trkpt>
      <trkpt lat="42.87686" lon="0.1201">
        <ele>2143</ele>
        <time>2022-02-20T08:50:01Z</time>
      </trkpt>
      <trkpt lat="42.87681" lon="0.12022">
        <ele>2145</ele>
        <time>2022-02-20T08:50:19Z</time>
      </trkpt>
      <trkpt lat="42.87681" lon="0.12028">
        <ele>2148</ele>
        <time>2022-02-20T08:50:36Z</time>
      </trkpt>
      <trkpt lat="42.87675" lon="0.1204">
        <ele>2150</ele>
        <time>2022-02-20T08:50:52Z</time>
      </trkpt>
      <trkpt lat="42.87673" lon="0.12051">
        <ele>2152</ele>
        <time>2022-02-20T08:51:07Z</time>
      </trkpt>
      <trkpt lat="42.87672" lon="0.12055">
        <ele>2153</ele>
        <time>2022-02-20T08:51:21Z</time>
      </trkpt>
      <trkpt lat="42.87677" lon="0.1205">
        <ele>2155</ele>
        <time>2022-02-20T08:51:36Z</time>
      </trkpt>
      <trkpt lat="42.87685" lon="0.1205">
        <ele>2158</ele>
        <time>2022-02-20T08:51:51Z</time>
      </trkpt>
      <trkpt lat="42.87693" lon="0.12055">
        <ele>2161</ele>
        <time>2022-02-20T08:52:05Z</time>
      </trkpt>
      <trkpt lat="42.87692" lon="0.12071">
        <ele>2162</ele>
        <time>2022-02-20T08:52:20Z</time>
      </trkpt>
      <trkpt lat="42.87691" lon="0.12083">
        <ele>2165</ele>
        <time>2022-02-20T08:52:37Z</time>
      </trkpt>
      <trkpt lat="42.87685" lon="0.12092">
        <ele>2167</ele>
        <time>2022-02-20T08:52:52Z</time>
      </trkpt>
      <trkpt lat="42.87687" lon="0.12102">
        <ele>2168</ele>
        <time>2022-02-20T08:53:11Z</time>
      </trkpt>
      <trkpt lat="42.87681" lon="0.12097">
        <ele>2168</ele>
        <time>2022-02-20T08:53:29Z</time>
      </trkpt>
      <trkpt lat="42.87679" lon="0.12096">
        <ele>2168</ele>
        <time>2022-02-20T08:54:01Z</time>
      </trkpt>
      <trkpt lat="42.87679" lon="0.12097">
        <ele>2167</ele>
        <time>2022-02-20T08:54:21Z</time>
      </trkpt>
      <trkpt lat="42.87679" lon="0.12094">
        <ele>2168</ele>
        <time>2022-02-20T08:54:54Z</time>
      </trkpt>
      <trkpt lat="42.8768" lon="0.12093">
        <ele>2168</ele>
        <time>2022-02-20T08:55:07Z</time>
      </trkpt>
      <trkpt lat="42.8768" lon="0.12095">
        <ele>2168</ele>
        <time>2022-02-20T08:55:16Z</time>
      </trkpt>
      <trkpt lat="42.8768" lon="0.12098">
        <ele>2169</ele>
        <time>2022-02-20T08:55:31Z</time>
      </trkpt>
      <trkpt lat="42.87686" lon="0.12101">
        <ele>2169</ele>
        <time>2022-02-20T08:55:51Z</time>
      </trkpt>
      <trkpt lat="42.8769" lon="0.12104">
        <ele>2169</ele>
        <time>2022-02-20T08:56:10Z</time>
      </trkpt>
      <trkpt lat="42.87688" lon="0.12104">
        <ele>2169</ele>
        <time>2022-02-20T08:56:38Z</time>
      </trkpt>
      <trkpt lat="42.87693" lon="0.12105">
        <ele>2169</ele>
        <time>2022-02-20T08:56:55Z</time>
      </trkpt>
      <trkpt lat="42.87692" lon="0.12106">
        <ele>2170</ele>
        <time>2022-02-20T08:57:17Z</time>
      </trkpt>
      <trkpt lat="42.87693" lon="0.12106">
        <ele>2170</ele>
        <time>2022-02-20T08:57:40Z</time>
      </trkpt>
      <trkpt lat="42.87685" lon="0.12103">
        <ele>2170</ele>
        <time>2022-02-20T08:57:59Z</time>
      </trkpt>
      <trkpt lat="42.87687" lon="0.12103">
        <ele>2170</ele>
        <time>2022-02-20T08:58:22Z</time>
      </trkpt>
      <trkpt lat="42.87692" lon="0.12108">
        <ele>2170</ele>
        <time>2022-02-20T08:58:54Z</time>
      </trkpt>
      <trkpt lat="42.87682" lon="0.12099">
        <ele>2170</ele>
        <time>2022-02-20T08:59:20Z</time>
      </trkpt>
      <trkpt lat="42.87682" lon="0.12116">
        <ele>2172</ele>
        <time>2022-02-20T08:59:37Z</time>
      </trkpt>
      <trkpt lat="42.8768" lon="0.12127">
        <ele>2175</ele>
        <time>2022-02-20T08:59:57Z</time>
      </trkpt>
      <trkpt lat="42.87678" lon="0.1214">
        <ele>2177</ele>
        <time>2022-02-20T09:00:12Z</time>
      </trkpt>
      <trkpt lat="42.87673" lon="0.12153">
        <ele>2180</ele>
        <time>2022-02-20T09:00:29Z</time>
      </trkpt>
      <trkpt lat="42.87668" lon="0.12163">
        <ele>2183</ele>
        <time>2022-02-20T09:00:43Z</time>
      </trkpt>
      <trkpt lat="42.87664" lon="0.12169">
        <ele>2184</ele>
        <time>2022-02-20T09:00:57Z</time>
      </trkpt>
      <trkpt lat="42.87671" lon="0.1217">
        <ele>2188</ele>
        <time>2022-02-20T09:01:12Z</time>
      </trkpt>
      <trkpt lat="42.8767" lon="0.12176">
        <ele>2189</ele>
        <time>2022-02-20T09:01:25Z</time>
      </trkpt>
      <trkpt lat="42.87665" lon="0.12179">
        <ele>2191</ele>
        <time>2022-02-20T09:01:41Z</time>
      </trkpt>
      <trkpt lat="42.87668" lon="0.12179">
        <ele>2192</ele>
        <time>2022-02-20T09:01:58Z</time>
      </trkpt>
      <trkpt lat="42.87676" lon="0.12175">
        <ele>2195</ele>
        <time>2022-02-20T09:02:14Z</time>
      </trkpt>
      <trkpt lat="42.87675" lon="0.12188">
        <ele>2197</ele>
        <time>2022-02-20T09:02:27Z</time>
      </trkpt>
      <trkpt lat="42.87668" lon="0.12199">
        <ele>2200</ele>
        <time>2022-02-20T09:02:46Z</time>
      </trkpt>
      <trkpt lat="42.87664" lon="0.1221">
        <ele>2202</ele>
        <time>2022-02-20T09:02:59Z</time>
      </trkpt>
      <trkpt lat="42.87657" lon="0.12219">
        <ele>2204</ele>
        <time>2022-02-20T09:03:14Z</time>
      </trkpt>
      <trkpt lat="42.87653" lon="0.12233">
        <ele>2207</ele>
        <time>2022-02-20T09:03:32Z</time>
      </trkpt>
      <trkpt lat="42.87648" lon="0.12244">
        <ele>2210</ele>
        <time>2022-02-20T09:03:47Z</time>
      </trkpt>
      <trkpt lat="42.87638" lon="0.12256">
        <ele>2213</ele>
        <time>2022-02-20T09:04:05Z</time>
      </trkpt>
      <trkpt lat="42.87631" lon="0.12262">
        <ele>2215</ele>
        <time>2022-02-20T09:04:14Z</time>
      </trkpt>
      <trkpt lat="42.87625" lon="0.12271">
        <ele>2216</ele>
        <time>2022-02-20T09:04:30Z</time>
      </trkpt>
      <trkpt lat="42.87627" lon="0.12274">
        <ele>2219</ele>
        <time>2022-02-20T09:04:46Z</time>
      </trkpt>
      <trkpt lat="42.87637" lon="0.12276">
        <ele>2221</ele>
        <time>2022-02-20T09:05:02Z</time>
      </trkpt>
      <trkpt lat="42.87641" lon="0.12277">
        <ele>2222</ele>
        <time>2022-02-20T09:05:08Z</time>
      </trkpt>
      <trkpt lat="42.87642" lon="0.12278">
        <ele>2223</ele>
        <time>2022-02-20T09:05:10Z</time>
      </trkpt>
      <trkpt lat="42.87652" lon="0.12278">
        <ele>2224</ele>
        <time>2022-02-20T09:05:25Z</time>
      </trkpt>
      <trkpt lat="42.87662" lon="0.12279">
        <ele>2226</ele>
        <time>2022-02-20T09:05:39Z</time>
      </trkpt>
      <trkpt lat="42.8767" lon="0.12278">
        <ele>2227</ele>
        <time>2022-02-20T09:05:51Z</time>
      </trkpt>
      <trkpt lat="42.87678" lon="0.12275">
        <ele>2230</ele>
        <time>2022-02-20T09:06:06Z</time>
      </trkpt>
      <trkpt lat="42.87687" lon="0.12271">
        <ele>2232</ele>
        <time>2022-02-20T09:06:22Z</time>
      </trkpt>
      <trkpt lat="42.87698" lon="0.12267">
        <ele>2234</ele>
        <time>2022-02-20T09:06:36Z</time>
      </trkpt>
      <trkpt lat="42.87702" lon="0.12258">
        <ele>2236</ele>
        <time>2022-02-20T09:06:51Z</time>
      </trkpt>
      <trkpt lat="42.8771" lon="0.12244">
        <ele>2240</ele>
        <time>2022-02-20T09:07:10Z</time>
      </trkpt>
      <trkpt lat="42.87721" lon="0.12239">
        <ele>2242</ele>
        <time>2022-02-20T09:07:27Z</time>
      </trkpt>
      <trkpt lat="42.87728" lon="0.12232">
        <ele>2245</ele>
        <time>2022-02-20T09:07:45Z</time>
      </trkpt>
      <trkpt lat="42.87734" lon="0.12226">
        <ele>2248</ele>
        <time>2022-02-20T09:08:00Z</time>
      </trkpt>
      <trkpt lat="42.87744" lon="0.12215">
        <ele>2251</ele>
        <time>2022-02-20T09:08:18Z</time>
      </trkpt>
      <trkpt lat="42.87751" lon="0.12213">
        <ele>2253</ele>
        <time>2022-02-20T09:08:31Z</time>
      </trkpt>
      <trkpt lat="42.87757" lon="0.12222">
        <ele>2254</ele>
        <time>2022-02-20T09:08:45Z</time>
      </trkpt>
      <trkpt lat="42.87757" lon="0.1223">
        <ele>2255</ele>
        <time>2022-02-20T09:08:56Z</time>
      </trkpt>
      <trkpt lat="42.87755" lon="0.12233">
        <ele>2255</ele>
        <time>2022-02-20T09:09:03Z</time>
      </trkpt>
      <trkpt lat="42.8775" lon="0.12244">
        <ele>2257</ele>
        <time>2022-02-20T09:09:13Z</time>
      </trkpt>
      <trkpt lat="42.87745" lon="0.12257">
        <ele>2258</ele>
        <time>2022-02-20T09:09:27Z</time>
      </trkpt>
      <trkpt lat="42.87742" lon="0.12266">
        <ele>2261</ele>
        <time>2022-02-20T09:09:41Z</time>
      </trkpt>
      <trkpt lat="42.87739" lon="0.12276">
        <ele>2263</ele>
        <time>2022-02-20T09:09:57Z</time>
      </trkpt>
      <trkpt lat="42.87737" lon="0.12289">
        <ele>2266</ele>
        <time>2022-02-20T09:10:14Z</time>
      </trkpt>
      <trkpt lat="42.87736" lon="0.12299">
        <ele>2268</ele>
        <time>2022-02-20T09:10:29Z</time>
      </trkpt>
      <trkpt lat="42.87735" lon="0.12309">
        <ele>2271</ele>
        <time>2022-02-20T09:10:47Z</time>
      </trkpt>
      <trkpt lat="42.87733" lon="0.12315">
        <ele>2273</ele>
        <time>2022-02-20T09:11:04Z</time>
      </trkpt>
      <trkpt lat="42.8773" lon="0.12325">
        <ele>2275</ele>
        <time>2022-02-20T09:11:18Z</time>
      </trkpt>
      <trkpt lat="42.87726" lon="0.12336">
        <ele>2277</ele>
        <time>2022-02-20T09:11:36Z</time>
      </trkpt>
      <trkpt lat="42.87721" lon="0.12343">
        <ele>2279</ele>
        <time>2022-02-20T09:11:49Z</time>
      </trkpt>
      <trkpt lat="42.87719" lon="0.12347">
        <ele>2280</ele>
        <time>2022-02-20T09:12:05Z</time>
      </trkpt>
      <trkpt lat="42.87715" lon="0.12351">
        <ele>2281</ele>
        <time>2022-02-20T09:12:22Z</time>
      </trkpt>
      <trkpt lat="42.87713" lon="0.12359">
        <ele>2282</ele>
        <time>2022-02-20T09:12:34Z</time>
      </trkpt>
      <trkpt lat="42.87706" lon="0.12367">
        <ele>2285</ele>
        <time>2022-02-20T09:12:50Z</time>
      </trkpt>
      <trkpt lat="42.87705" lon="0.12373">
        <ele>2288</ele>
        <time>2022-02-20T09:13:10Z</time>
      </trkpt>
      <trkpt lat="42.87708" lon="0.12382">
        <ele>2290</ele>
        <time>2022-02-20T09:13:26Z</time>
      </trkpt>
      <trkpt lat="42.87709" lon="0.12388">
        <ele>2291</ele>
        <time>2022-02-20T09:13:38Z</time>
      </trkpt>
      <trkpt lat="42.87707" lon="0.12393">
        <ele>2292</ele>
        <time>2022-02-20T09:13:51Z</time>
      </trkpt>
      <trkpt lat="42.87698" lon="0.12397">
        <ele>2294</ele>
        <time>2022-02-20T09:14:05Z</time>
      </trkpt>
      <trkpt lat="42.87689" lon="0.12402">
        <ele>2296</ele>
        <time>2022-02-20T09:14:19Z</time>
      </trkpt>
      <trkpt lat="42.87686" lon="0.12406">
        <ele>2298</ele>
        <time>2022-02-20T09:14:34Z</time>
      </trkpt>
      <trkpt lat="42.87684" lon="0.12414">
        <ele>2301</ele>
        <time>2022-02-20T09:14:51Z</time>
      </trkpt>
      <trkpt lat="42.87686" lon="0.12418">
        <ele>2302</ele>
        <time>2022-02-20T09:15:05Z</time>
      </trkpt>
      <trkpt lat="42.87685" lon="0.12424">
        <ele>2302</ele>
        <time>2022-02-20T09:15:20Z</time>
      </trkpt>
      <trkpt lat="42.87681" lon="0.1243">
        <ele>2304</ele>
        <time>2022-02-20T09:15:39Z</time>
      </trkpt>
      <trkpt lat="42.87676" lon="0.12423">
        <ele>2306</ele>
        <time>2022-02-20T09:15:54Z</time>
      </trkpt>
      <trkpt lat="42.87674" lon="0.12429">
        <ele>2307</ele>
        <time>2022-02-20T09:16:09Z</time>
      </trkpt>
      <trkpt lat="42.87672" lon="0.12436">
        <ele>2309</ele>
        <time>2022-02-20T09:16:27Z</time>
      </trkpt>
      <trkpt lat="42.87669" lon="0.12445">
        <ele>2311</ele>
        <time>2022-02-20T09:16:43Z</time>
      </trkpt>
      <trkpt lat="42.87664" lon="0.12452">
        <ele>2313</ele>
        <time>2022-02-20T09:16:57Z</time>
      </trkpt>
      <trkpt lat="42.8766" lon="0.12461">
        <ele>2315</ele>
        <time>2022-02-20T09:17:13Z</time>
      </trkpt>
      <trkpt lat="42.87658" lon="0.12468">
        <ele>2318</ele>
        <time>2022-02-20T09:17:30Z</time>
      </trkpt>
      <trkpt lat="42.87659" lon="0.12471">
        <ele>2319</ele>
        <time>2022-02-20T09:17:47Z</time>
      </trkpt>
      <trkpt lat="42.87655" lon="0.12463">
        <ele>2320</ele>
        <time>2022-02-20T09:18:10Z</time>
      </trkpt>
      <trkpt lat="42.87652" lon="0.1245">
        <ele>2323</ele>
        <time>2022-02-20T09:18:28Z</time>
      </trkpt>
      <trkpt lat="42.8765" lon="0.12444">
        <ele>2323</ele>
        <time>2022-02-20T09:18:45Z</time>
      </trkpt>
      <trkpt lat="42.87649" lon="0.1245">
        <ele>2324</ele>
        <time>2022-02-20T09:18:58Z</time>
      </trkpt>
      <trkpt lat="42.87646" lon="0.12459">
        <ele>2325</ele>
        <time>2022-02-20T09:19:15Z</time>
      </trkpt>
      <trkpt lat="42.87643" lon="0.12463">
        <ele>2327</ele>
        <time>2022-02-20T09:19:34Z</time>
      </trkpt>
      <trkpt lat="42.87635" lon="0.12465">
        <ele>2328</ele>
        <time>2022-02-20T09:19:48Z</time>
      </trkpt>
      <trkpt lat="42.87632" lon="0.12467">
        <ele>2329</ele>
        <time>2022-02-20T09:19:54Z</time>
      </trkpt>
      <trkpt lat="42.87624" lon="0.12469">
        <ele>2330</ele>
        <time>2022-02-20T09:20:07Z</time>
      </trkpt>
      <trkpt lat="42.87626" lon="0.12469">
        <ele>2332</ele>
        <time>2022-02-20T09:20:24Z</time>
      </trkpt>
      <trkpt lat="42.87632" lon="0.12469">
        <ele>2334</ele>
        <time>2022-02-20T09:20:45Z</time>
      </trkpt>
      <trkpt lat="42.87637" lon="0.12475">
        <ele>2335</ele>
        <time>2022-02-20T09:20:58Z</time>
      </trkpt>
      <trkpt lat="42.87637" lon="0.12481">
        <ele>2336</ele>
        <time>2022-02-20T09:21:14Z</time>
      </trkpt>
      <trkpt lat="42.87628" lon="0.12485">
        <ele>2338</ele>
        <time>2022-02-20T09:21:33Z</time>
      </trkpt>
      <trkpt lat="42.8762" lon="0.12491">
        <ele>2339</ele>
        <time>2022-02-20T09:21:47Z</time>
      </trkpt>
      <trkpt lat="42.87612" lon="0.12499">
        <ele>2342</ele>
        <time>2022-02-20T09:22:05Z</time>
      </trkpt>
      <trkpt lat="42.87609" lon="0.12508">
        <ele>2345</ele>
        <time>2022-02-20T09:22:20Z</time>
      </trkpt>
      <trkpt lat="42.87603" lon="0.12515">
        <ele>2348</ele>
        <time>2022-02-20T09:22:37Z</time>
      </trkpt>
      <trkpt lat="42.87602" lon="0.12517">
        <ele>2348</ele>
        <time>2022-02-20T09:22:39Z</time>
      </trkpt>
      <trkpt lat="42.87594" lon="0.12523">
        <ele>2350</ele>
        <time>2022-02-20T09:22:53Z</time>
      </trkpt>
      <trkpt lat="42.87586" lon="0.12527">
        <ele>2352</ele>
        <time>2022-02-20T09:23:09Z</time>
      </trkpt>
      <trkpt lat="42.87579" lon="0.12532">
        <ele>2356</ele>
        <time>2022-02-20T09:23:24Z</time>
      </trkpt>
      <trkpt lat="42.87578" lon="0.12532">
        <ele>2356</ele>
        <time>2022-02-20T09:23:25Z</time>
      </trkpt>
      <trkpt lat="42.87571" lon="0.12536">
        <ele>2358</ele>
        <time>2022-02-20T09:23:41Z</time>
      </trkpt>
      <trkpt lat="42.87564" lon="0.12539">
        <ele>2360</ele>
        <time>2022-02-20T09:23:56Z</time>
      </trkpt>
      <trkpt lat="42.87554" lon="0.12543">
        <ele>2363</ele>
        <time>2022-02-20T09:24:14Z</time>
      </trkpt>
      <trkpt lat="42.87548" lon="0.12548">
        <ele>2365</ele>
        <time>2022-02-20T09:24:31Z</time>
      </trkpt>
      <trkpt lat="42.8754" lon="0.12555">
        <ele>2369</ele>
        <time>2022-02-20T09:24:48Z</time>
      </trkpt>
      <trkpt lat="42.87538" lon="0.12558">
        <ele>2371</ele>
        <time>2022-02-20T09:25:05Z</time>
      </trkpt>
      <trkpt lat="42.87539" lon="0.12556">
        <ele>2370</ele>
        <time>2022-02-20T09:25:22Z</time>
      </trkpt>
      <trkpt lat="42.87538" lon="0.12558">
        <ele>2371</ele>
        <time>2022-02-20T09:25:41Z</time>
      </trkpt>
      <trkpt lat="42.87532" lon="0.12561">
        <ele>2374</ele>
        <time>2022-02-20T09:25:57Z</time>
      </trkpt>
      <trkpt lat="42.87529" lon="0.12562">
        <ele>2374</ele>
        <time>2022-02-20T09:26:13Z</time>
      </trkpt>
      <trkpt lat="42.87523" lon="0.12563">
        <ele>2376</ele>
        <time>2022-02-20T09:26:29Z</time>
      </trkpt>
      <trkpt lat="42.87525" lon="0.1256">
        <ele>2376</ele>
        <time>2022-02-20T09:26:47Z</time>
      </trkpt>
      <trkpt lat="42.87529" lon="0.12563">
        <ele>2377</ele>
        <time>2022-02-20T09:27:05Z</time>
      </trkpt>
      <trkpt lat="42.87536" lon="0.12568">
        <ele>2379</ele>
        <time>2022-02-20T09:27:24Z</time>
      </trkpt>
      <trkpt lat="42.8753" lon="0.12569">
        <ele>2379</ele>
        <time>2022-02-20T09:27:46Z</time>
      </trkpt>
      <trkpt lat="42.87523" lon="0.12573">
        <ele>2381</ele>
        <time>2022-02-20T09:28:00Z</time>
      </trkpt>
      <trkpt lat="42.8752" lon="0.12576">
        <ele>2383</ele>
        <time>2022-02-20T09:28:13Z</time>
      </trkpt>
      <trkpt lat="42.87524" lon="0.12576">
        <ele>2383</ele>
        <time>2022-02-20T09:28:32Z</time>
      </trkpt>
      <trkpt lat="42.87531" lon="0.12582">
        <ele>2386</ele>
        <time>2022-02-20T09:28:47Z</time>
      </trkpt>
      <trkpt lat="42.87534" lon="0.12584">
        <ele>2387</ele>
        <time>2022-02-20T09:29:02Z</time>
      </trkpt>
      <trkpt lat="42.87525" lon="0.1259">
        <ele>2388</ele>
        <time>2022-02-20T09:29:20Z</time>
      </trkpt>
      <trkpt lat="42.87519" lon="0.12592">
        <ele>2390</ele>
        <time>2022-02-20T09:29:35Z</time>
      </trkpt>
      <trkpt lat="42.87526" lon="0.12593">
        <ele>2391</ele>
        <time>2022-02-20T09:29:50Z</time>
      </trkpt>
      <trkpt lat="42.87535" lon="0.12601">
        <ele>2394</ele>
        <time>2022-02-20T09:30:09Z</time>
      </trkpt>
      <trkpt lat="42.87533" lon="0.12604">
        <ele>2395</ele>
        <time>2022-02-20T09:30:25Z</time>
      </trkpt>
      <trkpt lat="42.87526" lon="0.12613">
        <ele>2396</ele>
        <time>2022-02-20T09:30:37Z</time>
      </trkpt>
      <trkpt lat="42.87527" lon="0.1262">
        <ele>2398</ele>
        <time>2022-02-20T09:30:49Z</time>
      </trkpt>
      <trkpt lat="42.87532" lon="0.12625">
        <ele>2401</ele>
        <time>2022-02-20T09:31:02Z</time>
      </trkpt>
      <trkpt lat="42.87527" lon="0.12635">
        <ele>2403</ele>
        <time>2022-02-20T09:31:15Z</time>
      </trkpt>
      <trkpt lat="42.87515" lon="0.12638">
        <ele>2405</ele>
        <time>2022-02-20T09:31:33Z</time>
      </trkpt>
      <trkpt lat="42.87512" lon="0.12636">
        <ele>2408</ele>
        <time>2022-02-20T09:31:47Z</time>
      </trkpt>
      <trkpt lat="42.87508" lon="0.12641">
        <ele>2409</ele>
        <time>2022-02-20T09:32:00Z</time>
      </trkpt>
      <trkpt lat="42.87502" lon="0.12651">
        <ele>2411</ele>
        <time>2022-02-20T09:32:14Z</time>
      </trkpt>
      <trkpt lat="42.87498" lon="0.12659">
        <ele>2412</ele>
        <time>2022-02-20T09:32:27Z</time>
      </trkpt>
      <trkpt lat="42.87492" lon="0.12673">
        <ele>2414</ele>
        <time>2022-02-20T09:32:44Z</time>
      </trkpt>
      <trkpt lat="42.87489" lon="0.12681">
        <ele>2417</ele>
        <time>2022-02-20T09:33:00Z</time>
      </trkpt>
      <trkpt lat="42.87485" lon="0.12688">
        <ele>2419</ele>
        <time>2022-02-20T09:33:16Z</time>
      </trkpt>
      <trkpt lat="42.87481" lon="0.12698">
        <ele>2423</ele>
        <time>2022-02-20T09:33:32Z</time>
      </trkpt>
      <trkpt lat="42.87479" lon="0.12706">
        <ele>2426</ele>
        <time>2022-02-20T09:33:48Z</time>
      </trkpt>
      <trkpt lat="42.87478" lon="0.12714">
        <ele>2428</ele>
        <time>2022-02-20T09:34:04Z</time>
      </trkpt>
      <trkpt lat="42.87473" lon="0.12726">
        <ele>2430</ele>
        <time>2022-02-20T09:34:23Z</time>
      </trkpt>
      <trkpt lat="42.8747" lon="0.12736">
        <ele>2434</ele>
        <time>2022-02-20T09:34:37Z</time>
      </trkpt>
      <trkpt lat="42.87467" lon="0.12744">
        <ele>2435</ele>
        <time>2022-02-20T09:34:48Z</time>
      </trkpt>
      <trkpt lat="42.87465" lon="0.12752">
        <ele>2438</ele>
        <time>2022-02-20T09:35:04Z</time>
      </trkpt>
      <trkpt lat="42.87461" lon="0.12763">
        <ele>2440</ele>
        <time>2022-02-20T09:35:18Z</time>
      </trkpt>
      <trkpt lat="42.87458" lon="0.12777">
        <ele>2443</ele>
        <time>2022-02-20T09:35:35Z</time>
      </trkpt>
      <trkpt lat="42.87456" lon="0.12785">
        <ele>2445</ele>
        <time>2022-02-20T09:35:50Z</time>
      </trkpt>
      <trkpt lat="42.87451" lon="0.12796">
        <ele>2448</ele>
        <time>2022-02-20T09:36:06Z</time>
      </trkpt>
      <trkpt lat="42.87449" lon="0.12808">
        <ele>2450</ele>
        <time>2022-02-20T09:36:23Z</time>
      </trkpt>
      <trkpt lat="42.87446" lon="0.12817">
        <ele>2451</ele>
        <time>2022-02-20T09:36:38Z</time>
      </trkpt>
      <trkpt lat="42.87443" lon="0.12829">
        <ele>2455</ele>
        <time>2022-02-20T09:36:54Z</time>
      </trkpt>
      <trkpt lat="42.87441" lon="0.1284">
        <ele>2457</ele>
        <time>2022-02-20T09:37:11Z</time>
      </trkpt>
      <trkpt lat="42.87439" lon="0.12854">
        <ele>2460</ele>
        <time>2022-02-20T09:37:28Z</time>
      </trkpt>
      <trkpt lat="42.87437" lon="0.12864">
        <ele>2463</ele>
        <time>2022-02-20T09:37:43Z</time>
      </trkpt>
      <trkpt lat="42.87436" lon="0.12877">
        <ele>2465</ele>
        <time>2022-02-20T09:37:58Z</time>
      </trkpt>
      <trkpt lat="42.87431" lon="0.12891">
        <ele>2468</ele>
        <time>2022-02-20T09:38:15Z</time>
      </trkpt>
      <trkpt lat="42.87423" lon="0.12896">
        <ele>2471</ele>
        <time>2022-02-20T09:38:28Z</time>
      </trkpt>
      <trkpt lat="42.87422" lon="0.12899">
        <ele>2472</ele>
        <time>2022-02-20T09:38:41Z</time>
      </trkpt>
      <trkpt lat="42.8742" lon="0.12903">
        <ele>2471</ele>
        <time>2022-02-20T09:38:51Z</time>
      </trkpt>
      <trkpt lat="42.87411" lon="0.12917">
        <ele>2474</ele>
        <time>2022-02-20T09:39:09Z</time>
      </trkpt>
      <trkpt lat="42.87404" lon="0.12929">
        <ele>2474</ele>
        <time>2022-02-20T09:39:24Z</time>
      </trkpt>
      <trkpt lat="42.87401" lon="0.1294">
        <ele>2474</ele>
        <time>2022-02-20T09:39:35Z</time>
      </trkpt>
      <trkpt lat="42.874" lon="0.1295">
        <ele>2476</ele>
        <time>2022-02-20T09:39:50Z</time>
      </trkpt>
      <trkpt lat="42.87399" lon="0.12958">
        <ele>2479</ele>
        <time>2022-02-20T09:40:06Z</time>
      </trkpt>
      <trkpt lat="42.87396" lon="0.12965">
        <ele>2481</ele>
        <time>2022-02-20T09:40:23Z</time>
      </trkpt>
      <trkpt lat="42.87396" lon="0.12964">
        <ele>2482</ele>
        <time>2022-02-20T09:40:39Z</time>
      </trkpt>
      <trkpt lat="42.87407" lon="0.12966">
        <ele>2486</ele>
        <time>2022-02-20T09:40:55Z</time>
      </trkpt>
      <trkpt lat="42.87416" lon="0.12976">
        <ele>2487</ele>
        <time>2022-02-20T09:41:11Z</time>
      </trkpt>
      <trkpt lat="42.87411" lon="0.12981">
        <ele>2488</ele>
        <time>2022-02-20T09:41:24Z</time>
      </trkpt>
      <trkpt lat="42.87412" lon="0.12983">
        <ele>2489</ele>
        <time>2022-02-20T09:41:39Z</time>
      </trkpt>
      <trkpt lat="42.87411" lon="0.12986">
        <ele>2490</ele>
        <time>2022-02-20T09:41:52Z</time>
      </trkpt>
      <trkpt lat="42.8741" lon="0.12989">
        <ele>2492</ele>
        <time>2022-02-20T09:42:09Z</time>
      </trkpt>
      <trkpt lat="42.87407" lon="0.12991">
        <ele>2493</ele>
        <time>2022-02-20T09:42:29Z</time>
      </trkpt>
      <trkpt lat="42.87406" lon="0.12995">
        <ele>2494</ele>
        <time>2022-02-20T09:42:42Z</time>
      </trkpt>
      <trkpt lat="42.87408" lon="0.12998">
        <ele>2496</ele>
        <time>2022-02-20T09:42:57Z</time>
      </trkpt>
      <trkpt lat="42.8741" lon="0.13002">
        <ele>2498</ele>
        <time>2022-02-20T09:43:11Z</time>
      </trkpt>
      <trkpt lat="42.87405" lon="0.13005">
        <ele>2499</ele>
        <time>2022-02-20T09:43:25Z</time>
      </trkpt>
      <trkpt lat="42.87405" lon="0.13013">
        <ele>2502</ele>
        <time>2022-02-20T09:43:40Z</time>
      </trkpt>
      <trkpt lat="42.87405" lon="0.1302">
        <ele>2505</ele>
        <time>2022-02-20T09:43:51Z</time>
      </trkpt>
      <trkpt lat="42.87404" lon="0.13029">
        <ele>2508</ele>
        <time>2022-02-20T09:44:03Z</time>
      </trkpt>
      <trkpt lat="42.87402" lon="0.13033">
        <ele>2508</ele>
        <time>2022-02-20T09:44:16Z</time>
      </trkpt>
      <trkpt lat="42.87397" lon="0.13037">
        <ele>2510</ele>
        <time>2022-02-20T09:44:35Z</time>
      </trkpt>
      <trkpt lat="42.87395" lon="0.13039">
        <ele>2512</ele>
        <time>2022-02-20T09:44:50Z</time>
      </trkpt>
      <trkpt lat="42.87395" lon="0.1304">
        <ele>2513</ele>
        <time>2022-02-20T09:45:06Z</time>
      </trkpt>
      <trkpt lat="42.87392" lon="0.1304">
        <ele>2513</ele>
        <time>2022-02-20T09:45:21Z</time>
      </trkpt>
      <trkpt lat="42.87391" lon="0.1304">
        <ele>2511</ele>
        <time>2022-02-20T09:45:34Z</time>
      </trkpt>
      <trkpt lat="42.87392" lon="0.13041">
        <ele>2511</ele>
        <time>2022-02-20T09:45:50Z</time>
      </trkpt>
      <trkpt lat="42.87391" lon="0.1304">
        <ele>2510</ele>
        <time>2022-02-20T09:46:10Z</time>
      </trkpt>
      <trkpt lat="42.87393" lon="0.13039">
        <ele>2511</ele>
        <time>2022-02-20T09:46:28Z</time>
      </trkpt>
      <trkpt lat="42.87394" lon="0.13039">
        <ele>2511</ele>
        <time>2022-02-20T09:46:49Z</time>
      </trkpt>
      <trkpt lat="42.87394" lon="0.1304">
        <ele>2511</ele>
        <time>2022-02-20T09:47:12Z</time>
      </trkpt>
      <trkpt lat="42.87392" lon="0.1304">
        <ele>2511</ele>
        <time>2022-02-20T09:47:27Z</time>
      </trkpt>
      <trkpt lat="42.87392" lon="0.13039">
        <ele>2510</ele>
        <time>2022-02-20T09:47:58Z</time>
      </trkpt>
      <trkpt lat="42.87392" lon="0.13038">
        <ele>2510</ele>
        <time>2022-02-20T09:48:37Z</time>
      </trkpt>
      <trkpt lat="42.87392" lon="0.13038">
        <ele>2510</ele>
        <time>2022-02-20T09:49:16Z</time>
      </trkpt>
      <trkpt lat="42.87393" lon="0.13038">
        <ele>2510</ele>
        <time>2022-02-20T09:49:58Z</time>
      </trkpt>
      <trkpt lat="42.87392" lon="0.13037">
        <ele>2511</ele>
        <time>2022-02-20T09:50:42Z</time>
      </trkpt>
      <trkpt lat="42.87392" lon="0.1304">
        <ele>2511</ele>
        <time>2022-02-20T09:51:15Z</time>
      </trkpt>
      <trkpt lat="42.87391" lon="0.13037">
        <ele>2510</ele>
        <time>2022-02-20T09:51:57Z</time>
      </trkpt>
      <trkpt lat="42.87391" lon="0.13037">
        <ele>2510</ele>
        <time>2022-02-20T09:52:37Z</time>
      </trkpt>
      <trkpt lat="42.87391" lon="0.13038">
        <ele>2511</ele>
        <time>2022-02-20T09:53:14Z</time>
      </trkpt>
      <trkpt lat="42.87391" lon="0.13038">
        <ele>2511</ele>
        <time>2022-02-20T09:53:51Z</time>
      </trkpt>
      <trkpt lat="42.87391" lon="0.13038">
        <ele>2511</ele>
        <time>2022-02-20T09:54:26Z</time>
      </trkpt>
      <trkpt lat="42.87391" lon="0.13039">
        <ele>2511</ele>
        <time>2022-02-20T09:55:01Z</time>
      </trkpt>
      <trkpt lat="42.87392" lon="0.13038">
        <ele>2511</ele>
        <time>2022-02-20T09:55:35Z</time>
      </trkpt>
      <trkpt lat="42.87391" lon="0.13038">
        <ele>2511</ele>
        <time>2022-02-20T09:56:10Z</time>
      </trkpt>
      <trkpt lat="42.87391" lon="0.1304">
        <ele>2512</ele>
        <time>2022-02-20T09:56:34Z</time>
      </trkpt>
      <trkpt lat="42.87391" lon="0.13043">
        <ele>2513</ele>
        <time>2022-02-20T09:56:53Z</time>
      </trkpt>
      <trkpt lat="42.87391" lon="0.13047">
        <ele>2514</ele>
        <time>2022-02-20T09:57:13Z</time>
      </trkpt>
      <trkpt lat="42.87393" lon="0.13042">
        <ele>2513</ele>
        <time>2022-02-20T09:57:34Z</time>
      </trkpt>
      <trkpt lat="42.87395" lon="0.13041">
        <ele>2513</ele>
        <time>2022-02-20T09:58:00Z</time>
      </trkpt>
      <trkpt lat="42.87396" lon="0.13041">
        <ele>2509</ele>
        <time>2022-02-20T09:58:07Z</time>
      </trkpt>
      <trkpt lat="42.87397" lon="0.1304">
        <ele>2515</ele>
        <time>2022-02-20T09:58:08Z</time>
      </trkpt>
      <trkpt lat="42.87397" lon="0.1304">
        <ele>2513</ele>
        <time>2022-02-20T09:58:09Z</time>
      </trkpt>
      <trkpt lat="42.87397" lon="0.1304">
        <ele>2513</ele>
        <time>2022-02-20T09:58:11Z</time>
      </trkpt>
      <trkpt lat="42.87395" lon="0.13037">
        <ele>2512</ele>
        <time>2022-02-20T09:58:32Z</time>
      </trkpt>
      <trkpt lat="42.87396" lon="0.13038">
        <ele>2512</ele>
        <time>2022-02-20T09:58:57Z</time>
      </trkpt>
      <trkpt lat="42.87394" lon="0.13039">
        <ele>2506</ele>
        <time>2022-02-20T09:59:15Z</time>
      </trkpt>
      <trkpt lat="42.87394" lon="0.13039">
        <ele>2513</ele>
        <time>2022-02-20T09:59:16Z</time>
      </trkpt>
      <trkpt lat="42.87393" lon="0.13039">
        <ele>2511</ele>
        <time>2022-02-20T09:59:32Z</time>
      </trkpt>
      <trkpt lat="42.87395" lon="0.13039">
        <ele>2512</ele>
        <time>2022-02-20T09:59:45Z</time>
      </trkpt>
      <trkpt lat="42.87394" lon="0.13039">
        <ele>2510</ele>
        <time>2022-02-20T09:59:58Z</time>
      </trkpt>
      <trkpt lat="42.87395" lon="0.13039">
        <ele>2510</ele>
        <time>2022-02-20T10:00:20Z</time>
      </trkpt>
      <trkpt lat="42.87396" lon="0.13038">
        <ele>2510</ele>
        <time>2022-02-20T10:00:54Z</time>
      </trkpt>
      <trkpt lat="42.87394" lon="0.13037">
        <ele>2510</ele>
        <time>2022-02-20T10:01:26Z</time>
      </trkpt>
      <trkpt lat="42.87394" lon="0.13039">
        <ele>2510</ele>
        <time>2022-02-20T10:01:47Z</time>
      </trkpt>
      <trkpt lat="42.87393" lon="0.13041">
        <ele>2511</ele>
        <time>2022-02-20T10:01:57Z</time>
      </trkpt>
      <trkpt lat="42.87397" lon="0.13039">
        <ele>2511</ele>
        <time>2022-02-20T10:02:11Z</time>
      </trkpt>
      <trkpt lat="42.87399" lon="0.13037">
        <ele>2511</ele>
        <time>2022-02-20T10:02:34Z</time>
      </trkpt>
      <trkpt lat="42.874" lon="0.13037">
        <ele>2511</ele>
        <time>2022-02-20T10:02:58Z</time>
      </trkpt>
      <trkpt lat="42.87394" lon="0.13041">
        <ele>2512</ele>
        <time>2022-02-20T10:03:13Z</time>
      </trkpt>
      <trkpt lat="42.87391" lon="0.13048">
        <ele>2514</ele>
        <time>2022-02-20T10:03:27Z</time>
      </trkpt>
      <trkpt lat="42.87386" lon="0.13057">
        <ele>2513</ele>
        <time>2022-02-20T10:03:42Z</time>
      </trkpt>
      <trkpt lat="42.8738" lon="0.13068">
        <ele>2513</ele>
        <time>2022-02-20T10:04:00Z</time>
      </trkpt>
      <trkpt lat="42.87375" lon="0.13075">
        <ele>2513</ele>
        <time>2022-02-20T10:04:16Z</time>
      </trkpt>
      <trkpt lat="42.87368" lon="0.13083">
        <ele>2512</ele>
        <time>2022-02-20T10:04:29Z</time>
      </trkpt>
      <trkpt lat="42.87362" lon="0.1309">
        <ele>2511</ele>
        <time>2022-02-20T10:04:37Z</time>
      </trkpt>
      <trkpt lat="42.87357" lon="0.131">
        <ele>2511</ele>
        <time>2022-02-20T10:04:52Z</time>
      </trkpt>
      <trkpt lat="42.87355" lon="0.1311">
        <ele>2513</ele>
        <time>2022-02-20T10:05:07Z</time>
      </trkpt>
      <trkpt lat="42.87351" lon="0.13124">
        <ele>2515</ele>
        <time>2022-02-20T10:05:26Z</time>
      </trkpt>
      <trkpt lat="42.87347" lon="0.13134">
        <ele>2516</ele>
        <time>2022-02-20T10:05:42Z</time>
      </trkpt>
      <trkpt lat="42.87341" lon="0.13143">
        <ele>2517</ele>
        <time>2022-02-20T10:05:57Z</time>
      </trkpt>
      <trkpt lat="42.87337" lon="0.13148">
        <ele>2518</ele>
        <time>2022-02-20T10:06:13Z</time>
      </trkpt>
      <trkpt lat="42.87336" lon="0.1315">
        <ele>2518</ele>
        <time>2022-02-20T10:06:32Z</time>
      </trkpt>
      <trkpt lat="42.8734" lon="0.13151">
        <ele>2519</ele>
        <time>2022-02-20T10:06:47Z</time>
      </trkpt>
      <trkpt lat="42.87341" lon="0.13157">
        <ele>2521</ele>
        <time>2022-02-20T10:07:00Z</time>
      </trkpt>
      <trkpt lat="42.87338" lon="0.13166">
        <ele>2524</ele>
        <time>2022-02-20T10:07:16Z</time>
      </trkpt>
      <trkpt lat="42.87336" lon="0.13177">
        <ele>2526</ele>
        <time>2022-02-20T10:07:31Z</time>
      </trkpt>
      <trkpt lat="42.87335" lon="0.13182">
        <ele>2528</ele>
        <time>2022-02-20T10:07:45Z</time>
      </trkpt>
      <trkpt lat="42.87333" lon="0.13191">
        <ele>2529</ele>
        <time>2022-02-20T10:08:01Z</time>
      </trkpt>
      <trkpt lat="42.87331" lon="0.13195">
        <ele>2530</ele>
        <time>2022-02-20T10:08:13Z</time>
      </trkpt>
      <trkpt lat="42.87332" lon="0.13197">
        <ele>2529</ele>
        <time>2022-02-20T10:08:33Z</time>
      </trkpt>
      <trkpt lat="42.87332" lon="0.13197">
        <ele>2529</ele>
        <time>2022-02-20T10:08:59Z</time>
      </trkpt>
      <trkpt lat="42.87331" lon="0.13196">
        <ele>2529</ele>
        <time>2022-02-20T10:09:29Z</time>
      </trkpt>
      <trkpt lat="42.87332" lon="0.13198">
        <ele>2529</ele>
        <time>2022-02-20T10:09:48Z</time>
      </trkpt>
      <trkpt lat="42.87333" lon="0.13193">
        <ele>2529</ele>
        <time>2022-02-20T10:10:11Z</time>
      </trkpt>
      <trkpt lat="42.87333" lon="0.13194">
        <ele>2530</ele>
        <time>2022-02-20T10:10:33Z</time>
      </trkpt>
      <trkpt lat="42.87333" lon="0.13194">
        <ele>2529</ele>
        <time>2022-02-20T10:10:51Z</time>
      </trkpt>
      <trkpt lat="42.87332" lon="0.13196">
        <ele>2530</ele>
        <time>2022-02-20T10:11:05Z</time>
      </trkpt>
      <trkpt lat="42.87333" lon="0.13195">
        <ele>2529</ele>
        <time>2022-02-20T10:11:32Z</time>
      </trkpt>
      <trkpt lat="42.87333" lon="0.13194">
        <ele>2528</ele>
        <time>2022-02-20T10:11:47Z</time>
      </trkpt>
      <trkpt lat="42.87332" lon="0.13195">
        <ele>2527</ele>
        <time>2022-02-20T10:12:17Z</time>
      </trkpt>
      <trkpt lat="42.87332" lon="0.13195">
        <ele>2527</ele>
        <time>2022-02-20T10:12:54Z</time>
      </trkpt>
      <trkpt lat="42.87333" lon="0.13195">
        <ele>2527</ele>
        <time>2022-02-20T10:13:29Z</time>
      </trkpt>
      <trkpt lat="42.87333" lon="0.13195">
        <ele>2527</ele>
        <time>2022-02-20T10:14:09Z</time>
      </trkpt>
      <trkpt lat="42.87333" lon="0.13195">
        <ele>2526</ele>
        <time>2022-02-20T10:14:46Z</time>
      </trkpt>
      <trkpt lat="42.87333" lon="0.13195">
        <ele>2527</ele>
        <time>2022-02-20T10:15:17Z</time>
      </trkpt>
      <trkpt lat="42.87333" lon="0.13195">
        <ele>2528</ele>
        <time>2022-02-20T10:15:46Z</time>
      </trkpt>
      <trkpt lat="42.87333" lon="0.13195">
        <ele>2529</ele>
        <time>2022-02-20T10:15:58Z</time>
      </trkpt>
      <trkpt lat="42.87332" lon="0.13198">
        <ele>2528</ele>
        <time>2022-02-20T10:16:21Z</time>
      </trkpt>
      <trkpt lat="42.87325" lon="0.13203">
        <ele>2528</ele>
        <time>2022-02-20T10:16:38Z</time>
      </trkpt>
      <trkpt lat="42.87318" lon="0.13207">
        <ele>2526</ele>
        <time>2022-02-20T10:16:53Z</time>
      </trkpt>
      <trkpt lat="42.87312" lon="0.13209">
        <ele>2522</ele>
        <time>2022-02-20T10:17:07Z</time>
      </trkpt>
      <trkpt lat="42.87314" lon="0.13205">
        <ele>2522</ele>
        <time>2022-02-20T10:17:26Z</time>
      </trkpt>
      <trkpt lat="42.87313" lon="0.13208">
        <ele>2522</ele>
        <time>2022-02-20T10:17:44Z</time>
      </trkpt>
      <trkpt lat="42.87313" lon="0.13208">
        <ele>2521</ele>
        <time>2022-02-20T10:17:52Z</time>
      </trkpt>
      <trkpt lat="42.87311" lon="0.13208">
        <ele>2521</ele>
        <time>2022-02-20T10:18:18Z</time>
      </trkpt>
      <trkpt lat="42.87312" lon="0.13208">
        <ele>2521</ele>
        <time>2022-02-20T10:18:55Z</time>
      </trkpt>
      <trkpt lat="42.8731" lon="0.13209">
        <ele>2517</ele>
        <time>2022-02-20T10:19:27Z</time>
      </trkpt>
      <trkpt lat="42.8731" lon="0.13209">
        <ele>2524</ele>
        <time>2022-02-20T10:19:28Z</time>
      </trkpt>
      <trkpt lat="42.87311" lon="0.1321">
        <ele>2521</ele>
        <time>2022-02-20T10:19:30Z</time>
      </trkpt>
      <trkpt lat="42.87312" lon="0.13207">
        <ele>2522</ele>
        <time>2022-02-20T10:19:52Z</time>
      </trkpt>
      <trkpt lat="42.87311" lon="0.13207">
        <ele>2521</ele>
        <time>2022-02-20T10:20:18Z</time>
      </trkpt>
      <trkpt lat="42.87311" lon="0.13206">
        <ele>2521</ele>
        <time>2022-02-20T10:20:49Z</time>
      </trkpt>
      <trkpt lat="42.87312" lon="0.13206">
        <ele>2521</ele>
        <time>2022-02-20T10:21:17Z</time>
      </trkpt>
      <trkpt lat="42.87312" lon="0.13207">
        <ele>2520</ele>
        <time>2022-02-20T10:21:55Z</time>
      </trkpt>
      <trkpt lat="42.87312" lon="0.13208">
        <ele>2521</ele>
        <time>2022-02-20T10:22:24Z</time>
      </trkpt>
      <trkpt lat="42.87312" lon="0.13209">
        <ele>2521</ele>
        <time>2022-02-20T10:22:59Z</time>
      </trkpt>
      <trkpt lat="42.8731" lon="0.13208">
        <ele>2521</ele>
        <time>2022-02-20T10:23:35Z</time>
      </trkpt>
      <trkpt lat="42.8731" lon="0.13208">
        <ele>2521</ele>
        <time>2022-02-20T10:24:16Z</time>
      </trkpt>
      <trkpt lat="42.87309" lon="0.1321">
        <ele>2521</ele>
        <time>2022-02-20T10:24:53Z</time>
      </trkpt>
      <trkpt lat="42.8731" lon="0.1321">
        <ele>2521</ele>
        <time>2022-02-20T10:25:33Z</time>
      </trkpt>
      <trkpt lat="42.87311" lon="0.13209">
        <ele>2521</ele>
        <time>2022-02-20T10:26:11Z</time>
      </trkpt>
      <trkpt lat="42.8731" lon="0.13209">
        <ele>2521</ele>
        <time>2022-02-20T10:26:45Z</time>
      </trkpt>
      <trkpt lat="42.8731" lon="0.13209">
        <ele>2521</ele>
        <time>2022-02-20T10:27:25Z</time>
      </trkpt>
      <trkpt lat="42.8731" lon="0.1321">
        <ele>2521</ele>
        <time>2022-02-20T10:27:59Z</time>
      </trkpt>
      <trkpt lat="42.87309" lon="0.13209">
        <ele>2520</ele>
        <time>2022-02-20T10:28:38Z</time>
      </trkpt>
      <trkpt lat="42.8731" lon="0.13209">
        <ele>2520</ele>
        <time>2022-02-20T10:29:13Z</time>
      </trkpt>
      <trkpt lat="42.87311" lon="0.13207">
        <ele>2521</ele>
        <time>2022-02-20T10:29:54Z</time>
      </trkpt>
      <trkpt lat="42.87311" lon="0.13208">
        <ele>2520</ele>
        <time>2022-02-20T10:30:31Z</time>
      </trkpt>
      <trkpt lat="42.87312" lon="0.13207">
        <ele>2521</ele>
        <time>2022-02-20T10:31:05Z</time>
      </trkpt>
      <trkpt lat="42.87313" lon="0.13208">
        <ele>2520</ele>
        <time>2022-02-20T10:31:38Z</time>
      </trkpt>
      <trkpt lat="42.87314" lon="0.13205">
        <ele>2520</ele>
        <time>2022-02-20T10:32:15Z</time>
      </trkpt>
      <trkpt lat="42.87314" lon="0.13205">
        <ele>2520</ele>
        <time>2022-02-20T10:32:54Z</time>
      </trkpt>
      <trkpt lat="42.87313" lon="0.13205">
        <ele>2520</ele>
        <time>2022-02-20T10:33:29Z</time>
      </trkpt>
      <trkpt lat="42.87313" lon="0.13206">
        <ele>2520</ele>
        <time>2022-02-20T10:34:01Z</time>
      </trkpt>
      <trkpt lat="42.87315" lon="0.13205">
        <ele>2521</ele>
        <time>2022-02-20T10:34:31Z</time>
      </trkpt>
      <trkpt lat="42.87313" lon="0.13207">
        <ele>2521</ele>
        <time>2022-02-20T10:35:08Z</time>
      </trkpt>
      <trkpt lat="42.87314" lon="0.13208">
        <ele>2521</ele>
        <time>2022-02-20T10:35:31Z</time>
      </trkpt>
      <trkpt lat="42.87316" lon="0.13206">
        <ele>2521</ele>
        <time>2022-02-20T10:35:57Z</time>
      </trkpt>
      <trkpt lat="42.87316" lon="0.13207">
        <ele>2521</ele>
        <time>2022-02-20T10:36:35Z</time>
      </trkpt>
      <trkpt lat="42.87313" lon="0.13206">
        <ele>2521</ele>
        <time>2022-02-20T10:36:58Z</time>
      </trkpt>
      <trkpt lat="42.87314" lon="0.13204">
        <ele>2522</ele>
        <time>2022-02-20T10:37:13Z</time>
      </trkpt>
      <trkpt lat="42.87314" lon="0.13207">
        <ele>2522</ele>
        <time>2022-02-20T10:37:32Z</time>
      </trkpt>
      <trkpt lat="42.87314" lon="0.13208">
        <ele>2522</ele>
        <time>2022-02-20T10:37:53Z</time>
      </trkpt>
      <trkpt lat="42.87314" lon="0.13205">
        <ele>2523</ele>
        <time>2022-02-20T10:38:16Z</time>
      </trkpt>
      <trkpt lat="42.87317" lon="0.13206">
        <ele>2522</ele>
        <time>2022-02-20T10:38:42Z</time>
      </trkpt>
      <trkpt lat="42.87318" lon="0.13206">
        <ele>2523</ele>
        <time>2022-02-20T10:39:05Z</time>
      </trkpt>
      <trkpt lat="42.87316" lon="0.13207">
        <ele>2523</ele>
        <time>2022-02-20T10:39:29Z</time>
      </trkpt>
      <trkpt lat="42.87321" lon="0.13205">
        <ele>2524</ele>
        <time>2022-02-20T10:39:59Z</time>
      </trkpt>
      <trkpt lat="42.87321" lon="0.13213">
        <ele>2524</ele>
        <time>2022-02-20T10:40:27Z</time>
      </trkpt>
      <trkpt lat="42.8732" lon="0.13207">
        <ele>2524</ele>
        <time>2022-02-20T10:40:45Z</time>
      </trkpt>
      <trkpt lat="42.87312" lon="0.13204">
        <ele>2524</ele>
        <time>2022-02-20T10:41:17Z</time>
      </trkpt>
      <trkpt lat="42.87311" lon="0.13208">
        <ele>2524</ele>
        <time>2022-02-20T10:41:39Z</time>
      </trkpt>
      <trkpt lat="42.87309" lon="0.13211">
        <ele>2524</ele>
        <time>2022-02-20T10:41:45Z</time>
      </trkpt>
      <trkpt lat="42.87304" lon="0.13216">
        <ele>2522</ele>
        <time>2022-02-20T10:41:59Z</time>
      </trkpt>
      <trkpt lat="42.87297" lon="0.1322">
        <ele>2518</ele>
        <time>2022-02-20T10:42:04Z</time>
      </trkpt>
      <trkpt lat="42.87288" lon="0.13224">
        <ele>2515</ele>
        <time>2022-02-20T10:42:09Z</time>
      </trkpt>
      <trkpt lat="42.87285" lon="0.13225">
        <ele>2514</ele>
        <time>2022-02-20T10:42:11Z</time>
      </trkpt>
      <trkpt lat="42.87283" lon="0.13217">
        <ele>2510</ele>
        <time>2022-02-20T10:42:14Z</time>
      </trkpt>
      <trkpt lat="42.87282" lon="0.13214">
        <ele>2510</ele>
        <time>2022-02-20T10:42:15Z</time>
      </trkpt>
      <trkpt lat="42.87276" lon="0.13208">
        <ele>2507</ele>
        <time>2022-02-20T10:42:19Z</time>
      </trkpt>
      <trkpt lat="42.87271" lon="0.13212">
        <ele>2505</ele>
        <time>2022-02-20T10:42:23Z</time>
      </trkpt>
      <trkpt lat="42.8726" lon="0.13217">
        <ele>2502</ele>
        <time>2022-02-20T10:42:32Z</time>
      </trkpt>
      <trkpt lat="42.87256" lon="0.13219">
        <ele>2502</ele>
        <time>2022-02-20T10:42:34Z</time>
      </trkpt>
      <trkpt lat="42.87252" lon="0.1321">
        <ele>2497</ele>
        <time>2022-02-20T10:42:37Z</time>
      </trkpt>
      <trkpt lat="42.8725" lon="0.13202">
        <ele>2493</ele>
        <time>2022-02-20T10:42:40Z</time>
      </trkpt>
      <trkpt lat="42.87248" lon="0.13201">
        <ele>2493</ele>
        <time>2022-02-20T10:42:41Z</time>
      </trkpt>
      <trkpt lat="42.87248" lon="0.132">
        <ele>2492</ele>
        <time>2022-02-20T10:42:42Z</time>
      </trkpt>
      <trkpt lat="42.87236" lon="0.13201">
        <ele>2488</ele>
        <time>2022-02-20T10:42:45Z</time>
      </trkpt>
      <trkpt lat="42.87234" lon="0.13194">
        <ele>2484</ele>
        <time>2022-02-20T10:42:47Z</time>
      </trkpt>
      <trkpt lat="42.87232" lon="0.13187">
        <ele>2483</ele>
        <time>2022-02-20T10:42:49Z</time>
      </trkpt>
      <trkpt lat="42.8723" lon="0.13184">
        <ele>2482</ele>
        <time>2022-02-20T10:42:50Z</time>
      </trkpt>
      <trkpt lat="42.87229" lon="0.13181">
        <ele>2480</ele>
        <time>2022-02-20T10:42:51Z</time>
      </trkpt>
      <trkpt lat="42.87227" lon="0.13179">
        <ele>2479</ele>
        <time>2022-02-20T10:42:52Z</time>
      </trkpt>
      <trkpt lat="42.87214" lon="0.13179">
        <ele>2475</ele>
        <time>2022-02-20T10:42:55Z</time>
      </trkpt>
      <trkpt lat="42.87208" lon="0.13176">
        <ele>2473</ele>
        <time>2022-02-20T10:42:57Z</time>
      </trkpt>
      <trkpt lat="42.872" lon="0.13177">
        <ele>2469</ele>
        <time>2022-02-20T10:42:59Z</time>
      </trkpt>
      <trkpt lat="42.87193" lon="0.13179">
        <ele>2468</ele>
        <time>2022-02-20T10:43:01Z</time>
      </trkpt>
      <trkpt lat="42.87187" lon="0.13173">
        <ele>2463</ele>
        <time>2022-02-20T10:43:04Z</time>
      </trkpt>
      <trkpt lat="42.87187" lon="0.13169">
        <ele>2462</ele>
        <time>2022-02-20T10:43:05Z</time>
      </trkpt>
      <trkpt lat="42.8718" lon="0.13163">
        <ele>2458</ele>
        <time>2022-02-20T10:43:08Z</time>
      </trkpt>
      <trkpt lat="42.87177" lon="0.13162">
        <ele>2457</ele>
        <time>2022-02-20T10:43:09Z</time>
      </trkpt>
      <trkpt lat="42.87176" lon="0.13152">
        <ele>2452</ele>
        <time>2022-02-20T10:43:10Z</time>
      </trkpt>
      <trkpt lat="42.8718" lon="0.13142">
        <ele>2450</ele>
        <time>2022-02-20T10:43:12Z</time>
      </trkpt>
      <trkpt lat="42.87188" lon="0.13126">
        <ele>2447</ele>
        <time>2022-02-20T10:43:15Z</time>
      </trkpt>
      <trkpt lat="42.87193" lon="0.13114">
        <ele>2446</ele>
        <time>2022-02-20T10:43:17Z</time>
      </trkpt>
      <trkpt lat="42.872" lon="0.13099">
        <ele>2443</ele>
        <time>2022-02-20T10:43:20Z</time>
      </trkpt>
      <trkpt lat="42.87205" lon="0.13083">
        <ele>2445</ele>
        <time>2022-02-20T10:43:23Z</time>
      </trkpt>
      <trkpt lat="42.87212" lon="0.13065">
        <ele>2441</ele>
        <time>2022-02-20T10:43:27Z</time>
      </trkpt>
      <trkpt lat="42.87217" lon="0.13065">
        <ele>2442</ele>
        <time>2022-02-20T10:43:35Z</time>
      </trkpt>
      <trkpt lat="42.87219" lon="0.13066">
        <ele>2442</ele>
        <time>2022-02-20T10:43:51Z</time>
      </trkpt>
      <trkpt lat="42.87222" lon="0.1307">
        <ele>2442</ele>
        <time>2022-02-20T10:44:10Z</time>
      </trkpt>
      <trkpt lat="42.87221" lon="0.13072">
        <ele>2442</ele>
        <time>2022-02-20T10:44:23Z</time>
      </trkpt>
      <trkpt lat="42.87222" lon="0.13075">
        <ele>2442</ele>
        <time>2022-02-20T10:44:43Z</time>
      </trkpt>
      <trkpt lat="42.87221" lon="0.13074">
        <ele>2442</ele>
        <time>2022-02-20T10:44:58Z</time>
      </trkpt>
      <trkpt lat="42.87222" lon="0.13075">
        <ele>2443</ele>
        <time>2022-02-20T10:45:29Z</time>
      </trkpt>
      <trkpt lat="42.87223" lon="0.13076">
        <ele>2442</ele>
        <time>2022-02-20T10:45:43Z</time>
      </trkpt>
      <trkpt lat="42.87222" lon="0.13077">
        <ele>2442</ele>
        <time>2022-02-20T10:46:06Z</time>
      </trkpt>
      <trkpt lat="42.87223" lon="0.13078">
        <ele>2442</ele>
        <time>2022-02-20T10:46:28Z</time>
      </trkpt>
      <trkpt lat="42.87222" lon="0.13078">
        <ele>2443</ele>
        <time>2022-02-20T10:46:50Z</time>
      </trkpt>
      <trkpt lat="42.87222" lon="0.13075">
        <ele>2442</ele>
        <time>2022-02-20T10:47:09Z</time>
      </trkpt>
      <trkpt lat="42.87223" lon="0.13074">
        <ele>2441</ele>
        <time>2022-02-20T10:47:11Z</time>
      </trkpt>
      <trkpt lat="42.87228" lon="0.13067">
        <ele>2441</ele>
        <time>2022-02-20T10:47:16Z</time>
      </trkpt>
      <trkpt lat="42.87233" lon="0.13054">
        <ele>2440</ele>
        <time>2022-02-20T10:47:19Z</time>
      </trkpt>
      <trkpt lat="42.87239" lon="0.13036">
        <ele>2438</ele>
        <time>2022-02-20T10:47:22Z</time>
      </trkpt>
      <trkpt lat="42.87242" lon="0.13023">
        <ele>2436</ele>
        <time>2022-02-20T10:47:24Z</time>
      </trkpt>
      <trkpt lat="42.87253" lon="0.12989">
        <ele>2433</ele>
        <time>2022-02-20T10:47:29Z</time>
      </trkpt>
      <trkpt lat="42.87255" lon="0.12981">
        <ele>2431</ele>
        <time>2022-02-20T10:47:30Z</time>
      </trkpt>
      <trkpt lat="42.87276" lon="0.12943">
        <ele>2427</ele>
        <time>2022-02-20T10:47:36Z</time>
      </trkpt>
      <trkpt lat="42.87301" lon="0.12906">
        <ele>2425</ele>
        <time>2022-02-20T10:47:44Z</time>
      </trkpt>
      <trkpt lat="42.87312" lon="0.12889">
        <ele>2422</ele>
        <time>2022-02-20T10:47:47Z</time>
      </trkpt>
      <trkpt lat="42.87327" lon="0.12864">
        <ele>2418</ele>
        <time>2022-02-20T10:47:51Z</time>
      </trkpt>
      <trkpt lat="42.87338" lon="0.12846">
        <ele>2415</ele>
        <time>2022-02-20T10:47:54Z</time>
      </trkpt>
      <trkpt lat="42.87346" lon="0.12833">
        <ele>2414</ele>
        <time>2022-02-20T10:47:56Z</time>
      </trkpt>
      <trkpt lat="42.87365" lon="0.12804">
        <ele>2412</ele>
        <time>2022-02-20T10:48:01Z</time>
      </trkpt>
      <trkpt lat="42.87384" lon="0.12773">
        <ele>2410</ele>
        <time>2022-02-20T10:48:10Z</time>
      </trkpt>
      <trkpt lat="42.87391" lon="0.12766">
        <ele>2409</ele>
        <time>2022-02-20T10:48:19Z</time>
      </trkpt>
      <trkpt lat="42.87399" lon="0.12749">
        <ele>2407</ele>
        <time>2022-02-20T10:48:24Z</time>
      </trkpt>
      <trkpt lat="42.87408" lon="0.12717">
        <ele>2404</ele>
        <time>2022-02-20T10:48:30Z</time>
      </trkpt>
      <trkpt lat="42.8743" lon="0.12673">
        <ele>2402</ele>
        <time>2022-02-20T10:48:43Z</time>
      </trkpt>
      <trkpt lat="42.87451" lon="0.12644">
        <ele>2399</ele>
        <time>2022-02-20T10:48:51Z</time>
      </trkpt>
      <trkpt lat="42.87476" lon="0.1262">
        <ele>2397</ele>
        <time>2022-02-20T10:48:58Z</time>
      </trkpt>
      <trkpt lat="42.87502" lon="0.12598">
        <ele>2393</ele>
        <time>2022-02-20T10:49:06Z</time>
      </trkpt>
      <trkpt lat="42.87505" lon="0.12595">
        <ele>2393</ele>
        <time>2022-02-20T10:49:07Z</time>
      </trkpt>
      <trkpt lat="42.87511" lon="0.12595">
        <ele>2393</ele>
        <time>2022-02-20T10:49:15Z</time>
      </trkpt>
      <trkpt lat="42.87515" lon="0.12586">
        <ele>2389</ele>
        <time>2022-02-20T10:49:19Z</time>
      </trkpt>
      <trkpt lat="42.87522" lon="0.12585">
        <ele>2387</ele>
        <time>2022-02-20T10:49:21Z</time>
      </trkpt>
      <trkpt lat="42.87529" lon="0.12584">
        <ele>2386</ele>
        <time>2022-02-20T10:49:23Z</time>
      </trkpt>
      <trkpt lat="42.87531" lon="0.12577">
        <ele>2383</ele>
        <time>2022-02-20T10:49:27Z</time>
      </trkpt>
      <trkpt lat="42.87529" lon="0.12575">
        <ele>2382</ele>
        <time>2022-02-20T10:49:29Z</time>
      </trkpt>
      <trkpt lat="42.87531" lon="0.12568">
        <ele>2377</ele>
        <time>2022-02-20T10:49:33Z</time>
      </trkpt>
      <trkpt lat="42.87531" lon="0.12568">
        <ele>2377</ele>
        <time>2022-02-20T10:49:34Z</time>
      </trkpt>
      <trkpt lat="42.87532" lon="0.12565">
        <ele>2376</ele>
        <time>2022-02-20T10:49:44Z</time>
      </trkpt>
      <trkpt lat="42.87535" lon="0.12562">
        <ele>2374</ele>
        <time>2022-02-20T10:49:47Z</time>
      </trkpt>
      <trkpt lat="42.87536" lon="0.12558">
        <ele>2373</ele>
        <time>2022-02-20T10:49:50Z</time>
      </trkpt>
      <trkpt lat="42.87539" lon="0.12552">
        <ele>2368</ele>
        <time>2022-02-20T10:49:54Z</time>
      </trkpt>
      <trkpt lat="42.87545" lon="0.12547">
        <ele>2365</ele>
        <time>2022-02-20T10:49:57Z</time>
      </trkpt>
      <trkpt lat="42.87557" lon="0.12539">
        <ele>2362</ele>
        <time>2022-02-20T10:50:03Z</time>
      </trkpt>
      <trkpt lat="42.87561" lon="0.12536">
        <ele>2361</ele>
        <time>2022-02-20T10:50:05Z</time>
      </trkpt>
      <trkpt lat="42.87571" lon="0.12532">
        <ele>2358</ele>
        <time>2022-02-20T10:50:11Z</time>
      </trkpt>
      <trkpt lat="42.87576" lon="0.12531">
        <ele>2356</ele>
        <time>2022-02-20T10:50:13Z</time>
      </trkpt>
      <trkpt lat="42.87581" lon="0.12529">
        <ele>2354</ele>
        <time>2022-02-20T10:50:17Z</time>
      </trkpt>
      <trkpt lat="42.87584" lon="0.12527">
        <ele>2353</ele>
        <time>2022-02-20T10:50:27Z</time>
      </trkpt>
      <trkpt lat="42.87584" lon="0.12527">
        <ele>2353</ele>
        <time>2022-02-20T10:50:28Z</time>
      </trkpt>
      <trkpt lat="42.87592" lon="0.12521">
        <ele>2350</ele>
        <time>2022-02-20T10:50:33Z</time>
      </trkpt>
      <trkpt lat="42.87594" lon="0.1252">
        <ele>2349</ele>
        <time>2022-02-20T10:50:34Z</time>
      </trkpt>
      <trkpt lat="42.87598" lon="0.12513">
        <ele>2345</ele>
        <time>2022-02-20T10:50:39Z</time>
      </trkpt>
      <trkpt lat="42.87598" lon="0.12513">
        <ele>2345</ele>
        <time>2022-02-20T10:50:40Z</time>
      </trkpt>
      <trkpt lat="42.87598" lon="0.12511">
        <ele>2345</ele>
        <time>2022-02-20T10:51:04Z</time>
      </trkpt>
      <trkpt lat="42.87596" lon="0.12512">
        <ele>2345</ele>
        <time>2022-02-20T10:51:36Z</time>
      </trkpt>
      <trkpt lat="42.87594" lon="0.1251">
        <ele>2345</ele>
        <time>2022-02-20T10:52:02Z</time>
      </trkpt>
      <trkpt lat="42.87596" lon="0.125">
        <ele>2341</ele>
        <time>2022-02-20T10:52:07Z</time>
      </trkpt>
      <trkpt lat="42.87598" lon="0.12498">
        <ele>2340</ele>
        <time>2022-02-20T10:52:08Z</time>
      </trkpt>
      <trkpt lat="42.87602" lon="0.12498">
        <ele>2339</ele>
        <time>2022-02-20T10:52:22Z</time>
      </trkpt>
      <trkpt lat="42.87602" lon="0.12496">
        <ele>2339</ele>
        <time>2022-02-20T10:52:30Z</time>
      </trkpt>
      <trkpt lat="42.87605" lon="0.12492">
        <ele>2339</ele>
        <time>2022-02-20T10:52:41Z</time>
      </trkpt>
      <trkpt lat="42.87605" lon="0.12492">
        <ele>2339</ele>
        <time>2022-02-20T10:52:44Z</time>
      </trkpt>
      <trkpt lat="42.87595" lon="0.12483">
        <ele>2335</ele>
        <time>2022-02-20T10:52:50Z</time>
      </trkpt>
      <trkpt lat="42.87581" lon="0.12483">
        <ele>2331</ele>
        <time>2022-02-20T10:52:55Z</time>
      </trkpt>
      <trkpt lat="42.87581" lon="0.12474">
        <ele>2328</ele>
        <time>2022-02-20T10:52:57Z</time>
      </trkpt>
      <trkpt lat="42.87585" lon="0.12467">
        <ele>2324</ele>
        <time>2022-02-20T10:52:59Z</time>
      </trkpt>
      <trkpt lat="42.87585" lon="0.12458">
        <ele>2321</ele>
        <time>2022-02-20T10:53:02Z</time>
      </trkpt>
      <trkpt lat="42.8758" lon="0.12457">
        <ele>2317</ele>
        <time>2022-02-20T10:53:04Z</time>
      </trkpt>
      <trkpt lat="42.87574" lon="0.12455">
        <ele>2314</ele>
        <time>2022-02-20T10:53:06Z</time>
      </trkpt>
      <trkpt lat="42.87574" lon="0.12449">
        <ele>2311</ele>
        <time>2022-02-20T10:53:08Z</time>
      </trkpt>
      <trkpt lat="42.8758" lon="0.12441">
        <ele>2307</ele>
        <time>2022-02-20T10:53:11Z</time>
      </trkpt>
      <trkpt lat="42.87582" lon="0.12439">
        <ele>2306</ele>
        <time>2022-02-20T10:53:12Z</time>
      </trkpt>
      <trkpt lat="42.8758" lon="0.12432">
        <ele>2301</ele>
        <time>2022-02-20T10:53:16Z</time>
      </trkpt>
      <trkpt lat="42.87577" lon="0.12426">
        <ele>2297</ele>
        <time>2022-02-20T10:53:18Z</time>
      </trkpt>
      <trkpt lat="42.8758" lon="0.12418">
        <ele>2293</ele>
        <time>2022-02-20T10:53:20Z</time>
      </trkpt>
      <trkpt lat="42.87582" lon="0.12415">
        <ele>2291</ele>
        <time>2022-02-20T10:53:21Z</time>
      </trkpt>
      <trkpt lat="42.87584" lon="0.12412">
        <ele>2287</ele>
        <time>2022-02-20T10:53:25Z</time>
      </trkpt>
      <trkpt lat="42.87583" lon="0.12414">
        <ele>2287</ele>
        <time>2022-02-20T10:53:26Z</time>
      </trkpt>
      <trkpt lat="42.87582" lon="0.12417">
        <ele>2289</ele>
        <time>2022-02-20T10:53:30Z</time>
      </trkpt>
      <trkpt lat="42.87582" lon="0.12418">
        <ele>2288</ele>
        <time>2022-02-20T10:53:53Z</time>
      </trkpt>
      <trkpt lat="42.87579" lon="0.12416">
        <ele>2288</ele>
        <time>2022-02-20T10:54:04Z</time>
      </trkpt>
      <trkpt lat="42.87552" lon="0.12419">
        <ele>2284</ele>
        <time>2022-02-20T10:54:17Z</time>
      </trkpt>
      <trkpt lat="42.87537" lon="0.12416">
        <ele>2282</ele>
        <time>2022-02-20T10:54:26Z</time>
      </trkpt>
      <trkpt lat="42.87525" lon="0.12413">
        <ele>2281</ele>
        <time>2022-02-20T10:54:31Z</time>
      </trkpt>
      <trkpt lat="42.8752" lon="0.12411">
        <ele>2280</ele>
        <time>2022-02-20T10:54:33Z</time>
      </trkpt>
      <trkpt lat="42.87503" lon="0.12403">
        <ele>2279</ele>
        <time>2022-02-20T10:54:39Z</time>
      </trkpt>
      <trkpt lat="42.87506" lon="0.12394">
        <ele>2276</ele>
        <time>2022-02-20T10:54:42Z</time>
      </trkpt>
      <trkpt lat="42.87507" lon="0.12387">
        <ele>2274</ele>
        <time>2022-02-20T10:54:44Z</time>
      </trkpt>
      <trkpt lat="42.87506" lon="0.1238">
        <ele>2270</ele>
        <time>2022-02-20T10:54:46Z</time>
      </trkpt>
      <trkpt lat="42.87506" lon="0.1237">
        <ele>2266</ele>
        <time>2022-02-20T10:54:49Z</time>
      </trkpt>
      <trkpt lat="42.87506" lon="0.12361">
        <ele>2263</ele>
        <time>2022-02-20T10:54:51Z</time>
      </trkpt>
      <trkpt lat="42.87505" lon="0.12359">
        <ele>2261</ele>
        <time>2022-02-20T10:54:52Z</time>
      </trkpt>
      <trkpt lat="42.87503" lon="0.12353">
        <ele>2256</ele>
        <time>2022-02-20T10:54:55Z</time>
      </trkpt>
      <trkpt lat="42.87507" lon="0.12348">
        <ele>2253</ele>
        <time>2022-02-20T10:54:57Z</time>
      </trkpt>
      <trkpt lat="42.8751" lon="0.12346">
        <ele>2252</ele>
        <time>2022-02-20T10:54:58Z</time>
      </trkpt>
      <trkpt lat="42.87514" lon="0.12331">
        <ele>2243</ele>
        <time>2022-02-20T10:55:02Z</time>
      </trkpt>
      <trkpt lat="42.87515" lon="0.12329">
        <ele>2242</ele>
        <time>2022-02-20T10:55:03Z</time>
      </trkpt>
      <trkpt lat="42.8752" lon="0.12326">
        <ele>2240</ele>
        <time>2022-02-20T10:55:05Z</time>
      </trkpt>
      <trkpt lat="42.87529" lon="0.12321">
        <ele>2237</ele>
        <time>2022-02-20T10:55:09Z</time>
      </trkpt>
      <trkpt lat="42.87542" lon="0.1232">
        <ele>2237</ele>
        <time>2022-02-20T10:55:20Z</time>
      </trkpt>
      <trkpt lat="42.87542" lon="0.12322">
        <ele>2237</ele>
        <time>2022-02-20T10:55:41Z</time>
      </trkpt>
      <trkpt lat="42.87539" lon="0.12321">
        <ele>2236</ele>
        <time>2022-02-20T10:56:15Z</time>
      </trkpt>
      <trkpt lat="42.87541" lon="0.12318">
        <ele>2237</ele>
        <time>2022-02-20T10:56:30Z</time>
      </trkpt>
      <trkpt lat="42.87558" lon="0.12311">
        <ele>2232</ele>
        <time>2022-02-20T10:56:36Z</time>
      </trkpt>
      <trkpt lat="42.87568" lon="0.12308">
        <ele>2228</ele>
        <time>2022-02-20T10:56:39Z</time>
      </trkpt>
      <trkpt lat="42.87569" lon="0.12298">
        <ele>2227</ele>
        <time>2022-02-20T10:56:42Z</time>
      </trkpt>
      <trkpt lat="42.87565" lon="0.12284">
        <ele>2220</ele>
        <time>2022-02-20T10:56:45Z</time>
      </trkpt>
      <trkpt lat="42.87573" lon="0.12274">
        <ele>2216</ele>
        <time>2022-02-20T10:56:47Z</time>
      </trkpt>
      <trkpt lat="42.87581" lon="0.12266">
        <ele>2213</ele>
        <time>2022-02-20T10:56:49Z</time>
      </trkpt>
      <trkpt lat="42.8759" lon="0.12257">
        <ele>2212</ele>
        <time>2022-02-20T10:56:52Z</time>
      </trkpt>
      <trkpt lat="42.87589" lon="0.12252">
        <ele>2209</ele>
        <time>2022-02-20T10:56:54Z</time>
      </trkpt>
      <trkpt lat="42.87588" lon="0.12252">
        <ele>2206</ele>
        <time>2022-02-20T10:56:57Z</time>
      </trkpt>
      <trkpt lat="42.8759" lon="0.12254">
        <ele>2207</ele>
        <time>2022-02-20T10:57:02Z</time>
      </trkpt>
      <trkpt lat="42.87587" lon="0.12253">
        <ele>2206</ele>
        <time>2022-02-20T10:57:26Z</time>
      </trkpt>
      <trkpt lat="42.87581" lon="0.1225">
        <ele>2203</ele>
        <time>2022-02-20T10:57:29Z</time>
      </trkpt>
      <trkpt lat="42.87578" lon="0.1224">
        <ele>2198</ele>
        <time>2022-02-20T10:57:32Z</time>
      </trkpt>
      <trkpt lat="42.87579" lon="0.12237">
        <ele>2196</ele>
        <time>2022-02-20T10:57:33Z</time>
      </trkpt>
      <trkpt lat="42.87581" lon="0.1223">
        <ele>2195</ele>
        <time>2022-02-20T10:57:35Z</time>
      </trkpt>
      <trkpt lat="42.8758" lon="0.12222">
        <ele>2189</ele>
        <time>2022-02-20T10:57:37Z</time>
      </trkpt>
      <trkpt lat="42.87579" lon="0.12217">
        <ele>2186</ele>
        <time>2022-02-20T10:57:38Z</time>
      </trkpt>
      <trkpt lat="42.87581" lon="0.1221">
        <ele>2184</ele>
        <time>2022-02-20T10:57:40Z</time>
      </trkpt>
      <trkpt lat="42.87578" lon="0.12205">
        <ele>2180</ele>
        <time>2022-02-20T10:57:42Z</time>
      </trkpt>
      <trkpt lat="42.87579" lon="0.122">
        <ele>2177</ele>
        <time>2022-02-20T10:57:43Z</time>
      </trkpt>
      <trkpt lat="42.8758" lon="0.12196">
        <ele>2173</ele>
        <time>2022-02-20T10:57:44Z</time>
      </trkpt>
      <trkpt lat="42.87586" lon="0.12187">
        <ele>2170</ele>
        <time>2022-02-20T10:57:47Z</time>
      </trkpt>
      <trkpt lat="42.87583" lon="0.1218">
        <ele>2166</ele>
        <time>2022-02-20T10:57:50Z</time>
      </trkpt>
      <trkpt lat="42.87583" lon="0.12175">
        <ele>2162</ele>
        <time>2022-02-20T10:57:51Z</time>
      </trkpt>
      <trkpt lat="42.87585" lon="0.12171">
        <ele>2159</ele>
        <time>2022-02-20T10:57:52Z</time>
      </trkpt>
      <trkpt lat="42.87588" lon="0.12167">
        <ele>2157</ele>
        <time>2022-02-20T10:57:53Z</time>
      </trkpt>
      <trkpt lat="42.87598" lon="0.12157">
        <ele>2155</ele>
        <time>2022-02-20T10:57:56Z</time>
      </trkpt>
      <trkpt lat="42.87595" lon="0.1215">
        <ele>2150</ele>
        <time>2022-02-20T10:57:58Z</time>
      </trkpt>
      <trkpt lat="42.87587" lon="0.12148">
        <ele>2146</ele>
        <time>2022-02-20T10:58:00Z</time>
      </trkpt>
      <trkpt lat="42.87578" lon="0.12141">
        <ele>2141</ele>
        <time>2022-02-20T10:58:02Z</time>
      </trkpt>
      <trkpt lat="42.87576" lon="0.1213">
        <ele>2137</ele>
        <time>2022-02-20T10:58:04Z</time>
      </trkpt>
      <trkpt lat="42.87587" lon="0.1212">
        <ele>2133</ele>
        <time>2022-02-20T10:58:07Z</time>
      </trkpt>
      <trkpt lat="42.87593" lon="0.12109">
        <ele>2131</ele>
        <time>2022-02-20T10:58:09Z</time>
      </trkpt>
      <trkpt lat="42.87595" lon="0.12097">
        <ele>2126</ele>
        <time>2022-02-20T10:58:14Z</time>
      </trkpt>
      <trkpt lat="42.87581" lon="0.12097">
        <ele>2125</ele>
        <time>2022-02-20T10:58:18Z</time>
      </trkpt>
      <trkpt lat="42.87579" lon="0.12104">
        <ele>2126</ele>
        <time>2022-02-20T10:58:30Z</time>
      </trkpt>
      <trkpt lat="42.87583" lon="0.12104">
        <ele>2126</ele>
        <time>2022-02-20T10:58:54Z</time>
      </trkpt>
      <trkpt lat="42.87582" lon="0.12109">
        <ele>2126</ele>
        <time>2022-02-20T10:59:19Z</time>
      </trkpt>
      <trkpt lat="42.87579" lon="0.12105">
        <ele>2125</ele>
        <time>2022-02-20T10:59:39Z</time>
      </trkpt>
      <trkpt lat="42.87574" lon="0.12101">
        <ele>2124</ele>
        <time>2022-02-20T10:59:44Z</time>
      </trkpt>
      <trkpt lat="42.87564" lon="0.12087">
        <ele>2119</ele>
        <time>2022-02-20T10:59:48Z</time>
      </trkpt>
      <trkpt lat="42.87565" lon="0.12084">
        <ele>2118</ele>
        <time>2022-02-20T10:59:50Z</time>
      </trkpt>
      <trkpt lat="42.87564" lon="0.12081">
        <ele>2117</ele>
        <time>2022-02-20T10:59:53Z</time>
      </trkpt>
      <trkpt lat="42.87581" lon="0.12062">
        <ele>2114</ele>
        <time>2022-02-20T11:00:00Z</time>
      </trkpt>
      <trkpt lat="42.87584" lon="0.12056">
        <ele>2112</ele>
        <time>2022-02-20T11:00:02Z</time>
      </trkpt>
      <trkpt lat="42.87586" lon="0.12052">
        <ele>2111</ele>
        <time>2022-02-20T11:00:03Z</time>
      </trkpt>
      <trkpt lat="42.87585" lon="0.12046">
        <ele>2105</ele>
        <time>2022-02-20T11:00:05Z</time>
      </trkpt>
      <trkpt lat="42.8759" lon="0.12039">
        <ele>2102</ele>
        <time>2022-02-20T11:00:07Z</time>
      </trkpt>
      <trkpt lat="42.87596" lon="0.12032">
        <ele>2100</ele>
        <time>2022-02-20T11:00:09Z</time>
      </trkpt>
      <trkpt lat="42.87597" lon="0.12022">
        <ele>2095</ele>
        <time>2022-02-20T11:00:12Z</time>
      </trkpt>
      <trkpt lat="42.87597" lon="0.12017">
        <ele>2090</ele>
        <time>2022-02-20T11:00:13Z</time>
      </trkpt>
      <trkpt lat="42.876" lon="0.12005">
        <ele>2090</ele>
        <time>2022-02-20T11:00:15Z</time>
      </trkpt>
      <trkpt lat="42.87603" lon="0.11995">
        <ele>2083</ele>
        <time>2022-02-20T11:00:17Z</time>
      </trkpt>
      <trkpt lat="42.87603" lon="0.11989">
        <ele>2079</ele>
        <time>2022-02-20T11:00:18Z</time>
      </trkpt>
      <trkpt lat="42.87604" lon="0.11982">
        <ele>2078</ele>
        <time>2022-02-20T11:00:19Z</time>
      </trkpt>
      <trkpt lat="42.87602" lon="0.11966">
        <ele>2074</ele>
        <time>2022-02-20T11:00:22Z</time>
      </trkpt>
      <trkpt lat="42.876" lon="0.11955">
        <ele>2068</ele>
        <time>2022-02-20T11:00:25Z</time>
      </trkpt>
      <trkpt lat="42.87602" lon="0.11932">
        <ele>2060</ele>
        <time>2022-02-20T11:00:30Z</time>
      </trkpt>
      <trkpt lat="42.87593" lon="0.11925">
        <ele>2056</ele>
        <time>2022-02-20T11:00:32Z</time>
      </trkpt>
      <trkpt lat="42.87589" lon="0.11921">
        <ele>2056</ele>
        <time>2022-02-20T11:00:41Z</time>
      </trkpt>
      <trkpt lat="42.87587" lon="0.11914">
        <ele>2056</ele>
        <time>2022-02-20T11:01:01Z</time>
      </trkpt>
      <trkpt lat="42.87586" lon="0.1191">
        <ele>2056</ele>
        <time>2022-02-20T11:01:12Z</time>
      </trkpt>
      <trkpt lat="42.87604" lon="0.11886">
        <ele>2052</ele>
        <time>2022-02-20T11:01:21Z</time>
      </trkpt>
      <trkpt lat="42.87612" lon="0.11874">
        <ele>2050</ele>
        <time>2022-02-20T11:01:28Z</time>
      </trkpt>
      <trkpt lat="42.87614" lon="0.11858">
        <ele>2049</ele>
        <time>2022-02-20T11:01:31Z</time>
      </trkpt>
      <trkpt lat="42.8762" lon="0.11827">
        <ele>2047</ele>
        <time>2022-02-20T11:01:36Z</time>
      </trkpt>
      <trkpt lat="42.87622" lon="0.11821">
        <ele>2045</ele>
        <time>2022-02-20T11:01:37Z</time>
      </trkpt>
      <trkpt lat="42.87628" lon="0.11808">
        <ele>2044</ele>
        <time>2022-02-20T11:01:39Z</time>
      </trkpt>
      <trkpt lat="42.87636" lon="0.11795">
        <ele>2041</ele>
        <time>2022-02-20T11:01:41Z</time>
      </trkpt>
      <trkpt lat="42.87643" lon="0.11781">
        <ele>2040</ele>
        <time>2022-02-20T11:01:43Z</time>
      </trkpt>
      <trkpt lat="42.87647" lon="0.11766">
        <ele>2041</ele>
        <time>2022-02-20T11:01:45Z</time>
      </trkpt>
      <trkpt lat="42.87651" lon="0.11754">
        <ele>2040</ele>
        <time>2022-02-20T11:01:47Z</time>
      </trkpt>
      <trkpt lat="42.87662" lon="0.11725">
        <ele>2037</ele>
        <time>2022-02-20T11:01:52Z</time>
      </trkpt>
      <trkpt lat="42.87668" lon="0.11712">
        <ele>2037</ele>
        <time>2022-02-20T11:01:56Z</time>
      </trkpt>
      <trkpt lat="42.87669" lon="0.11691">
        <ele>2033</ele>
        <time>2022-02-20T11:02:01Z</time>
      </trkpt>
      <trkpt lat="42.87676" lon="0.11668">
        <ele>2030</ele>
        <time>2022-02-20T11:02:06Z</time>
      </trkpt>
      <trkpt lat="42.87678" lon="0.11666">
        <ele>2030</ele>
        <time>2022-02-20T11:02:07Z</time>
      </trkpt>
      <trkpt lat="42.87686" lon="0.11667">
        <ele>2033</ele>
        <time>2022-02-20T11:02:17Z</time>
      </trkpt>
      <trkpt lat="42.87694" lon="0.11668">
        <ele>2034</ele>
        <time>2022-02-20T11:02:25Z</time>
      </trkpt>
      <trkpt lat="42.87699" lon="0.11661">
        <ele>2034</ele>
        <time>2022-02-20T11:02:31Z</time>
      </trkpt>
      <trkpt lat="42.87702" lon="0.11654">
        <ele>2033</ele>
        <time>2022-02-20T11:02:35Z</time>
      </trkpt>
      <trkpt lat="42.87706" lon="0.11652">
        <ele>2034</ele>
        <time>2022-02-20T11:02:40Z</time>
      </trkpt>
      <trkpt lat="42.87713" lon="0.11648">
        <ele>2035</ele>
        <time>2022-02-20T11:02:49Z</time>
      </trkpt>
      <trkpt lat="42.87722" lon="0.11631">
        <ele>2033</ele>
        <time>2022-02-20T11:03:01Z</time>
      </trkpt>
      <trkpt lat="42.8773" lon="0.11623">
        <ele>2036</ele>
        <time>2022-02-20T11:03:16Z</time>
      </trkpt>
      <trkpt lat="42.87738" lon="0.11616">
        <ele>2037</ele>
        <time>2022-02-20T11:03:31Z</time>
      </trkpt>
      <trkpt lat="42.87747" lon="0.11612">
        <ele>2038</ele>
        <time>2022-02-20T11:03:43Z</time>
      </trkpt>
      <trkpt lat="42.87756" lon="0.11615">
        <ele>2036</ele>
        <time>2022-02-20T11:03:52Z</time>
      </trkpt>
      <trkpt lat="42.87757" lon="0.11614">
        <ele>2037</ele>
        <time>2022-02-20T11:04:07Z</time>
      </trkpt>
      <trkpt lat="42.87756" lon="0.11614">
        <ele>2037</ele>
        <time>2022-02-20T11:04:19Z</time>
      </trkpt>
      <trkpt lat="42.87755" lon="0.11611">
        <ele>2038</ele>
        <time>2022-02-20T11:04:35Z</time>
      </trkpt>
      <trkpt lat="42.87755" lon="0.11615">
        <ele>2037</ele>
        <time>2022-02-20T11:04:50Z</time>
      </trkpt>
      <trkpt lat="42.87754" lon="0.1162">
        <ele>2037</ele>
        <time>2022-02-20T11:05:06Z</time>
      </trkpt>
      <trkpt lat="42.87759" lon="0.11619">
        <ele>2038</ele>
        <time>2022-02-20T11:05:26Z</time>
      </trkpt>
      <trkpt lat="42.87759" lon="0.11618">
        <ele>2038</ele>
        <time>2022-02-20T11:05:42Z</time>
      </trkpt>
      <trkpt lat="42.8776" lon="0.11618">
        <ele>2039</ele>
        <time>2022-02-20T11:05:59Z</time>
      </trkpt>
      <trkpt lat="42.87755" lon="0.11617">
        <ele>2039</ele>
        <time>2022-02-20T11:06:14Z</time>
      </trkpt>
      <trkpt lat="42.87757" lon="0.1162">
        <ele>2039</ele>
        <time>2022-02-20T11:06:31Z</time>
      </trkpt>
      <trkpt lat="42.87756" lon="0.11619">
        <ele>2040</ele>
        <time>2022-02-20T11:06:46Z</time>
      </trkpt>
      <trkpt lat="42.87758" lon="0.11621">
        <ele>2039</ele>
        <time>2022-02-20T11:07:03Z</time>
      </trkpt>
      <trkpt lat="42.87755" lon="0.11618">
        <ele>2039</ele>
        <time>2022-02-20T11:07:16Z</time>
      </trkpt>
      <trkpt lat="42.87756" lon="0.11619">
        <ele>2039</ele>
        <time>2022-02-20T11:07:31Z</time>
      </trkpt>
      <trkpt lat="42.87757" lon="0.11617">
        <ele>2039</ele>
        <time>2022-02-20T11:07:44Z</time>
      </trkpt>
      <trkpt lat="42.87764" lon="0.11608">
        <ele>2039</ele>
        <time>2022-02-20T11:07:56Z</time>
      </trkpt>
      <trkpt lat="42.87766" lon="0.11605">
        <ele>2039</ele>
        <time>2022-02-20T11:08:09Z</time>
      </trkpt>
      <trkpt lat="42.87767" lon="0.11606">
        <ele>2039</ele>
        <time>2022-02-20T11:08:34Z</time>
      </trkpt>
      <trkpt lat="42.87765" lon="0.11607">
        <ele>2039</ele>
        <time>2022-02-20T11:08:56Z</time>
      </trkpt>
      <trkpt lat="42.87764" lon="0.11605">
        <ele>2039</ele>
        <time>2022-02-20T11:09:14Z</time>
      </trkpt>
      <trkpt lat="42.87763" lon="0.116">
        <ele>2039</ele>
        <time>2022-02-20T11:09:30Z</time>
      </trkpt>
      <trkpt lat="42.87764" lon="0.11605">
        <ele>2039</ele>
        <time>2022-02-20T11:09:57Z</time>
      </trkpt>
      <trkpt lat="42.87761" lon="0.11607">
        <ele>2039</ele>
        <time>2022-02-20T11:10:15Z</time>
      </trkpt>
      <trkpt lat="42.87761" lon="0.11608">
        <ele>2040</ele>
        <time>2022-02-20T11:10:40Z</time>
      </trkpt>
      <trkpt lat="42.87758" lon="0.11598">
        <ele>2039</ele>
        <time>2022-02-20T11:10:45Z</time>
      </trkpt>
      <trkpt lat="42.87754" lon="0.11572">
        <ele>2040</ele>
        <time>2022-02-20T11:11:02Z</time>
      </trkpt>
      <trkpt lat="42.87751" lon="0.11556">
        <ele>2039</ele>
        <time>2022-02-20T11:11:15Z</time>
      </trkpt>
      <trkpt lat="42.87749" lon="0.11546">
        <ele>2039</ele>
        <time>2022-02-20T11:11:29Z</time>
      </trkpt>
      <trkpt lat="42.87746" lon="0.11532">
        <ele>2039</ele>
        <time>2022-02-20T11:11:39Z</time>
      </trkpt>
      <trkpt lat="42.87746" lon="0.11526">
        <ele>2039</ele>
        <time>2022-02-20T11:11:43Z</time>
      </trkpt>
      <trkpt lat="42.8774" lon="0.11502">
        <ele>2039</ele>
        <time>2022-02-20T11:11:59Z</time>
      </trkpt>
      <trkpt lat="42.87734" lon="0.11474">
        <ele>2040</ele>
        <time>2022-02-20T11:12:16Z</time>
      </trkpt>
      <trkpt lat="42.87734" lon="0.11467">
        <ele>2039</ele>
        <time>2022-02-20T11:12:22Z</time>
      </trkpt>
      <trkpt lat="42.87739" lon="0.11462">
        <ele>2039</ele>
        <time>2022-02-20T11:12:27Z</time>
      </trkpt>
      <trkpt lat="42.87745" lon="0.11457">
        <ele>2039</ele>
        <time>2022-02-20T11:12:34Z</time>
      </trkpt>
      <trkpt lat="42.87751" lon="0.11439">
        <ele>2039</ele>
        <time>2022-02-20T11:12:52Z</time>
      </trkpt>
      <trkpt lat="42.87757" lon="0.11424">
        <ele>2038</ele>
        <time>2022-02-20T11:13:06Z</time>
      </trkpt>
      <trkpt lat="42.87758" lon="0.11406">
        <ele>2039</ele>
        <time>2022-02-20T11:13:20Z</time>
      </trkpt>
      <trkpt lat="42.8776" lon="0.11406">
        <ele>2039</ele>
        <time>2022-02-20T11:13:23Z</time>
      </trkpt>
      <trkpt lat="42.87758" lon="0.1139">
        <ele>2039</ele>
        <time>2022-02-20T11:13:39Z</time>
      </trkpt>
      <trkpt lat="42.87758" lon="0.11379">
        <ele>2039</ele>
        <time>2022-02-20T11:13:44Z</time>
      </trkpt>
      <trkpt lat="42.8775" lon="0.11355">
        <ele>2040</ele>
        <time>2022-02-20T11:13:59Z</time>
      </trkpt>
      <trkpt lat="42.8774" lon="0.11334">
        <ele>2041</ele>
        <time>2022-02-20T11:14:17Z</time>
      </trkpt>
      <trkpt lat="42.87736" lon="0.11324">
        <ele>2042</ele>
        <time>2022-02-20T11:14:31Z</time>
      </trkpt>
      <trkpt lat="42.87738" lon="0.11319">
        <ele>2042</ele>
        <time>2022-02-20T11:14:44Z</time>
      </trkpt>
      <trkpt lat="42.8773" lon="0.11297">
        <ele>2042</ele>
        <time>2022-02-20T11:14:57Z</time>
      </trkpt>
      <trkpt lat="42.8772" lon="0.11279">
        <ele>2043</ele>
        <time>2022-02-20T11:15:16Z</time>
      </trkpt>
      <trkpt lat="42.87717" lon="0.11275">
        <ele>2044</ele>
        <time>2022-02-20T11:15:31Z</time>
      </trkpt>
      <trkpt lat="42.8772" lon="0.11279">
        <ele>2043</ele>
        <time>2022-02-20T11:15:49Z</time>
      </trkpt>
      <trkpt lat="42.87719" lon="0.11274">
        <ele>2043</ele>
        <time>2022-02-20T11:16:13Z</time>
      </trkpt>
      <trkpt lat="42.87715" lon="0.11274">
        <ele>2043</ele>
        <time>2022-02-20T11:16:32Z</time>
      </trkpt>
      <trkpt lat="42.87716" lon="0.11272">
        <ele>2043</ele>
        <time>2022-02-20T11:16:49Z</time>
      </trkpt>
      <trkpt lat="42.87716" lon="0.11271">
        <ele>2043</ele>
        <time>2022-02-20T11:17:05Z</time>
      </trkpt>
      <trkpt lat="42.87714" lon="0.1127">
        <ele>2044</ele>
        <time>2022-02-20T11:17:27Z</time>
      </trkpt>
      <trkpt lat="42.87715" lon="0.11267">
        <ele>2042</ele>
        <time>2022-02-20T11:17:47Z</time>
      </trkpt>
      <trkpt lat="42.87717" lon="0.11274">
        <ele>2043</ele>
        <time>2022-02-20T11:18:08Z</time>
      </trkpt>
      <trkpt lat="42.87718" lon="0.11275">
        <ele>2042</ele>
        <time>2022-02-20T11:18:25Z</time>
      </trkpt>
      <trkpt lat="42.87716" lon="0.11272">
        <ele>2043</ele>
        <time>2022-02-20T11:18:45Z</time>
      </trkpt>
      <trkpt lat="42.87715" lon="0.11272">
        <ele>2043</ele>
        <time>2022-02-20T11:19:07Z</time>
      </trkpt>
      <trkpt lat="42.87714" lon="0.1127">
        <ele>2042</ele>
        <time>2022-02-20T11:19:35Z</time>
      </trkpt>
      <trkpt lat="42.87715" lon="0.11272">
        <ele>2043</ele>
        <time>2022-02-20T11:19:51Z</time>
      </trkpt>
      <trkpt lat="42.87713" lon="0.11267">
        <ele>2042</ele>
        <time>2022-02-20T11:20:16Z</time>
      </trkpt>
      <trkpt lat="42.87713" lon="0.11265">
        <ele>2042</ele>
        <time>2022-02-20T11:20:17Z</time>
      </trkpt>
      <trkpt lat="42.8771" lon="0.11254">
        <ele>2040</ele>
        <time>2022-02-20T11:20:26Z</time>
      </trkpt>
      <trkpt lat="42.87713" lon="0.11242">
        <ele>2037</ele>
        <time>2022-02-20T11:20:35Z</time>
      </trkpt>
      <trkpt lat="42.87713" lon="0.11228">
        <ele>2034</ele>
        <time>2022-02-20T11:20:41Z</time>
      </trkpt>
      <trkpt lat="42.87722" lon="0.11225">
        <ele>2032</ele>
        <time>2022-02-20T11:20:44Z</time>
      </trkpt>
      <trkpt lat="42.87724" lon="0.11218">
        <ele>2030</ele>
        <time>2022-02-20T11:20:47Z</time>
      </trkpt>
      <trkpt lat="42.8773" lon="0.11212">
        <ele>2028</ele>
        <time>2022-02-20T11:20:51Z</time>
      </trkpt>
      <trkpt lat="42.87735" lon="0.11203">
        <ele>2026</ele>
        <time>2022-02-20T11:20:55Z</time>
      </trkpt>
      <trkpt lat="42.87743" lon="0.1119">
        <ele>2022</ele>
        <time>2022-02-20T11:21:03Z</time>
      </trkpt>
      <trkpt lat="42.87744" lon="0.11188">
        <ele>2022</ele>
        <time>2022-02-20T11:21:11Z</time>
      </trkpt>
      <trkpt lat="42.8775" lon="0.11178">
        <ele>2020</ele>
        <time>2022-02-20T11:21:17Z</time>
      </trkpt>
      <trkpt lat="42.87758" lon="0.11166">
        <ele>2016</ele>
        <time>2022-02-20T11:21:23Z</time>
      </trkpt>
      <trkpt lat="42.87759" lon="0.11158">
        <ele>2014</ele>
        <time>2022-02-20T11:21:26Z</time>
      </trkpt>
      <trkpt lat="42.87758" lon="0.11149">
        <ele>2013</ele>
        <time>2022-02-20T11:21:30Z</time>
      </trkpt>
      <trkpt lat="42.87771" lon="0.11119">
        <ele>2010</ele>
        <time>2022-02-20T11:21:39Z</time>
      </trkpt>
      <trkpt lat="42.87783" lon="0.11093">
        <ele>2006</ele>
        <time>2022-02-20T11:21:47Z</time>
      </trkpt>
      <trkpt lat="42.87784" lon="0.11089">
        <ele>2006</ele>
        <time>2022-02-20T11:21:48Z</time>
      </trkpt>
      <trkpt lat="42.8779" lon="0.11079">
        <ele>2006</ele>
        <time>2022-02-20T11:21:54Z</time>
      </trkpt>
      <trkpt lat="42.87807" lon="0.11049">
        <ele>2003</ele>
        <time>2022-02-20T11:22:05Z</time>
      </trkpt>
      <trkpt lat="42.87828" lon="0.11026">
        <ele>2001</ele>
        <time>2022-02-20T11:22:16Z</time>
      </trkpt>
      <trkpt lat="42.87843" lon="0.10988">
        <ele>1999</ele>
        <time>2022-02-20T11:22:27Z</time>
      </trkpt>
      <trkpt lat="42.87847" lon="0.1096">
        <ele>1996</ele>
        <time>2022-02-20T11:22:37Z</time>
      </trkpt>
      <trkpt lat="42.87847" lon="0.10956">
        <ele>1997</ele>
        <time>2022-02-20T11:22:46Z</time>
      </trkpt>
      <trkpt lat="42.87849" lon="0.10947">
        <ele>1996</ele>
        <time>2022-02-20T11:22:50Z</time>
      </trkpt>
      <trkpt lat="42.87859" lon="0.1092">
        <ele>1994</ele>
        <time>2022-02-20T11:23:03Z</time>
      </trkpt>
      <trkpt lat="42.87859" lon="0.10918">
        <ele>1993</ele>
        <time>2022-02-20T11:23:17Z</time>
      </trkpt>
      <trkpt lat="42.87858" lon="0.10919">
        <ele>1994</ele>
        <time>2022-02-20T11:23:19Z</time>
      </trkpt>
      <trkpt lat="42.87869" lon="0.10916">
        <ele>1993</ele>
        <time>2022-02-20T11:23:23Z</time>
      </trkpt>
      <trkpt lat="42.87882" lon="0.1091">
        <ele>1990</ele>
        <time>2022-02-20T11:23:27Z</time>
      </trkpt>
      <trkpt lat="42.87896" lon="0.10898">
        <ele>1986</ele>
        <time>2022-02-20T11:23:32Z</time>
      </trkpt>
      <trkpt lat="42.87901" lon="0.10897">
        <ele>1985</ele>
        <time>2022-02-20T11:23:38Z</time>
      </trkpt>
      <trkpt lat="42.87899" lon="0.1091">
        <ele>1981</ele>
        <time>2022-02-20T11:23:41Z</time>
      </trkpt>
      <trkpt lat="42.87903" lon="0.10924">
        <ele>1976</ele>
        <time>2022-02-20T11:23:44Z</time>
      </trkpt>
      <trkpt lat="42.87902" lon="0.10935">
        <ele>1972</ele>
        <time>2022-02-20T11:23:46Z</time>
      </trkpt>
      <trkpt lat="42.87907" lon="0.1094">
        <ele>1968</ele>
        <time>2022-02-20T11:23:48Z</time>
      </trkpt>
      <trkpt lat="42.87912" lon="0.10951">
        <ele>1962</ele>
        <time>2022-02-20T11:23:50Z</time>
      </trkpt>
      <trkpt lat="42.87918" lon="0.10957">
        <ele>1958</ele>
        <time>2022-02-20T11:23:52Z</time>
      </trkpt>
      <trkpt lat="42.8793" lon="0.10956">
        <ele>1955</ele>
        <time>2022-02-20T11:23:55Z</time>
      </trkpt>
      <trkpt lat="42.87937" lon="0.10963">
        <ele>1951</ele>
        <time>2022-02-20T11:23:57Z</time>
      </trkpt>
      <trkpt lat="42.87939" lon="0.10969">
        <ele>1949</ele>
        <time>2022-02-20T11:23:58Z</time>
      </trkpt>
      <trkpt lat="42.87957" lon="0.10976">
        <ele>1941</ele>
        <time>2022-02-20T11:24:03Z</time>
      </trkpt>
      <trkpt lat="42.87958" lon="0.10985">
        <ele>1937</ele>
        <time>2022-02-20T11:24:05Z</time>
      </trkpt>
      <trkpt lat="42.87958" lon="0.10996">
        <ele>1934</ele>
        <time>2022-02-20T11:24:07Z</time>
      </trkpt>
      <trkpt lat="42.87965" lon="0.10997">
        <ele>1929</ele>
        <time>2022-02-20T11:24:09Z</time>
      </trkpt>
      <trkpt lat="42.87977" lon="0.11004">
        <ele>1924</ele>
        <time>2022-02-20T11:24:11Z</time>
      </trkpt>
      <trkpt lat="42.87984" lon="0.11016">
        <ele>1920</ele>
        <time>2022-02-20T11:24:13Z</time>
      </trkpt>
      <trkpt lat="42.87989" lon="0.11018">
        <ele>1917</ele>
        <time>2022-02-20T11:24:15Z</time>
      </trkpt>
      <trkpt lat="42.87997" lon="0.11018">
        <ele>1914</ele>
        <time>2022-02-20T11:24:17Z</time>
      </trkpt>
      <trkpt lat="42.88003" lon="0.11026">
        <ele>1908</ele>
        <time>2022-02-20T11:24:19Z</time>
      </trkpt>
      <trkpt lat="42.88007" lon="0.11031">
        <ele>1906</ele>
        <time>2022-02-20T11:24:20Z</time>
      </trkpt>
      <trkpt lat="42.8801" lon="0.11036">
        <ele>1906</ele>
        <time>2022-02-20T11:24:21Z</time>
      </trkpt>
      <trkpt lat="42.87995" lon="0.11036">
        <ele>1906</ele>
        <time>2022-02-20T11:24:30Z</time>
      </trkpt>
      <trkpt lat="42.87994" lon="0.11035">
        <ele>1906</ele>
        <time>2022-02-20T11:24:36Z</time>
      </trkpt>
      <trkpt lat="42.88002" lon="0.11026">
        <ele>1903</ele>
        <time>2022-02-20T11:24:45Z</time>
      </trkpt>
      <trkpt lat="42.88005" lon="0.11023">
        <ele>1902</ele>
        <time>2022-02-20T11:24:49Z</time>
      </trkpt>
      <trkpt lat="42.88028" lon="0.11012">
        <ele>1898</ele>
        <time>2022-02-20T11:24:54Z</time>
      </trkpt>
      <trkpt lat="42.88033" lon="0.11011">
        <ele>1896</ele>
        <time>2022-02-20T11:24:55Z</time>
      </trkpt>
      <trkpt lat="42.8805" lon="0.11007">
        <ele>1892</ele>
        <time>2022-02-20T11:25:00Z</time>
      </trkpt>
      <trkpt lat="42.88053" lon="0.11006">
        <ele>1892</ele>
        <time>2022-02-20T11:25:02Z</time>
      </trkpt>
      <trkpt lat="42.88056" lon="0.11015">
        <ele>1887</ele>
        <time>2022-02-20T11:25:05Z</time>
      </trkpt>
      <trkpt lat="42.88059" lon="0.11025">
        <ele>1884</ele>
        <time>2022-02-20T11:25:08Z</time>
      </trkpt>
      <trkpt lat="42.88059" lon="0.11036">
        <ele>1881</ele>
        <time>2022-02-20T11:25:10Z</time>
      </trkpt>
      <trkpt lat="42.88061" lon="0.11039">
        <ele>1880</ele>
        <time>2022-02-20T11:25:11Z</time>
      </trkpt>
      <trkpt lat="42.8807" lon="0.11042">
        <ele>1874</ele>
        <time>2022-02-20T11:25:13Z</time>
      </trkpt>
      <trkpt lat="42.88074" lon="0.11053">
        <ele>1872</ele>
        <time>2022-02-20T11:25:15Z</time>
      </trkpt>
      <trkpt lat="42.88084" lon="0.11054">
        <ele>1868</ele>
        <time>2022-02-20T11:25:18Z</time>
      </trkpt>
      <trkpt lat="42.88092" lon="0.11056">
        <ele>1864</ele>
        <time>2022-02-20T11:25:20Z</time>
      </trkpt>
      <trkpt lat="42.88098" lon="0.11063">
        <ele>1861</ele>
        <time>2022-02-20T11:25:22Z</time>
      </trkpt>
      <trkpt lat="42.88108" lon="0.11059">
        <ele>1858</ele>
        <time>2022-02-20T11:25:25Z</time>
      </trkpt>
      <trkpt lat="42.88107" lon="0.11052">
        <ele>1858</ele>
        <time>2022-02-20T11:25:30Z</time>
      </trkpt>
      <trkpt lat="42.88121" lon="0.11044">
        <ele>1853</ele>
        <time>2022-02-20T11:25:35Z</time>
      </trkpt>
      <trkpt lat="42.88129" lon="0.11037">
        <ele>1850</ele>
        <time>2022-02-20T11:25:39Z</time>
      </trkpt>
      <trkpt lat="42.88128" lon="0.11036">
        <ele>1850</ele>
        <time>2022-02-20T11:25:44Z</time>
      </trkpt>
      <trkpt lat="42.88138" lon="0.11027">
        <ele>1849</ele>
        <time>2022-02-20T11:25:49Z</time>
      </trkpt>
      <trkpt lat="42.88155" lon="0.11011">
        <ele>1845</ele>
        <time>2022-02-20T11:25:54Z</time>
      </trkpt>
      <trkpt lat="42.88157" lon="0.11009">
        <ele>1845</ele>
        <time>2022-02-20T11:25:55Z</time>
      </trkpt>
      <trkpt lat="42.88161" lon="0.11001">
        <ele>1844</ele>
        <time>2022-02-20T11:26:05Z</time>
      </trkpt>
      <trkpt lat="42.88167" lon="0.10999">
        <ele>1843</ele>
        <time>2022-02-20T11:26:07Z</time>
      </trkpt>
      <trkpt lat="42.88175" lon="0.11008">
        <ele>1839</ele>
        <time>2022-02-20T11:26:10Z</time>
      </trkpt>
      <trkpt lat="42.88184" lon="0.11012">
        <ele>1835</ele>
        <time>2022-02-20T11:26:13Z</time>
      </trkpt>
      <trkpt lat="42.88188" lon="0.11016">
        <ele>1831</ele>
        <time>2022-02-20T11:26:15Z</time>
      </trkpt>
      <trkpt lat="42.88192" lon="0.11024">
        <ele>1827</ele>
        <time>2022-02-20T11:26:17Z</time>
      </trkpt>
      <trkpt lat="42.88203" lon="0.11019">
        <ele>1822</ele>
        <time>2022-02-20T11:26:20Z</time>
      </trkpt>
      <trkpt lat="42.88211" lon="0.11012">
        <ele>1821</ele>
        <time>2022-02-20T11:26:28Z</time>
      </trkpt>
      <trkpt lat="42.88214" lon="0.11008">
        <ele>1820</ele>
        <time>2022-02-20T11:26:33Z</time>
      </trkpt>
      <trkpt lat="42.88217" lon="0.11018">
        <ele>1817</ele>
        <time>2022-02-20T11:26:36Z</time>
      </trkpt>
      <trkpt lat="42.88215" lon="0.11033">
        <ele>1815</ele>
        <time>2022-02-20T11:26:38Z</time>
      </trkpt>
      <trkpt lat="42.88214" lon="0.11053">
        <ele>1811</ele>
        <time>2022-02-20T11:26:42Z</time>
      </trkpt>
      <trkpt lat="42.88213" lon="0.11065">
        <ele>1808</ele>
        <time>2022-02-20T11:26:46Z</time>
      </trkpt>
      <trkpt lat="42.8822" lon="0.11059">
        <ele>1805</ele>
        <time>2022-02-20T11:26:49Z</time>
      </trkpt>
      <trkpt lat="42.88231" lon="0.11058">
        <ele>1802</ele>
        <time>2022-02-20T11:26:52Z</time>
      </trkpt>
      <trkpt lat="42.88236" lon="0.11065">
        <ele>1799</ele>
        <time>2022-02-20T11:26:54Z</time>
      </trkpt>
      <trkpt lat="42.88237" lon="0.11067">
        <ele>1799</ele>
        <time>2022-02-20T11:26:55Z</time>
      </trkpt>
      <trkpt lat="42.88256" lon="0.11057">
        <ele>1795</ele>
        <time>2022-02-20T11:27:01Z</time>
      </trkpt>
      <trkpt lat="42.8826" lon="0.11057">
        <ele>1793</ele>
        <time>2022-02-20T11:27:02Z</time>
      </trkpt>
      <trkpt lat="42.88263" lon="0.11059">
        <ele>1792</ele>
        <time>2022-02-20T11:27:03Z</time>
      </trkpt>
      <trkpt lat="42.88266" lon="0.11065">
        <ele>1790</ele>
        <time>2022-02-20T11:27:04Z</time>
      </trkpt>
      <trkpt lat="42.88268" lon="0.11071">
        <ele>1788</ele>
        <time>2022-02-20T11:27:05Z</time>
      </trkpt>
      <trkpt lat="42.8827" lon="0.11085">
        <ele>1788</ele>
        <time>2022-02-20T11:27:07Z</time>
      </trkpt>
      <trkpt lat="42.88276" lon="0.11105">
        <ele>1785</ele>
        <time>2022-02-20T11:27:11Z</time>
      </trkpt>
      <trkpt lat="42.88278" lon="0.11106">
        <ele>1784</ele>
        <time>2022-02-20T11:27:12Z</time>
      </trkpt>
      <trkpt lat="42.88291" lon="0.11115">
        <ele>1779</ele>
        <time>2022-02-20T11:27:15Z</time>
      </trkpt>
      <trkpt lat="42.88295" lon="0.11131">
        <ele>1779</ele>
        <time>2022-02-20T11:27:17Z</time>
      </trkpt>
      <trkpt lat="42.88291" lon="0.11132">
        <ele>1778</ele>
        <time>2022-02-20T11:27:24Z</time>
      </trkpt>
      <trkpt lat="42.88281" lon="0.11127">
        <ele>1778</ele>
        <time>2022-02-20T11:27:32Z</time>
      </trkpt>
      <trkpt lat="42.88263" lon="0.11137">
        <ele>1776</ele>
        <time>2022-02-20T11:27:44Z</time>
      </trkpt>
      <trkpt lat="42.88262" lon="0.11137">
        <ele>1775</ele>
        <time>2022-02-20T11:27:46Z</time>
      </trkpt>
      <trkpt lat="42.8826" lon="0.11146">
        <ele>1771</ele>
        <time>2022-02-20T11:27:51Z</time>
      </trkpt>
      <trkpt lat="42.88274" lon="0.11147">
        <ele>1767</ele>
        <time>2022-02-20T11:27:54Z</time>
      </trkpt>
      <trkpt lat="42.88276" lon="0.11158">
        <ele>1764</ele>
        <time>2022-02-20T11:27:56Z</time>
      </trkpt>
      <trkpt lat="42.88275" lon="0.11162">
        <ele>1764</ele>
        <time>2022-02-20T11:27:57Z</time>
      </trkpt>
      <trkpt lat="42.88272" lon="0.11177">
        <ele>1762</ele>
        <time>2022-02-20T11:28:01Z</time>
      </trkpt>
      <trkpt lat="42.88272" lon="0.11183">
        <ele>1759</ele>
        <time>2022-02-20T11:28:03Z</time>
      </trkpt>
      <trkpt lat="42.88283" lon="0.112">
        <ele>1757</ele>
        <time>2022-02-20T11:28:06Z</time>
      </trkpt>
      <trkpt lat="42.88291" lon="0.11202">
        <ele>1757</ele>
        <time>2022-02-20T11:28:07Z</time>
      </trkpt>
      <trkpt lat="42.88298" lon="0.112">
        <ele>1755</ele>
        <time>2022-02-20T11:28:09Z</time>
      </trkpt>
      <trkpt lat="42.88309" lon="0.112">
        <ele>1754</ele>
        <time>2022-02-20T11:28:11Z</time>
      </trkpt>
      <trkpt lat="42.88324" lon="0.11199">
        <ele>1750</ele>
        <time>2022-02-20T11:28:13Z</time>
      </trkpt>
      <trkpt lat="42.88327" lon="0.11199">
        <ele>1751</ele>
        <time>2022-02-20T11:28:14Z</time>
      </trkpt>
      <trkpt lat="42.88358" lon="0.11191">
        <ele>1748</ele>
        <time>2022-02-20T11:28:21Z</time>
      </trkpt>
      <trkpt lat="42.88352" lon="0.1119">
        <ele>1749</ele>
        <time>2022-02-20T11:28:31Z</time>
      </trkpt>
      <trkpt lat="42.88348" lon="0.11203">
        <ele>1749</ele>
        <time>2022-02-20T11:28:58Z</time>
      </trkpt>
      <trkpt lat="42.88342" lon="0.11201">
        <ele>1750</ele>
        <time>2022-02-20T11:29:20Z</time>
      </trkpt>
      <trkpt lat="42.88337" lon="0.11197">
        <ele>1750</ele>
        <time>2022-02-20T11:29:53Z</time>
      </trkpt>
      <trkpt lat="42.88335" lon="0.11194">
        <ele>1750</ele>
        <time>2022-02-20T11:30:08Z</time>
      </trkpt>
      <trkpt lat="42.88334" lon="0.11191">
        <ele>1751</ele>
        <time>2022-02-20T11:30:32Z</time>
      </trkpt>
      <trkpt lat="42.88328" lon="0.11189">
        <ele>1750</ele>
        <time>2022-02-20T11:30:55Z</time>
      </trkpt>
      <trkpt lat="42.88327" lon="0.11189">
        <ele>1751</ele>
        <time>2022-02-20T11:31:17Z</time>
      </trkpt>
      <trkpt lat="42.88328" lon="0.11186">
        <ele>1752</ele>
        <time>2022-02-20T11:31:40Z</time>
      </trkpt>
      <trkpt lat="42.88326" lon="0.11183">
        <ele>1751</ele>
        <time>2022-02-20T11:32:02Z</time>
      </trkpt>
      <trkpt lat="42.88319" lon="0.11181">
        <ele>1752</ele>
        <time>2022-02-20T11:32:22Z</time>
      </trkpt>
      <trkpt lat="42.88312" lon="0.11176">
        <ele>1751</ele>
        <time>2022-02-20T11:32:45Z</time>
      </trkpt>
      <trkpt lat="42.88313" lon="0.11177">
        <ele>1751</ele>
        <time>2022-02-20T11:33:06Z</time>
      </trkpt>
      <trkpt lat="42.88324" lon="0.1118">
        <ele>1751</ele>
        <time>2022-02-20T11:33:31Z</time>
      </trkpt>
      <trkpt lat="42.88322" lon="0.11178">
        <ele>1751</ele>
        <time>2022-02-20T11:33:55Z</time>
      </trkpt>
      <trkpt lat="42.88323" lon="0.11177">
        <ele>1751</ele>
        <time>2022-02-20T11:33:57Z</time>
      </trkpt>
      <trkpt lat="42.88337" lon="0.11175">
        <ele>1750</ele>
        <time>2022-02-20T11:34:02Z</time>
      </trkpt>
      <trkpt lat="42.88349" lon="0.11165">
        <ele>1748</ele>
        <time>2022-02-20T11:34:05Z</time>
      </trkpt>
      <trkpt lat="42.88372" lon="0.11162">
        <ele>1745</ele>
        <time>2022-02-20T11:34:11Z</time>
      </trkpt>
      <trkpt lat="42.88377" lon="0.11162">
        <ele>1743</ele>
        <time>2022-02-20T11:34:22Z</time>
      </trkpt>
      <trkpt lat="42.8838" lon="0.11162">
        <ele>1744</ele>
        <time>2022-02-20T11:34:31Z</time>
      </trkpt>
      <trkpt lat="42.88386" lon="0.11156">
        <ele>1744</ele>
        <time>2022-02-20T11:34:41Z</time>
      </trkpt>
      <trkpt lat="42.88393" lon="0.11138">
        <ele>1742</ele>
        <time>2022-02-20T11:34:46Z</time>
      </trkpt>
      <trkpt lat="42.88421" lon="0.11103">
        <ele>1741</ele>
        <time>2022-02-20T11:34:59Z</time>
      </trkpt>
      <trkpt lat="42.88428" lon="0.1109">
        <ele>1740</ele>
        <time>2022-02-20T11:35:02Z</time>
      </trkpt>
      <trkpt lat="42.88451" lon="0.11046">
        <ele>1738</ele>
        <time>2022-02-20T11:35:14Z</time>
      </trkpt>
      <trkpt lat="42.88477" lon="0.11015">
        <ele>1736</ele>
        <time>2022-02-20T11:35:26Z</time>
      </trkpt>
      <trkpt lat="42.88483" lon="0.11011">
        <ele>1736</ele>
        <time>2022-02-20T11:35:28Z</time>
      </trkpt>
      <trkpt lat="42.88494" lon="0.10992">
        <ele>1731</ele>
        <time>2022-02-20T11:35:31Z</time>
      </trkpt>
      <trkpt lat="42.88498" lon="0.10986">
        <ele>1730</ele>
        <time>2022-02-20T11:35:32Z</time>
      </trkpt>
      <trkpt lat="42.88526" lon="0.10959">
        <ele>1728</ele>
        <time>2022-02-20T11:35:37Z</time>
      </trkpt>
      <trkpt lat="42.88532" lon="0.10954">
        <ele>1727</ele>
        <time>2022-02-20T11:35:38Z</time>
      </trkpt>
      <trkpt lat="42.88554" lon="0.10935">
        <ele>1727</ele>
        <time>2022-02-20T11:35:42Z</time>
      </trkpt>
      <trkpt lat="42.88569" lon="0.10922">
        <ele>1724</ele>
        <time>2022-02-20T11:35:45Z</time>
      </trkpt>
      <trkpt lat="42.88587" lon="0.10909">
        <ele>1722</ele>
        <time>2022-02-20T11:35:48Z</time>
      </trkpt>
      <trkpt lat="42.88606" lon="0.10897">
        <ele>1718</ele>
        <time>2022-02-20T11:35:52Z</time>
      </trkpt>
      <trkpt lat="42.88619" lon="0.10892">
        <ele>1717</ele>
        <time>2022-02-20T11:35:54Z</time>
      </trkpt>
      <trkpt lat="42.88625" lon="0.10889">
        <ele>1716</ele>
        <time>2022-02-20T11:35:55Z</time>
      </trkpt>
      <trkpt lat="42.88635" lon="0.10882">
        <ele>1713</ele>
        <time>2022-02-20T11:35:57Z</time>
      </trkpt>
      <trkpt lat="42.88641" lon="0.10881">
        <ele>1713</ele>
        <time>2022-02-20T11:35:58Z</time>
      </trkpt>
      <trkpt lat="42.88672" lon="0.10884">
        <ele>1711</ele>
        <time>2022-02-20T11:36:05Z</time>
      </trkpt>
      <trkpt lat="42.88676" lon="0.10884">
        <ele>1710</ele>
        <time>2022-02-20T11:36:06Z</time>
      </trkpt>
      <trkpt lat="42.8869" lon="0.10876">
        <ele>1707</ele>
        <time>2022-02-20T11:36:08Z</time>
      </trkpt>
      <trkpt lat="42.88697" lon="0.10874">
        <ele>1706</ele>
        <time>2022-02-20T11:36:09Z</time>
      </trkpt>
      <trkpt lat="42.8872" lon="0.10866">
        <ele>1704</ele>
        <time>2022-02-20T11:36:13Z</time>
      </trkpt>
      <trkpt lat="42.88736" lon="0.10857">
        <ele>1701</ele>
        <time>2022-02-20T11:36:16Z</time>
      </trkpt>
      <trkpt lat="42.88742" lon="0.10851">
        <ele>1701</ele>
        <time>2022-02-20T11:36:24Z</time>
      </trkpt>
      <trkpt lat="42.88726" lon="0.10851">
        <ele>1701</ele>
        <time>2022-02-20T11:36:43Z</time>
      </trkpt>
      <trkpt lat="42.8872" lon="0.1085">
        <ele>1702</ele>
        <time>2022-02-20T11:37:17Z</time>
      </trkpt>
      <trkpt lat="42.88724" lon="0.10857">
        <ele>1701</ele>
        <time>2022-02-20T11:37:32Z</time>
      </trkpt>
      <trkpt lat="42.88744" lon="0.1085">
        <ele>1699</ele>
        <time>2022-02-20T11:37:49Z</time>
      </trkpt>
      <trkpt lat="42.88749" lon="0.10847">
        <ele>1696</ele>
        <time>2022-02-20T11:37:58Z</time>
      </trkpt>
      <trkpt lat="42.88748" lon="0.10842">
        <ele>1693</ele>
        <time>2022-02-20T11:38:06Z</time>
      </trkpt>
      <trkpt lat="42.88749" lon="0.1084">
        <ele>1693</ele>
        <time>2022-02-20T11:38:11Z</time>
      </trkpt>
      <trkpt lat="42.88754" lon="0.10835">
        <ele>1688</ele>
        <time>2022-02-20T11:38:15Z</time>
      </trkpt>
      <trkpt lat="42.88757" lon="0.10834">
        <ele>1686</ele>
        <time>2022-02-20T11:38:16Z</time>
      </trkpt>
      <trkpt lat="42.88783" lon="0.10828">
        <ele>1685</ele>
        <time>2022-02-20T11:38:21Z</time>
      </trkpt>
      <trkpt lat="42.88803" lon="0.10821">
        <ele>1680</ele>
        <time>2022-02-20T11:38:24Z</time>
      </trkpt>
      <trkpt lat="42.8881" lon="0.10819">
        <ele>1680</ele>
        <time>2022-02-20T11:38:25Z</time>
      </trkpt>
      <trkpt lat="42.88815" lon="0.10816">
        <ele>1681</ele>
        <time>2022-02-20T11:38:26Z</time>
      </trkpt>
      <trkpt lat="42.88844" lon="0.10805">
        <ele>1676</ele>
        <time>2022-02-20T11:38:30Z</time>
      </trkpt>
      <trkpt lat="42.88864" lon="0.10801">
        <ele>1674</ele>
        <time>2022-02-20T11:38:33Z</time>
      </trkpt>
      <trkpt lat="42.88868" lon="0.108">
        <ele>1674</ele>
        <time>2022-02-20T11:38:34Z</time>
      </trkpt>
      <trkpt lat="42.88869" lon="0.10802">
        <ele>1674</ele>
        <time>2022-02-20T11:38:41Z</time>
      </trkpt>
      <trkpt lat="42.88869" lon="0.10804">
        <ele>1673</ele>
        <time>2022-02-20T11:38:53Z</time>
      </trkpt>
      <trkpt lat="42.8889" lon="0.10796">
        <ele>1672</ele>
        <time>2022-02-20T11:39:03Z</time>
      </trkpt>
      <trkpt lat="42.88893" lon="0.10795">
        <ele>1672</ele>
        <time>2022-02-20T11:39:04Z</time>
      </trkpt>
      <trkpt lat="42.88918" lon="0.10771">
        <ele>1669</ele>
        <time>2022-02-20T11:39:13Z</time>
      </trkpt>
      <trkpt lat="42.88926" lon="0.10763">
        <ele>1668</ele>
        <time>2022-02-20T11:39:16Z</time>
      </trkpt>
      <trkpt lat="42.88941" lon="0.10754">
        <ele>1668</ele>
        <time>2022-02-20T11:39:20Z</time>
      </trkpt>
      <trkpt lat="42.88952" lon="0.10747">
        <ele>1667</ele>
        <time>2022-02-20T11:39:23Z</time>
      </trkpt>
      <trkpt lat="42.88961" lon="0.10746">
        <ele>1666</ele>
        <time>2022-02-20T11:39:25Z</time>
      </trkpt>
      <trkpt lat="42.8899" lon="0.10746">
        <ele>1663</ele>
        <time>2022-02-20T11:39:31Z</time>
      </trkpt>
      <trkpt lat="42.89002" lon="0.10749">
        <ele>1662</ele>
        <time>2022-02-20T11:39:33Z</time>
      </trkpt>
      <trkpt lat="42.89023" lon="0.10749">
        <ele>1659</ele>
        <time>2022-02-20T11:39:37Z</time>
      </trkpt>
      <trkpt lat="42.89046" lon="0.10745">
        <ele>1656</ele>
        <time>2022-02-20T11:39:41Z</time>
      </trkpt>
      <trkpt lat="42.89058" lon="0.10741">
        <ele>1655</ele>
        <time>2022-02-20T11:39:43Z</time>
      </trkpt>
      <trkpt lat="42.89079" lon="0.10725">
        <ele>1654</ele>
        <time>2022-02-20T11:39:47Z</time>
      </trkpt>
      <trkpt lat="42.89113" lon="0.1072">
        <ele>1648</ele>
        <time>2022-02-20T11:39:53Z</time>
      </trkpt>
      <trkpt lat="42.89144" lon="0.10713">
        <ele>1644</ele>
        <time>2022-02-20T11:39:58Z</time>
      </trkpt>
      <trkpt lat="42.89149" lon="0.10712">
        <ele>1644</ele>
        <time>2022-02-20T11:39:59Z</time>
      </trkpt>
      <trkpt lat="42.89177" lon="0.10708">
        <ele>1642</ele>
        <time>2022-02-20T11:40:05Z</time>
      </trkpt>
      <trkpt lat="42.89187" lon="0.10708">
        <ele>1640</ele>
        <time>2022-02-20T11:40:07Z</time>
      </trkpt>
      <trkpt lat="42.89204" lon="0.10713">
        <ele>1639</ele>
        <time>2022-02-20T11:40:10Z</time>
      </trkpt>
      <trkpt lat="42.8923" lon="0.10715">
        <ele>1634</ele>
        <time>2022-02-20T11:40:14Z</time>
      </trkpt>
      <trkpt lat="42.89249" lon="0.10717">
        <ele>1631</ele>
        <time>2022-02-20T11:40:17Z</time>
      </trkpt>
      <trkpt lat="42.89254" lon="0.10717">
        <ele>1631</ele>
        <time>2022-02-20T11:40:18Z</time>
      </trkpt>
      <trkpt lat="42.8926" lon="0.10718">
        <ele>1631</ele>
        <time>2022-02-20T11:40:19Z</time>
      </trkpt>
      <trkpt lat="42.8928" lon="0.10719">
        <ele>1627</ele>
        <time>2022-02-20T11:40:22Z</time>
      </trkpt>
      <trkpt lat="42.89286" lon="0.1072">
        <ele>1626</ele>
        <time>2022-02-20T11:40:23Z</time>
      </trkpt>
      <trkpt lat="42.89296" lon="0.10722">
        <ele>1626</ele>
        <time>2022-02-20T11:40:29Z</time>
      </trkpt>
      <trkpt lat="42.89288" lon="0.10727">
        <ele>1626</ele>
        <time>2022-02-20T11:40:48Z</time>
      </trkpt>
      <trkpt lat="42.89302" lon="0.10728">
        <ele>1624</ele>
        <time>2022-02-20T11:40:57Z</time>
      </trkpt>
      <trkpt lat="42.89291" lon="0.10715">
        <ele>1619</ele>
        <time>2022-02-20T11:41:01Z</time>
      </trkpt>
      <trkpt lat="42.89298" lon="0.10711">
        <ele>1616</ele>
        <time>2022-02-20T11:41:03Z</time>
      </trkpt>
      <trkpt lat="42.89302" lon="0.10708">
        <ele>1616</ele>
        <time>2022-02-20T11:41:04Z</time>
      </trkpt>
      <trkpt lat="42.89301" lon="0.10699">
        <ele>1613</ele>
        <time>2022-02-20T11:41:06Z</time>
      </trkpt>
      <trkpt lat="42.89308" lon="0.10692">
        <ele>1610</ele>
        <time>2022-02-20T11:41:08Z</time>
      </trkpt>
      <trkpt lat="42.89322" lon="0.10687">
        <ele>1607</ele>
        <time>2022-02-20T11:41:11Z</time>
      </trkpt>
      <trkpt lat="42.89331" lon="0.10686">
        <ele>1606</ele>
        <time>2022-02-20T11:41:14Z</time>
      </trkpt>
      <trkpt lat="42.89342" lon="0.10687">
        <ele>1604</ele>
        <time>2022-02-20T11:41:24Z</time>
      </trkpt>
      <trkpt lat="42.89363" lon="0.10695">
        <ele>1600</ele>
        <time>2022-02-20T11:41:30Z</time>
      </trkpt>
      <trkpt lat="42.89374" lon="0.10685">
        <ele>1595</ele>
        <time>2022-02-20T11:41:33Z</time>
      </trkpt>
      <trkpt lat="42.89377" lon="0.10685">
        <ele>1595</ele>
        <time>2022-02-20T11:41:34Z</time>
      </trkpt>
      <trkpt lat="42.89387" lon="0.10681">
        <ele>1592</ele>
        <time>2022-02-20T11:41:37Z</time>
      </trkpt>
      <trkpt lat="42.89378" lon="0.10668">
        <ele>1590</ele>
        <time>2022-02-20T11:41:40Z</time>
      </trkpt>
      <trkpt lat="42.89374" lon="0.10654">
        <ele>1588</ele>
        <time>2022-02-20T11:41:42Z</time>
      </trkpt>
      <trkpt lat="42.89372" lon="0.10645">
        <ele>1587</ele>
        <time>2022-02-20T11:41:43Z</time>
      </trkpt>
      <trkpt lat="42.89381" lon="0.10628">
        <ele>1582</ele>
        <time>2022-02-20T11:41:46Z</time>
      </trkpt>
      <trkpt lat="42.89391" lon="0.10634">
        <ele>1581</ele>
        <time>2022-02-20T11:41:49Z</time>
      </trkpt>
      <trkpt lat="42.89395" lon="0.10633">
        <ele>1581</ele>
        <time>2022-02-20T11:41:51Z</time>
      </trkpt>
      <trkpt lat="42.89411" lon="0.10636">
        <ele>1578</ele>
        <time>2022-02-20T11:41:56Z</time>
      </trkpt>
      <trkpt lat="42.89408" lon="0.10644">
        <ele>1579</ele>
        <time>2022-02-20T11:42:04Z</time>
      </trkpt>
      <trkpt lat="42.89407" lon="0.10642">
        <ele>1579</ele>
        <time>2022-02-20T11:42:29Z</time>
      </trkpt>
      <trkpt lat="42.89407" lon="0.10652">
        <ele>1579</ele>
        <time>2022-02-20T11:42:57Z</time>
      </trkpt>
      <trkpt lat="42.89408" lon="0.10652">
        <ele>1579</ele>
        <time>2022-02-20T11:43:18Z</time>
      </trkpt>
      <trkpt lat="42.89412" lon="0.10651">
        <ele>1580</ele>
        <time>2022-02-20T11:43:39Z</time>
      </trkpt>
      <trkpt lat="42.89413" lon="0.10646">
        <ele>1579</ele>
        <time>2022-02-20T11:43:55Z</time>
      </trkpt>
      <trkpt lat="42.89418" lon="0.10628">
        <ele>1576</ele>
        <time>2022-02-20T11:44:01Z</time>
      </trkpt>
      <trkpt lat="42.89433" lon="0.10614">
        <ele>1572</ele>
        <time>2022-02-20T11:44:07Z</time>
      </trkpt>
      <trkpt lat="42.89436" lon="0.1061">
        <ele>1572</ele>
        <time>2022-02-20T11:44:08Z</time>
      </trkpt>
      <trkpt lat="42.8944" lon="0.10604">
        <ele>1569</ele>
        <time>2022-02-20T11:44:09Z</time>
      </trkpt>
      <trkpt lat="42.89454" lon="0.1059">
        <ele>1565</ele>
        <time>2022-02-20T11:44:13Z</time>
      </trkpt>
      <trkpt lat="42.89456" lon="0.10584">
        <ele>1566</ele>
        <time>2022-02-20T11:44:14Z</time>
      </trkpt>
      <trkpt lat="42.89459" lon="0.10578">
        <ele>1564</ele>
        <time>2022-02-20T11:44:15Z</time>
      </trkpt>
      <trkpt lat="42.8947" lon="0.10569">
        <ele>1562</ele>
        <time>2022-02-20T11:44:18Z</time>
      </trkpt>
      <trkpt lat="42.89484" lon="0.10554">
        <ele>1557</ele>
        <time>2022-02-20T11:44:21Z</time>
      </trkpt>
      <trkpt lat="42.89491" lon="0.10547">
        <ele>1557</ele>
        <time>2022-02-20T11:44:23Z</time>
      </trkpt>
      <trkpt lat="42.89515" lon="0.10532">
        <ele>1551</ele>
        <time>2022-02-20T11:44:27Z</time>
      </trkpt>
      <trkpt lat="42.89521" lon="0.10529">
        <ele>1551</ele>
        <time>2022-02-20T11:44:28Z</time>
      </trkpt>
      <trkpt lat="42.89526" lon="0.10524">
        <ele>1550</ele>
        <time>2022-02-20T11:44:29Z</time>
      </trkpt>
      <trkpt lat="42.89544" lon="0.10507">
        <ele>1546</ele>
        <time>2022-02-20T11:44:33Z</time>
      </trkpt>
      <trkpt lat="42.8955" lon="0.10495">
        <ele>1545</ele>
        <time>2022-02-20T11:44:36Z</time>
      </trkpt>
      <trkpt lat="42.89553" lon="0.10461">
        <ele>1544</ele>
        <time>2022-02-20T11:44:50Z</time>
      </trkpt>
      <trkpt lat="42.89554" lon="0.10455">
        <ele>1544</ele>
        <time>2022-02-20T11:44:52Z</time>
      </trkpt>
      <trkpt lat="42.8956" lon="0.10448">
        <ele>1545</ele>
        <time>2022-02-20T11:45:05Z</time>
      </trkpt>
      <trkpt lat="42.8956" lon="0.10454">
        <ele>1545</ele>
        <time>2022-02-20T11:45:28Z</time>
      </trkpt>
      <trkpt lat="42.89559" lon="0.10456">
        <ele>1545</ele>
        <time>2022-02-20T11:45:50Z</time>
      </trkpt>
      <trkpt lat="42.89562" lon="0.10458">
        <ele>1545</ele>
        <time>2022-02-20T11:45:57Z</time>
      </trkpt>
      <trkpt lat="42.89587" lon="0.10469">
        <ele>1542</ele>
        <time>2022-02-20T11:46:07Z</time>
      </trkpt>
      <trkpt lat="42.89591" lon="0.10471">
        <ele>1541</ele>
        <time>2022-02-20T11:46:08Z</time>
      </trkpt>
      <trkpt lat="42.8963" lon="0.10484">
        <ele>1537</ele>
        <time>2022-02-20T11:46:15Z</time>
      </trkpt>
      <trkpt lat="42.89636" lon="0.10485">
        <ele>1537</ele>
        <time>2022-02-20T11:46:16Z</time>
      </trkpt>
      <trkpt lat="42.89643" lon="0.10486">
        <ele>1537</ele>
        <time>2022-02-20T11:46:17Z</time>
      </trkpt>
      <trkpt lat="42.89667" lon="0.10482">
        <ele>1534</ele>
        <time>2022-02-20T11:46:22Z</time>
      </trkpt>
      <trkpt lat="42.89669" lon="0.10483">
        <ele>1534</ele>
        <time>2022-02-20T11:46:23Z</time>
      </trkpt>
      <trkpt lat="42.89671" lon="0.10486">
        <ele>1534</ele>
        <time>2022-02-20T11:46:30Z</time>
      </trkpt>
      <trkpt lat="42.89692" lon="0.105">
        <ele>1529</ele>
        <time>2022-02-20T11:46:35Z</time>
      </trkpt>
      <trkpt lat="42.89717" lon="0.10504">
        <ele>1525</ele>
        <time>2022-02-20T11:46:39Z</time>
      </trkpt>
      <trkpt lat="42.89725" lon="0.10505">
        <ele>1523</ele>
        <time>2022-02-20T11:46:40Z</time>
      </trkpt>
      <trkpt lat="42.89746" lon="0.10507">
        <ele>1522</ele>
        <time>2022-02-20T11:46:43Z</time>
      </trkpt>
      <trkpt lat="42.89775" lon="0.10507">
        <ele>1519</ele>
        <time>2022-02-20T11:46:48Z</time>
      </trkpt>
      <trkpt lat="42.89806" lon="0.10487">
        <ele>1515</ele>
        <time>2022-02-20T11:46:54Z</time>
      </trkpt>
      <trkpt lat="42.89839" lon="0.10456">
        <ele>1512</ele>
        <time>2022-02-20T11:47:00Z</time>
      </trkpt>
      <trkpt lat="42.89848" lon="0.10447">
        <ele>1512</ele>
        <time>2022-02-20T11:47:02Z</time>
      </trkpt>
      <trkpt lat="42.89872" lon="0.10446">
        <ele>1509</ele>
        <time>2022-02-20T11:47:06Z</time>
      </trkpt>
      <trkpt lat="42.89885" lon="0.10446">
        <ele>1508</ele>
        <time>2022-02-20T11:47:08Z</time>
      </trkpt>
      <trkpt lat="42.89899" lon="0.10439">
        <ele>1504</ele>
        <time>2022-02-20T11:47:10Z</time>
      </trkpt>
      <trkpt lat="42.89923" lon="0.1043">
        <ele>1500</ele>
        <time>2022-02-20T11:47:13Z</time>
      </trkpt>
      <trkpt lat="42.8998" lon="0.10419">
        <ele>1498</ele>
        <time>2022-02-20T11:47:21Z</time>
      </trkpt>
      <trkpt lat="42.9001" lon="0.10412">
        <ele>1497</ele>
        <time>2022-02-20T11:47:27Z</time>
      </trkpt>
      <trkpt lat="42.90057" lon="0.10399">
        <ele>1494</ele>
        <time>2022-02-20T11:47:35Z</time>
      </trkpt>
      <trkpt lat="42.90074" lon="0.10393">
        <ele>1492</ele>
        <time>2022-02-20T11:47:37Z</time>
      </trkpt>
      <trkpt lat="42.90103" lon="0.10386">
        <ele>1488</ele>
        <time>2022-02-20T11:47:41Z</time>
      </trkpt>
      <trkpt lat="42.90117" lon="0.10381">
        <ele>1484</ele>
        <time>2022-02-20T11:47:43Z</time>
      </trkpt>
      <trkpt lat="42.90123" lon="0.10381">
        <ele>1485</ele>
        <time>2022-02-20T11:47:44Z</time>
      </trkpt>
      <trkpt lat="42.90147" lon="0.10367">
        <ele>1483</ele>
        <time>2022-02-20T11:47:48Z</time>
      </trkpt>
      <trkpt lat="42.90166" lon="0.10359">
        <ele>1482</ele>
        <time>2022-02-20T11:47:51Z</time>
      </trkpt>
      <trkpt lat="42.9018" lon="0.10358">
        <ele>1480</ele>
        <time>2022-02-20T11:47:53Z</time>
      </trkpt>
      <trkpt lat="42.90206" lon="0.10349">
        <ele>1478</ele>
        <time>2022-02-20T11:47:57Z</time>
      </trkpt>
      <trkpt lat="42.90247" lon="0.10351">
        <ele>1474</ele>
        <time>2022-02-20T11:48:03Z</time>
      </trkpt>
      <trkpt lat="42.9026" lon="0.10354">
        <ele>1473</ele>
        <time>2022-02-20T11:48:05Z</time>
      </trkpt>
      <trkpt lat="42.90299" lon="0.10352">
        <ele>1471</ele>
        <time>2022-02-20T11:48:14Z</time>
      </trkpt>
      <trkpt lat="42.90319" lon="0.10347">
        <ele>1469</ele>
        <time>2022-02-20T11:48:18Z</time>
      </trkpt>
      <trkpt lat="42.90324" lon="0.10333">
        <ele>1469</ele>
        <time>2022-02-20T11:48:24Z</time>
      </trkpt>
      <trkpt lat="42.90357" lon="0.10327">
        <ele>1469</ele>
        <time>2022-02-20T11:48:36Z</time>
      </trkpt>
      <trkpt lat="42.90373" lon="0.1034">
        <ele>1469</ele>
        <time>2022-02-20T11:48:48Z</time>
      </trkpt>
      <trkpt lat="42.90385" lon="0.10355">
        <ele>1469</ele>
        <time>2022-02-20T11:49:04Z</time>
      </trkpt>
      <trkpt lat="42.9039" lon="0.10352">
        <ele>1469</ele>
        <time>2022-02-20T11:49:22Z</time>
      </trkpt>
      <trkpt lat="42.9039" lon="0.10354">
        <ele>1469</ele>
        <time>2022-02-20T11:49:40Z</time>
      </trkpt>
      <trkpt lat="42.90382" lon="0.10354">
        <ele>1469</ele>
        <time>2022-02-20T11:49:58Z</time>
      </trkpt>
      <trkpt lat="42.90392" lon="0.1035">
        <ele>1469</ele>
        <time>2022-02-20T11:50:11Z</time>
      </trkpt>
      <trkpt lat="42.90399" lon="0.10339">
        <ele>1468</ele>
        <time>2022-02-20T11:50:26Z</time>
      </trkpt>
      <trkpt lat="42.90398" lon="0.10336">
        <ele>1468</ele>
        <time>2022-02-20T11:50:39Z</time>
      </trkpt>
      <trkpt lat="42.90399" lon="0.10334">
        <ele>1467</ele>
        <time>2022-02-20T11:50:52Z</time>
      </trkpt>
      <trkpt lat="42.90397" lon="0.10339">
        <ele>1467</ele>
        <time>2022-02-20T11:51:09Z</time>
      </trkpt>
      <trkpt lat="42.90398" lon="0.10337">
        <ele>1467</ele>
        <time>2022-02-20T11:51:24Z</time>
      </trkpt>
      <trkpt lat="42.904" lon="0.10339">
        <ele>1467</ele>
        <time>2022-02-20T11:51:34Z</time>
      </trkpt>
    </trkseg>
  </trk>
</gpx>